Provisional Data: Sangerfield River near Poolville, NY


Please select a monitoring station.
Please select start date.
Please select start date.

Toggle Unit: C/F Toggle Unit: C/F
Sample Time Temperature (C) Temperature (F) Specific Conductivity (mS/cm) pH   Turbidity (NTU+) DO (mg/L)
3/7/2021 12:00:00 AM -0.06 31.892 0.318 8.17 6.21 14.1
3/7/2021 12:15:00 AM -0.06 31.892 0.318 8.17 6.03 14.1
3/7/2021 12:30:00 AM -0.06 31.892 0.318 8.17 6.01 14.11
3/7/2021 12:45:00 AM -0.06 31.892 0.318 8.17 6.03 14.12
3/7/2021 1:00:00 AM -0.06 31.892 0.317 8.17 5.96 14.11
3/7/2021 1:15:00 AM -0.06 31.892 0.317 8.17 5.94 14.11
3/7/2021 1:30:00 AM -0.06 31.892 0.317 8.17 5.8 14.12
3/7/2021 1:45:00 AM -0.06 31.892 0.317 8.16 5.68 14.11
3/7/2021 2:00:00 AM -0.06 31.892 0.317 8.16 5.58 14.11
3/7/2021 2:15:00 AM -0.06 31.892 0.318 8.17 5.72 14.11
3/7/2021 2:30:00 AM -0.06 31.892 0.318 8.16 5.77 14.1
3/7/2021 2:45:00 AM -0.06 31.892 0.318 8.16 5.7 14.11
3/7/2021 3:00:00 AM -0.06 31.892 0.318 8.16 5.68 14.12
3/7/2021 3:15:00 AM -0.06 31.892 0.318 8.16 5.59 14.13
3/7/2021 3:30:00 AM -0.06 31.892 0.319 8.16 5.51 14.13
3/7/2021 3:45:00 AM -0.06 31.892 0.319 8.16 5.51 14.14
3/7/2021 4:00:00 AM -0.06 31.892 0.319 8.16 5.52 14.14
3/7/2021 4:15:00 AM -0.06 31.892 0.32 8.16 5.5 14.14
3/7/2021 4:30:00 AM -0.06 31.892 0.32 8.16 5.27 14.15
3/7/2021 4:45:00 AM -0.06 31.892 0.32 8.16 5.33 14.16
3/7/2021 5:00:00 AM -0.06 31.892 0.32 8.16 5.31 14.16
3/7/2021 5:15:00 AM -0.06 31.892 0.321 8.16 5.37 14.16
3/7/2021 5:30:00 AM -0.06 31.892 0.321 8.16 5.31 14.16
3/7/2021 5:45:00 AM -0.06 31.892 0.322 8.16 5.23 14.16
3/7/2021 6:00:00 AM -0.06 31.892 0.322 8.16 5.26 14.15
3/7/2021 6:15:00 AM -0.07 31.874 0.322 8.16 5.29 14.18
3/7/2021 6:30:00 AM -0.06 31.892 0.323 8.16 5.58 14.2
3/7/2021 6:45:00 AM -0.06 31.892 0.323 8.17 5.2 14.22
3/7/2021 7:00:00 AM -0.06 31.892 0.324 8.17 5.2 14.25
3/7/2021 7:15:00 AM -0.06 31.892 0.324 8.17 5.08 14.27
3/7/2021 7:30:00 AM -0.06 31.892 0.325 8.17 5.18 14.29
3/7/2021 7:45:00 AM -0.06 31.892 0.325 8.18 5.11 14.3
3/7/2021 8:00:00 AM -0.06 31.892 0.325 8.18 5.16 14.34
3/7/2021 8:15:00 AM -0.05 31.91 0.326 8.18 5.07 14.38
3/7/2021 8:30:00 AM -0.05 31.91 0.326 8.19 5.3 14.37
3/7/2021 8:45:00 AM -0.04 31.928 0.326 8.19 5.29 14.42
3/7/2021 9:00:00 AM -0.03 31.946 0.326 8.2 5.5 14.42
3/7/2021 9:15:00 AM -0.03 31.946 0.326 8.2 5.41 14.42
3/7/2021 9:30:00 AM -0.01 31.982 0.326 8.2 5.55 14.45
3/7/2021 9:45:00 AM -0.01 31.982 0.326 8.2 5.62 14.47
3/7/2021 10:00:00 AM -0.02 31.964 0.326 8.2 5.92 14.45
3/7/2021 10:15:00 AM -0.02 31.964 0.326 8.2 5.86 14.37
3/7/2021 10:30:00 AM -0.01 31.982 0.326 8.19 6.65 14.38
3/7/2021 10:45:00 AM 0 32 0.325 8.19 6.72 14.33
3/7/2021 11:00:00 AM 0.02 32.036 0.324 8.19 6.4 14.32
3/7/2021 11:15:00 AM 0 32 0.323 8.19 7.33 14.27
3/7/2021 11:30:00 AM 0.01 32.018 0.322 8.19 7.48 14.26
3/7/2021 11:45:00 AM 0.06 32.108 0.322 8.19 7.01 14.22
3/7/2021 12:00:00 PM 0.03 32.054 0.321 8.19 7.89 14.19
3/7/2021 12:15:00 PM 0.06 32.108 0.32 8.18 8.56 14.15
3/7/2021 12:30:00 PM 0.04 32.072 0.318 8.19 10.31 14.12
3/7/2021 12:45:00 PM 0.11 32.198 0.317 8.19 11.24 14.11
3/7/2021 1:00:00 PM 0.25 32.45 0.317 8.19 9.19 14.08
3/7/2021 1:15:00 PM 0.42 32.756 0.317 8.19 9.91 14.08
3/7/2021 1:30:00 PM 0.58 33.044 0.317 8.19 12.52 14.06
3/7/2021 1:45:00 PM 0.69 33.242 0.317 8.2 11.18 14.04
3/7/2021 2:00:00 PM 0.86 33.548 0.317 8.19 9.42 14.02
3/7/2021 2:15:00 PM 0.97 33.746 0.317 8.2 8.56 14
3/7/2021 2:30:00 PM 1.11 33.998 0.316 8.19 7.98 13.98
3/7/2021 2:45:00 PM 1.22 34.196 0.317 8.19 8.07 13.97
3/7/2021 3:00:00 PM 1.3 34.34 0.317 8.2 8.43 13.96
3/7/2021 3:15:00 PM 1.37 34.466 0.317 8.2 13 13.95
3/7/2021 3:30:00 PM 1.41 34.538 0.317 8.2 7.64 13.94
3/7/2021 3:45:00 PM 1.43 34.574 0.317 8.21 8.91 13.93
3/7/2021 4:00:00 PM 1.42 34.556 0.317 8.22 7.77 13.92
3/7/2021 4:15:00 PM 1.4 34.52 0.317 8.22 7.65 13.92
3/7/2021 4:30:00 PM 1.35 34.43 0.317 8.22 7.98 13.92
3/7/2021 4:45:00 PM 1.28 34.304 0.317 8.22 7.33 13.92
3/7/2021 5:00:00 PM 1.2 34.16 0.317 8.22 7.58 13.93
3/7/2021 5:15:00 PM 1.09 33.962 0.317 8.22 7.06 13.93
3/7/2021 5:30:00 PM 0.97 33.746 0.318 8.22 6.88 13.94
3/7/2021 5:45:00 PM 0.85 33.53 0.318 8.22 7.24 13.96
3/7/2021 6:00:00 PM 0.75 33.35 0.318 8.22 6.86 13.96
3/7/2021 6:15:00 PM 0.66 33.188 0.318 8.21 7.61 13.97
3/7/2021 6:30:00 PM 0.57 33.026 0.318 8.21 7.32 13.99
3/7/2021 6:45:00 PM 0.47 32.846 0.318 8.21 9.48 14.01
3/7/2021 7:00:00 PM 0.37 32.666 0.318 8.21 7.81 14.04
3/7/2021 7:15:00 PM 0.27 32.486 0.318 8.21 7.22 14.07
3/7/2021 7:30:00 PM 0.16 32.288 0.319 8.2 7.05 14.09
3/7/2021 7:45:00 PM 0.07 32.126 0.318 8.2 6.74 14.12
3/7/2021 8:00:00 PM -0.03 31.946 0.318 8.2 6.69 14.15
3/7/2021 8:15:00 PM -0.12 31.784 0.318 8.21 6.94 14.18
3/7/2021 8:30:00 PM -0.08 31.856 0.319 8.2 7.42 14.22
3/7/2021 8:45:00 PM -0.07 31.874 0.319 8.21 8.59 14.25
3/7/2021 9:00:00 PM -0.07 31.874 0.319 8.2 7.72 14.25
3/7/2021 9:15:00 PM -0.07 31.874 0.319 8.21 6.79 14.28
3/7/2021 9:30:00 PM -0.07 31.874 0.319 8.2 6.03 14.3
3/7/2021 9:45:00 PM -0.07 31.874 0.319 8.2 5.97 14.29
3/7/2021 10:00:00 PM -0.07 31.874 0.32 8.21 5.94 14.33
3/7/2021 10:15:00 PM -0.07 31.874 0.32 8.2 6.12 14.34
3/7/2021 10:30:00 PM -0.07 31.874 0.321 8.2 5.87 14.36
3/7/2021 10:45:00 PM -0.06 31.892 0.321 8.21 5.91 14.37
3/7/2021 11:00:00 PM -0.07 31.874 0.321 8.21 5.82 14.36
3/7/2021 11:15:00 PM -0.07 31.874 0.322 8.21 5.75 14.38
3/7/2021 11:30:00 PM -0.07 31.874 0.322 8.21 6.07 14.32
3/7/2021 11:45:00 PM -0.07 31.874 0.323 8.22 5.57 14.4
3/8/2021 12:00:00 AM -0.06 31.892 0.324 8.22 5.39 14.42
3/8/2021 12:15:00 AM -0.06 31.892 0.324 8.23 5.59 14.44
3/8/2021 12:30:00 AM -0.06 31.892 0.325 8.23 5.34 14.43
3/8/2021 12:45:00 AM -0.06 31.892 0.326 8.23 5.35 14.43
3/8/2021 1:00:00 AM -0.06 31.892 0.327 8.23 5.29 14.43
3/8/2021 1:15:00 AM -0.06 31.892 0.327 8.23 5.16 14.45
3/8/2021 1:30:00 AM -0.06 31.892 0.329 8.22 5.36 14.49
3/8/2021 1:45:00 AM -0.06 31.892 0.33 8.22 5.1 14.49
3/8/2021 2:00:00 AM -0.06 31.892 0.331 8.22 5.03 14.49
3/8/2021 2:15:00 AM -0.06 31.892 0.332 8.22 5.2 14.48
3/8/2021 2:30:00 AM -0.06 31.892 0.332 8.2 5.08 14.49
3/8/2021 2:45:00 AM -0.06 31.892 0.333 8.2 5.21 14.48
3/8/2021 3:00:00 AM -0.06 31.892 0.334 8.19 5.02 14.48
3/8/2021 3:15:00 AM -0.06 31.892 0.335 8.19 5.02 14.48
3/8/2021 3:30:00 AM -0.06 31.892 0.335 8.2 5.03 14.48
3/8/2021 3:45:00 AM -0.06 31.892 0.336 8.2 5.26 14.47
3/8/2021 4:00:00 AM -0.06 31.892 0.336 8.19 5.11 14.47
3/8/2021 4:15:00 AM -0.06 31.892 0.337 8.19 5.06 14.48
3/8/2021 4:30:00 AM -0.07 31.874 0.337 8.17 4.97 14.47
3/8/2021 4:45:00 AM -0.06 31.892 0.338 8.19 5 14.47
3/8/2021 5:00:00 AM -0.07 31.874 0.338 8.21 5.08 14.48
3/8/2021 5:15:00 AM -0.06 31.892 0.338 8.21 4.94 14.48
3/8/2021 5:30:00 AM -0.06 31.892 0.339 8.19 4.91 14.48
3/8/2021 5:45:00 AM -0.06 31.892 0.339 8.21 4.89 14.46
3/8/2021 6:00:00 AM -0.06 31.892 0.34 8.21 4.94 14.47
3/8/2021 6:15:00 AM -0.06 31.892 0.34 8.2 4.84 14.48
3/8/2021 6:30:00 AM -0.06 31.892 0.341 8.19 4.94 14.44
3/8/2021 6:45:00 AM -0.06 31.892 0.341 8.2 4.89 14.43
3/8/2021 7:00:00 AM -0.06 31.892 0.341 8.2 4.77 14.46
3/8/2021 7:15:00 AM -0.06 31.892 0.342 8.21 4.91 14.51
3/8/2021 7:30:00 AM -0.06 31.892 0.342 8.21 4.88 14.54
3/8/2021 7:45:00 AM -0.06 31.892 0.342 8.21 4.78 14.57
3/8/2021 8:00:00 AM -0.05 31.91 0.343 8.21 4.69 14.56
3/8/2021 8:15:00 AM -0.04 31.928 0.343 8.22 4.87 14.6
3/8/2021 8:30:00 AM -0.03 31.946 0.343 8.2 4.86 14.59
3/8/2021 8:45:00 AM -0.03 31.946 0.343 8.2 5.57 14.56
3/8/2021 9:00:00 AM -0.02 31.964 0.343 8.23 5.09 14.62
3/8/2021 9:15:00 AM -0.02 31.964 0.343 8.23 5.23 14.65
3/8/2021 9:30:00 AM 0 32 0.343 8.23 4.99 14.66
3/8/2021 9:45:00 AM 0.01 32.018 0.343 8.23 4.98 14.64
3/8/2021 10:00:00 AM 0.02 32.036 0.343 8.23 5.13 14.66
3/8/2021 10:15:00 AM 0.01 32.018 0.342 8.22 5.37 14.59
3/8/2021 10:30:00 AM 0.03 32.054 0.342 8.21 5.37 14.62
3/8/2021 10:45:00 AM 0.02 32.036 0.342 8.22 5.95 14.49
3/8/2021 11:00:00 AM 0.01 32.018 0.341 8.2 6.38 14.41
3/8/2021 11:15:00 AM 0.02 32.036 0.34 8.19 6.68 14.36
3/8/2021 11:30:00 AM 0.07 32.126 0.338 8.2 6.59 14.33
3/8/2021 11:45:00 AM 0.06 32.108 0.337 8.19 7.03 14.3
3/8/2021 12:00:00 PM 0.07 32.126 0.335 8.19 7.82 14.26
3/8/2021 12:15:00 PM 0.03 32.054 0.334 8.19 7.56 14.24
3/8/2021 12:30:00 PM 0.03 32.054 0.332 8.18 8.6 14.2
3/8/2021 12:45:00 PM 0.03 32.054 0.331 8.18 8.38 14.16
3/8/2021 1:00:00 PM 0.04 32.072 0.33 8.18 9 14.13
3/8/2021 1:15:00 PM 0.02 32.036 0.329 8.17 10.52 14.1
3/8/2021 1:30:00 PM 0.02 32.036 0.328 8.17 11.31 14.08
3/8/2021 1:45:00 PM 0.03 32.054 0.327 8.17 11.83 14.08
3/8/2021 2:00:00 PM 0.03 32.054 0.326 8.17 13.25 14.07
3/8/2021 2:15:00 PM 0.03 32.054 0.326 8.16 11.14 14.05
3/8/2021 2:30:00 PM 0.07 32.126 0.326 8.16 16.79 14.04
3/8/2021 2:45:00 PM 0.1 32.18 0.326 8.17 13.07 14.02
3/8/2021 3:00:00 PM 0.13 32.234 0.324 8.16 12.89 14.04
3/8/2021 3:15:00 PM 0.18 32.324 0.324 8.17 14.37 14.05
3/8/2021 3:30:00 PM 0.21 32.378 0.323 8.17 12.43 14.07
3/8/2021 3:45:00 PM 0.24 32.432 0.322 8.17 11.65 14.08
3/8/2021 4:00:00 PM 0.25 32.45 0.321 8.18 11.74 14.08
3/8/2021 4:15:00 PM 0.28 32.504 0.32 8.18 10.91 14.09
3/8/2021 4:30:00 PM 0.3 32.54 0.32 8.19 11.06 14.13
3/8/2021 4:45:00 PM 0.33 32.594 0.319 8.19 10.37 14.12
3/8/2021 5:00:00 PM 0.35 32.63 0.318 8.2 9.5 14.13
3/8/2021 5:15:00 PM 0.34 32.612 0.318 8.2 8.71 14.14
3/8/2021 5:30:00 PM 0.33 32.594 0.317 8.2 8.83 14.14
3/8/2021 5:45:00 PM 0.31 32.558 0.317 8.2 12.19 14.13
3/8/2021 6:00:00 PM 0.29 32.522 0.317 8.2 11.98 14.12
3/8/2021 6:15:00 PM 0.28 32.504 0.318 8.19 9.35 14.11
3/8/2021 6:30:00 PM 0.26 32.468 0.318 8.19 8.87 14.1
3/8/2021 6:45:00 PM 0.24 32.432 0.318 8.19 8.05 14.08
3/8/2021 7:00:00 PM 0.23 32.414 0.318 8.19 8.31 14.09
3/8/2021 7:15:00 PM 0.21 32.378 0.318 8.19 8.29 14.07
3/8/2021 7:30:00 PM 0.19 32.342 0.319 8.19 7.8 14.07
3/8/2021 7:45:00 PM 0.18 32.324 0.318 8.19 8.36 14.08
3/8/2021 8:00:00 PM 0.17 32.306 0.318 8.19 8.85 14.09
3/8/2021 8:15:00 PM 0.17 32.306 0.318 8.19 8.19 14.09
3/8/2021 8:30:00 PM 0.16 32.288 0.318 8.19 7.78 14.09
3/8/2021 8:45:00 PM 0.16 32.288 0.317 8.19 8.84 14.08
3/8/2021 9:00:00 PM 0.16 32.288 0.316 8.19 8.58 14.09
3/8/2021 9:15:00 PM 0.16 32.288 0.316 8.18 8.37 14.08
3/8/2021 9:30:00 PM 0.16 32.288 0.316 8.19 7.41 14.08
3/8/2021 9:45:00 PM 0.15 32.27 0.315 8.19 7.25 14.09
3/8/2021 10:00:00 PM 0.14 32.252 0.315 8.19 7.58 14.08
3/8/2021 10:15:00 PM 0.13 32.234 0.314 8.19 8.17 14.09
3/8/2021 10:30:00 PM 0.13 32.234 0.314 8.19 7.49 14.08
3/8/2021 10:45:00 PM 0.13 32.234 0.313 8.19 8.22 14.1
3/8/2021 11:00:00 PM 0.12 32.216 0.313 8.18 7.8 14.09
3/8/2021 11:15:00 PM 0.12 32.216 0.313 8.18 6.98 14.1
3/8/2021 11:30:00 PM 0.13 32.234 0.312 8.19 7.35 14.09
3/8/2021 11:45:00 PM 0.14 32.252 0.312 8.19 7.27 14.1
3/9/2021 12:00:00 AM 0.13 32.234 0.312 8.19 8.1 14.09
3/9/2021 12:15:00 AM 0.14 32.252 0.311 8.19 7.26 14.09
3/9/2021 12:30:00 AM 0.15 32.27 0.311 8.19 7.44 14.09
3/9/2021 12:45:00 AM 0.16 32.288 0.312 8.19 7.73 14.08
3/9/2021 1:00:00 AM 0.16 32.288 0.312 8.19 8.15 14.08
3/9/2021 1:15:00 AM 0.17 32.306 0.312 8.19 7.91 14.07
3/9/2021 1:30:00 AM 0.15 32.27 0.313 8.19 7.49 14.07
3/9/2021 1:45:00 AM 0.13 32.234 0.314 8.19 6.64 14.08
3/9/2021 2:00:00 AM 0.11 32.198 0.314 8.19 7.03 14.07
3/9/2021 2:15:00 AM 0.09 32.162 0.315 8.19 6.78 14.09
3/9/2021 2:30:00 AM 0.09 32.162 0.316 8.19 6.86 14.09
3/9/2021 2:45:00 AM 0.09 32.162 0.316 8.19 7.14 14.09
3/9/2021 3:00:00 AM 0.09 32.162 0.317 8.19 6.91 14.08
3/9/2021 3:15:00 AM 0.08 32.144 0.317 8.19 6.83 14.08
3/9/2021 3:30:00 AM 0.06 32.108 0.317 8.19 6.91 14.08
3/9/2021 3:45:00 AM 0.07 32.126 0.317 8.19 6.68 14.09
3/9/2021 4:00:00 AM 0.06 32.108 0.318 8.18 6.7 14.08
3/9/2021 4:15:00 AM 0.04 32.072 0.318 8.19 6.48 14.08
3/9/2021 4:30:00 AM 0.02 32.036 0.318 8.18 6.88 14.08
3/9/2021 4:45:00 AM 0 32 0.318 8.18 6.61 14.09
3/9/2021 5:00:00 AM -0.02 31.964 0.318 8.18 6.88 14.09
3/9/2021 5:15:00 AM -0.02 31.964 0.318 8.17 6.75 14.1
3/9/2021 5:30:00 AM -0.03 31.946 0.317 8.18 7.09 14.1
3/9/2021 5:45:00 AM -0.05 31.91 0.317 8.17 7.05 14.12
3/9/2021 6:00:00 AM -0.06 31.892 0.317 8.17 7.93 14.12
3/9/2021 6:15:00 AM -0.08 31.856 0.317 8.17 6.82 14.13
3/9/2021 6:30:00 AM -0.1 31.82 0.316 8.17 7.04 14.14
3/9/2021 6:45:00 AM -0.09 31.838 0.316 8.17 6.93 14.15
3/9/2021 7:00:00 AM -0.08 31.856 0.316 8.18 8.18 14.17
3/9/2021 7:15:00 AM -0.07 31.874 0.315 8.17 7.41 14.19
3/9/2021 7:30:00 AM -0.07 31.874 0.316 8.18 7.41 14.22
3/9/2021 7:45:00 AM -0.06 31.892 0.318 8.18 6.93 14.23
3/9/2021 8:00:00 AM -0.04 31.928 0.319 8.18 7.16 14.26
3/9/2021 8:15:00 AM -0.04 31.928 0.319 8.19 7.04 14.27
3/9/2021 8:30:00 AM -0.02 31.964 0.318 8.2 7.26 14.28
3/9/2021 8:45:00 AM 0.04 32.072 0.317 8.19 10.07 14.3
3/9/2021 9:00:00 AM 0.1 32.18 0.317 8.2 7.68 14.3
3/9/2021 9:15:00 AM 0.16 32.288 0.317 8.2 7.06 14.32
3/9/2021 9:30:00 AM 0.2 32.36 0.316 8.2 6.75 14.31
3/9/2021 9:45:00 AM 0.27 32.486 0.316 8.21 6.65 14.31
3/9/2021 10:00:00 AM 0.37 32.666 0.317 8.21 6.71 14.3
3/9/2021 10:15:00 AM 0.53 32.954 0.317 8.21 6.64 14.27
3/9/2021 10:30:00 AM 0.68 33.224 0.318 8.22 6.84 14.26
3/9/2021 10:45:00 AM 0.82 33.476 0.318 8.21 6.56 14.25
3/9/2021 11:00:00 AM 0.99 33.782 0.319 8.22 6.32 14.22
3/9/2021 11:15:00 AM 1.23 34.214 0.319 8.22 6.74 14.19
3/9/2021 11:30:00 AM 1.42 34.556 0.319 8.23 6.51 14.15
3/9/2021 11:45:00 AM 1.5 34.7 0.319 8.24 6.07 14.12
3/9/2021 12:00:00 PM 1.59 34.862 0.319 8.24 6.27 14.1
3/9/2021 12:15:00 PM 1.71 35.078 0.319 8.24 6.83 14.07
3/9/2021 12:30:00 PM 1.84 35.312 0.319 8.25 6.23 14.03
3/9/2021 12:45:00 PM 1.98 35.564 0.319 8.25 6.04 14
3/9/2021 1:00:00 PM 2.13 35.834 0.319 8.25 5.75 13.97
3/9/2021 1:15:00 PM 2.3 36.14 0.319 8.25 6.17 13.93
3/9/2021 1:30:00 PM 2.42 36.356 0.319 8.26 6.13 13.89
3/9/2021 1:45:00 PM 2.54 36.572 0.319 8.26 5.83 13.85
3/9/2021 2:00:00 PM 2.61 36.698 0.319 8.26 6.08 13.82
3/9/2021 2:15:00 PM 2.74 36.932 0.319 8.26 5.89 13.8
3/9/2021 2:30:00 PM 2.88 37.184 0.319 8.26 6.43 13.76
3/9/2021 2:45:00 PM 2.95 37.31 0.319 8.26 6.13 13.74
3/9/2021 3:00:00 PM 2.97 37.346 0.319 8.26 6.36 13.73
3/9/2021 3:15:00 PM 2.95 37.31 0.319 8.26 6.43 13.7
3/9/2021 3:30:00 PM 3.01 37.418 0.319 8.27 6.24 13.67
3/9/2021 3:45:00 PM 3.11 37.598 0.319 8.26 6.54 13.64
3/9/2021 4:00:00 PM 3.11 37.598 0.32 8.27 6.41 13.62
3/9/2021 4:15:00 PM 3.07 37.526 0.32 8.27 6.6 13.6
3/9/2021 4:30:00 PM 3.01 37.418 0.32 8.26 6.71 13.59
3/9/2021 4:45:00 PM 2.93 37.274 0.32 8.26 6.39 13.57
3/9/2021 5:00:00 PM 2.85 37.13 0.321 8.26 6.69 13.56
3/9/2021 5:15:00 PM 2.77 36.986 0.321 8.26 6.35 13.55
3/9/2021 5:30:00 PM 2.67 36.806 0.321 8.26 6.99 13.53
3/9/2021 5:45:00 PM 2.57 36.626 0.321 8.25 6.45 13.52
3/9/2021 6:00:00 PM 2.48 36.464 0.322 8.25 6.67 13.51
3/9/2021 6:15:00 PM 2.41 36.338 0.322 8.25 6.59 13.49
3/9/2021 6:30:00 PM 2.34 36.212 0.322 8.24 13.11 13.49
3/9/2021 6:45:00 PM 2.28 36.104 0.322 8.24 7.54 13.48
3/9/2021 7:00:00 PM 2.22 35.996 0.323 8.23 7.29 13.48
3/9/2021 7:15:00 PM 2.14 35.852 0.323 8.23 7.62 13.49
3/9/2021 7:30:00 PM 2.06 35.708 0.323 8.23 7.21 13.5
3/9/2021 7:45:00 PM 1.97 35.546 0.323 8.22 8.05 13.51
3/9/2021 8:00:00 PM 1.88 35.384 0.323 8.22 7.84 13.53
3/9/2021 8:15:00 PM 1.79 35.222 0.324 8.22 7.57 13.56
3/9/2021 8:30:00 PM 1.7 35.06 0.324 8.21 7.25 13.58
3/9/2021 8:45:00 PM 1.61 34.898 0.324 8.22 7.52 13.61
3/9/2021 9:00:00 PM 1.52 34.736 0.324 8.22 7.35 13.63
3/9/2021 9:15:00 PM 1.42 34.556 0.324 8.21 7.61 13.66
3/9/2021 9:30:00 PM 1.32 34.376 0.324 8.21 8 13.68
3/9/2021 9:45:00 PM 1.25 34.25 0.324 8.21 7.95 13.71
3/9/2021 10:00:00 PM 1.17 34.106 0.324 8.21 7.98 13.74
3/9/2021 10:15:00 PM 1.09 33.962 0.324 8.21 7.68 13.77
3/9/2021 10:30:00 PM 1.01 33.818 0.325 8.2 7.53 13.8
3/9/2021 10:45:00 PM 0.93 33.674 0.324 8.2 11.33 13.83
3/9/2021 11:00:00 PM 0.86 33.548 0.324 8.2 8.15 13.85
3/9/2021 11:15:00 PM 0.8 33.44 0.324 8.2 7.98 13.86
3/9/2021 11:30:00 PM 0.74 33.332 0.324 8.2 7.97 13.88
3/9/2021 11:45:00 PM 0.69 33.242 0.324 8.2 8.19 13.9
3/10/2021 12:00:00 AM 0.64 33.152 0.323 8.2 7.86 13.92
3/10/2021 12:15:00 AM 0.59 33.062 0.323 8.2 8.11 13.94
3/10/2021 12:30:00 AM 0.54 32.972 0.322 8.2 8.77 13.96
3/10/2021 12:45:00 AM 0.48 32.864 0.322 8.19 7.37 13.98
3/10/2021 1:00:00 AM 0.43 32.774 0.321 8.19 7.2 14
3/10/2021 1:15:00 AM 0.37 32.666 0.32 8.19 7.13 14.02
3/10/2021 1:30:00 AM 0.32 32.576 0.319 8.19 7.97 14.04
3/10/2021 1:45:00 AM 0.26 32.468 0.318 8.19 7.67 14.07
3/10/2021 2:00:00 AM 0.19 32.342 0.317 8.19 7.37 14.08
3/10/2021 2:15:00 AM 0.13 32.234 0.317 8.18 7.52 14.12
3/10/2021 2:30:00 AM 0.06 32.108 0.316 8.19 7.56 14.16
3/10/2021 2:45:00 AM 0 32 0.316 8.19 7.37 14.18
3/10/2021 3:00:00 AM -0.06 31.892 0.316 8.19 7.7 14.2
3/10/2021 3:15:00 AM -0.11 31.802 0.316 8.19 7.67 14.23
3/10/2021 3:30:00 AM -0.08 31.856 0.317 8.18 9.01 14.25
3/10/2021 3:45:00 AM -0.07 31.874 0.318 8.19 7.02 14.28
3/10/2021 4:00:00 AM -0.07 31.874 0.318 8.2 6.74 14.3
3/10/2021 4:15:00 AM -0.07 31.874 0.319 8.2 6.42 14.3
3/10/2021 4:30:00 AM -0.07 31.874 0.32 8.2 6.45 14.3
3/10/2021 4:45:00 AM -0.07 31.874 0.321 8.2 6.68 14.32
3/10/2021 5:00:00 AM -0.07 31.874 0.322 8.2 6.52 14.34
3/10/2021 5:15:00 AM -0.07 31.874 0.323 8.2 6.56 14.33
3/10/2021 5:30:00 AM -0.07 31.874 0.324 8.2 6.38 14.34
3/10/2021 5:45:00 AM -0.07 31.874 0.325 8.2 6.07 14.35
3/10/2021 6:00:00 AM -0.07 31.874 0.325 8.2 6.19 14.33
3/10/2021 6:15:00 AM -0.07 31.874 0.326 8.2 6.71 14.35
3/10/2021 6:30:00 AM -0.07 31.874 0.327 8.2 6.3 14.35
3/10/2021 6:45:00 AM -0.07 31.874 0.327 8.2 6 14.37
3/10/2021 7:00:00 AM -0.06 31.892 0.327 8.2 6.07 14.38
3/10/2021 7:15:00 AM -0.06 31.892 0.327 8.21 5.81 14.4
3/10/2021 7:30:00 AM -0.06 31.892 0.327 8.21 5.98 14.43
3/10/2021 7:45:00 AM -0.06 31.892 0.327 8.22 5.72 14.45
3/10/2021 8:00:00 AM -0.05 31.91 0.327 8.22 5.8 14.46
3/10/2021 8:15:00 AM -0.05 31.91 0.327 8.22 5.73 14.46
3/10/2021 8:30:00 AM -0.04 31.928 0.327 8.23 5.97 14.47
3/10/2021 8:45:00 AM -0.04 31.928 0.327 8.22 6.53 14.46
3/10/2021 9:00:00 AM -0.03 31.946 0.326 8.22 6.14 14.44
3/10/2021 9:15:00 AM -0.01 31.982 0.326 8.22 6.95 14.43
3/10/2021 9:30:00 AM 0.02 32.036 0.326 8.22 8.79 14.42
3/10/2021 9:45:00 AM 0.07 32.126 0.326 8.22 8.87 14.39
3/10/2021 10:00:00 AM 0.13 32.234 0.325 8.21 9.25 14.37
3/10/2021 10:15:00 AM 0.06 32.108 0.323 8.21 10.83 14.33
3/10/2021 10:30:00 AM 0.2 32.36 0.323 8.21 10.28 14.32
3/10/2021 10:45:00 AM 0.3 32.54 0.322 8.2 11.74 14.3
3/10/2021 11:00:00 AM 0.43 32.774 0.321 8.21 12.18 14.27
3/10/2021 11:15:00 AM 0.76 33.368 0.321 8.21 11.9 14.24
3/10/2021 11:30:00 AM 1.08 33.944 0.32 8.21 10.17 14.2
3/10/2021 11:45:00 AM 1.35 34.43 0.32 8.21 11.43 14.14
3/10/2021 12:00:00 PM 1.59 34.862 0.319 8.2 11.66 14.09
3/10/2021 12:15:00 PM 1.81 35.258 0.318 8.2 11.87 14.03
3/10/2021 12:30:00 PM 2.01 35.618 0.316 8.2 12.93 13.98
3/10/2021 12:45:00 PM 2.21 35.978 0.315 8.2 14.13 13.94
3/10/2021 1:00:00 PM 2.43 36.374 0.314 8.2 12.69 13.89
3/10/2021 1:15:00 PM 2.62 36.716 0.313 8.2 10.96 13.83
3/10/2021 1:30:00 PM 2.81 37.058 0.313 8.2 11.02 13.77
3/10/2021 1:45:00 PM 2.99 37.382 0.312 8.21 10.98 13.73
3/10/2021 2:00:00 PM 3.17 37.706 0.311 8.21 9.7 13.68
3/10/2021 2:15:00 PM 3.34 38.012 0.31 8.22 9.43 13.63
3/10/2021 2:30:00 PM 3.5 38.3 0.31 8.22 9.27 13.57
3/10/2021 2:45:00 PM 3.65 38.57 0.31 8.22 9.5 13.52
3/10/2021 3:00:00 PM 3.78 38.804 0.311 8.22 9.35 13.46
3/10/2021 3:15:00 PM 3.88 38.984 0.311 8.23 9.64 13.41
3/10/2021 3:30:00 PM 3.92 39.056 0.311 8.23 9.69 13.37
3/10/2021 3:45:00 PM 3.96 39.128 0.311 8.23 8.47 13.32
3/10/2021 4:00:00 PM 3.98 39.164 0.311 8.23 8.58 13.29
3/10/2021 4:15:00 PM 3.97 39.146 0.311 8.23 8.49 13.26
3/10/2021 4:30:00 PM 3.92 39.056 0.311 8.23 8.8 13.24
3/10/2021 4:45:00 PM 3.92 39.056 0.31 8.23 9.69 13.21
3/10/2021 5:00:00 PM 3.89 39.002 0.31 8.22 8.74 13.18
3/10/2021 5:15:00 PM 3.82 38.876 0.31 8.22 8.67 13.14
3/10/2021 5:30:00 PM 3.73 38.714 0.309 8.21 8.39 13.12
3/10/2021 5:45:00 PM 3.63 38.534 0.309 8.21 9.78 13.1
3/10/2021 6:00:00 PM 3.54 38.372 0.309 8.2 9.8 13.09
3/10/2021 6:15:00 PM 3.46 38.228 0.308 8.19 12.91 13.08
3/10/2021 6:30:00 PM 3.38 38.084 0.308 8.19 10.39 13.07
3/10/2021 6:45:00 PM 3.3 37.94 0.307 8.19 11.58 13.07
3/10/2021 7:00:00 PM 3.22 37.796 0.305 8.18 11.44 13.07
3/10/2021 7:15:00 PM 3.14 37.652 0.304 8.18 10.45 13.08
3/10/2021 7:30:00 PM 3.06 37.508 0.303 8.18 11.18 13.09
3/10/2021 7:45:00 PM 2.99 37.382 0.302 8.18 10.91 13.09
3/10/2021 8:00:00 PM 2.92 37.256 0.3 8.17 10.27 13.1
3/10/2021 8:15:00 PM 2.86 37.148 0.3 8.17 10.97 13.11
3/10/2021 8:30:00 PM 2.79 37.022 0.298 8.17 12.1 13.12
3/10/2021 8:45:00 PM 2.72 36.896 0.298 8.16 11.73 13.14
3/10/2021 9:00:00 PM 2.65 36.77 0.297 8.16 12.5 13.15
3/10/2021 9:15:00 PM 2.58 36.644 0.296 8.16 12.01 13.17
3/10/2021 9:30:00 PM 2.5 36.5 0.296 8.15 12.92 13.2
3/10/2021 9:45:00 PM 2.42 36.356 0.295 8.15 12.79 13.23
3/10/2021 10:00:00 PM 2.34 36.212 0.294 8.15 12.09 13.25
3/10/2021 10:15:00 PM 2.26 36.068 0.294 8.14 11.96 13.28
3/10/2021 10:30:00 PM 2.17 35.906 0.293 8.14 12.12 13.31
3/10/2021 10:45:00 PM 2.08 35.744 0.292 8.13 14.31 13.34
3/10/2021 11:00:00 PM 2 35.6 0.291 8.13 11.92 13.37
3/10/2021 11:15:00 PM 1.93 35.474 0.291 8.13 12.87 13.39
3/10/2021 11:30:00 PM 1.86 35.348 0.29 8.13 12.5 13.42
3/10/2021 11:45:00 PM 1.78 35.204 0.29 8.13 12.86 13.45
3/11/2021 12:00:00 AM 1.71 35.078 0.289 8.13 12.65 13.47
3/11/2021 12:15:00 AM 1.64 34.952 0.289 8.13 13.24 13.5
3/11/2021 12:30:00 AM 1.57 34.826 0.288 8.12 12.8 13.52
3/11/2021 12:45:00 AM 1.5 34.7 0.288 8.12 12.17 13.56
3/11/2021 1:00:00 AM 1.43 34.574 0.288 8.12 11.96 13.58
3/11/2021 1:15:00 AM 1.37 34.466 0.287 8.12 11.42 13.6
3/11/2021 1:30:00 AM 1.31 34.358 0.287 8.12 11.3 13.62
3/11/2021 1:45:00 AM 1.26 34.268 0.286 8.12 11.96 13.63
3/11/2021 2:00:00 AM 1.21 34.178 0.286 8.11 32.11 13.65
3/11/2021 2:15:00 AM 1.17 34.106 0.285 8.11 12.06 13.66
3/11/2021 2:30:00 AM 1.13 34.034 0.285 8.11 14.51 13.67
3/11/2021 2:45:00 AM 1.11 33.998 0.284 8.11 12.21 13.68
3/11/2021 3:00:00 AM 1.08 33.944 0.284 8.1 12.02 13.69
3/11/2021 3:15:00 AM 1.06 33.908 0.284 8.1 11.69 13.7
3/11/2021 3:30:00 AM 1.03 33.854 0.284 8.1 11.69 13.7
3/11/2021 3:45:00 AM 1 33.8 0.284 8.1 11.48 13.71
3/11/2021 4:00:00 AM 0.98 33.764 0.284 8.1 11.91 13.71
3/11/2021 4:15:00 AM 0.97 33.746 0.284 8.1 11.81 13.72
3/11/2021 4:30:00 AM 0.95 33.71 0.283 8.1 12.24 13.73
3/11/2021 4:45:00 AM 0.94 33.692 0.283 8.1 12.06 13.73
3/11/2021 5:00:00 AM 0.93 33.674 0.284 8.1 11.34 13.74
3/11/2021 5:15:00 AM 0.91 33.638 0.284 8.09 12.32 13.74
3/11/2021 5:30:00 AM 0.9 33.62 0.284 8.09 11.5 13.74
3/11/2021 5:45:00 AM 0.9 33.62 0.284 8.09 12.1 13.75
3/11/2021 6:00:00 AM 0.89 33.602 0.284 8.09 11.89 13.75
3/11/2021 6:15:00 AM 0.88 33.584 0.284 8.09 11.76 13.75
3/11/2021 6:30:00 AM 0.87 33.566 0.284 8.09 11.57 13.76
3/11/2021 6:45:00 AM 0.87 33.566 0.284 8.09 11.59 13.76
3/11/2021 7:00:00 AM 0.87 33.566 0.284 8.1 11.88 13.77
3/11/2021 7:15:00 AM 0.88 33.584 0.284 8.09 11.63 13.78
3/11/2021 7:30:00 AM 0.9 33.62 0.284 8.1 11.22 13.79
3/11/2021 7:45:00 AM 0.93 33.674 0.284 8.1 11.74 13.81
3/11/2021 8:00:00 AM 0.98 33.764 0.284 8.1 10.76 13.82
3/11/2021 8:15:00 AM 1.01 33.818 0.283 8.11 11.21 13.83
3/11/2021 8:30:00 AM 1.08 33.944 0.283 8.11 10.99 13.84
3/11/2021 8:45:00 AM 1.12 34.016 0.283 8.12 11.99 13.84
3/11/2021 9:00:00 AM 1.21 34.178 0.283 8.12 10.87 13.84
3/11/2021 9:15:00 AM 1.32 34.376 0.283 8.12 12.05 13.84
3/11/2021 9:30:00 AM 1.43 34.574 0.282 8.12 11.55 13.83
3/11/2021 9:45:00 AM 1.53 34.754 0.282 8.12 11.03 13.82
3/11/2021 10:00:00 AM 1.69 35.042 0.282 8.13 11.49 13.79
3/11/2021 10:15:00 AM 1.79 35.222 0.282 8.12 11.08 13.77
3/11/2021 10:30:00 AM 1.94 35.492 0.281 8.13 10.8 13.75
3/11/2021 10:45:00 AM 2.1 35.78 0.281 8.13 11.54 13.72
3/11/2021 11:00:00 AM 2.26 36.068 0.281 8.13 11.21 13.68
3/11/2021 11:15:00 AM 2.43 36.374 0.28 8.13 11.44 13.63
3/11/2021 11:30:00 AM 2.53 36.554 0.28 8.13 12.72 13.59
3/11/2021 11:45:00 AM 2.64 36.752 0.28 8.13 13.12 13.55
3/11/2021 12:00:00 PM 2.78 37.004 0.28 8.13 13.02 13.51
3/11/2021 12:15:00 PM 2.96 37.328 0.279 8.13 12.83 13.48
3/11/2021 12:30:00 PM 3.08 37.544 0.279 8.13 12.89 13.44
3/11/2021 12:45:00 PM 3.21 37.778 0.279 8.13 11.77 13.4
3/11/2021 1:00:00 PM 3.3 37.94 0.278 8.13 14.52 13.37
3/11/2021 1:15:00 PM 3.38 38.084 0.278 8.12 15.67 13.33
3/11/2021 1:30:00 PM 3.51 38.318 0.277 8.12 15.63 13.3
3/11/2021 1:45:00 PM 3.52 38.336 0.277 8.12 14.53 13.26
3/11/2021 2:00:00 PM 3.52 38.336 0.277 8.12 15.68 13.22
3/11/2021 2:15:00 PM 3.51 38.318 0.276 8.12 22.63 13.19
3/11/2021 2:30:00 PM 3.54 38.372 0.275 8.11 19.47 13.16
3/11/2021 2:45:00 PM 3.56 38.408 0.274 8.11 23.62 13.13
3/11/2021 3:00:00 PM 3.52 38.336 0.273 8.1 25.58 13.08
3/11/2021 3:15:00 PM 3.46 38.228 0.272 8.09 28.86 13.06
3/11/2021 3:30:00 PM 3.4 38.12 0.27 8.09 28.06 13.04
3/11/2021 3:45:00 PM 3.38 38.084 0.268 8.08 32.8 13.03
3/11/2021 4:00:00 PM 3.26 37.868 0.266 8.07 39.57 13
3/11/2021 4:15:00 PM 3.19 37.742 0.264 8.06 41.33 13
3/11/2021 4:30:00 PM 3.1 37.58 0.262 8.05 40.22 12.98
3/11/2021 4:45:00 PM 3 37.4 0.259 8.04 45.71 13
3/11/2021 5:00:00 PM 2.86 37.148 0.256 8.03 61.17 13
3/11/2021 5:15:00 PM 2.74 36.932 0.253 8.02 50.71 13.02
3/11/2021 5:30:00 PM 2.65 36.77 0.25 8.01 59.33 13.04
3/11/2021 5:45:00 PM 2.54 36.572 0.247 8 70.23 13.06
3/11/2021 6:00:00 PM 2.43 36.374 0.243 8 64.95 13.08
3/11/2021 6:15:00 PM 2.32 36.176 0.24 7.98 70.44 13.1
3/11/2021 6:30:00 PM 2.22 35.996 0.236 7.97 71.08 13.12
3/11/2021 6:45:00 PM 2.12 35.816 0.233 7.97 68.13 13.14
3/11/2021 7:00:00 PM 2.04 35.672 0.229 7.96 76.06 13.17
3/11/2021 7:15:00 PM 1.95 35.51 0.226 7.95 76.39 13.19
3/11/2021 7:30:00 PM 1.86 35.348 0.223 7.94 84.34 13.22
3/11/2021 7:45:00 PM 1.78 35.204 0.22 7.94 72.93 13.24
3/11/2021 8:00:00 PM 1.7 35.06 0.217 7.93 78.75 13.27
3/11/2021 8:15:00 PM 1.62 34.916 0.215 7.93 64.9 13.29
3/11/2021 8:30:00 PM 1.55 34.79 0.213 7.92 77.94 13.31
3/11/2021 8:45:00 PM 1.5 34.7 0.211 7.92 76.38 13.33
3/11/2021 9:00:00 PM 1.45 34.61 0.209 7.91 71.43 13.34
3/11/2021 9:15:00 PM 1.41 34.538 0.207 7.91 72.03 13.36
3/11/2021 9:30:00 PM 1.39 34.502 0.206 7.91 86.55 13.36
3/11/2021 9:45:00 PM 1.38 34.484 0.204 7.91 61.98 13.36
3/11/2021 10:00:00 PM 1.37 34.466 0.203 7.89 66.07 13.37
3/11/2021 10:15:00 PM 1.36 34.448 0.202 7.9 76.61 13.37
3/11/2021 10:30:00 PM 1.35 34.43 0.201 7.9 71.33 13.38
3/11/2021 10:45:00 PM 1.32 34.376 0.199 7.89 72.89 13.37
3/11/2021 11:00:00 PM 1.3 34.34 0.199 7.89 73.66 13.38
3/11/2021 11:15:00 PM 1.29 34.322 0.198 7.88 58.02 13.39
3/11/2021 11:30:00 PM 1.28 34.304 0.197 7.88 60.81 13.39
3/11/2021 11:45:00 PM 1.25 34.25 0.196 7.89 55.75 13.39
3/12/2021 12:00:00 AM 1.25 34.25 0.195 7.89 61.5 13.39
3/12/2021 12:15:00 AM 1.26 34.268 0.194 7.88 59.93 13.4
3/12/2021 12:30:00 AM 1.26 34.268 0.194 7.88 54.47 13.4
3/12/2021 12:45:00 AM 1.25 34.25 0.193 7.88 47.46 13.4
3/12/2021 1:00:00 AM 1.24 34.232 0.193 7.88 50.15 13.41
3/12/2021 1:15:00 AM 1.22 34.196 0.192 7.87 49.58 13.41
3/12/2021 1:30:00 AM 1.2 34.16 0.192 7.88 51.2 13.42
3/12/2021 1:45:00 AM 1.18 34.124 0.191 7.88 50.86 13.42
3/12/2021 2:00:00 AM 1.17 34.106 0.191 7.87 54.8 13.43
3/12/2021 2:15:00 AM 1.16 34.088 0.191 7.87 52.82 13.43
3/12/2021 2:30:00 AM 1.15 34.07 0.191 7.87 49.34 13.43
3/12/2021 2:45:00 AM 1.14 34.052 0.19 7.87 50.24 13.44
3/12/2021 3:00:00 AM 1.12 34.016 0.19 7.87 51.49 13.44
3/12/2021 3:15:00 AM 1.09 33.962 0.19 7.87 46.62 13.45
3/12/2021 3:30:00 AM 1.06 33.908 0.189 7.87 46.32 13.46
3/12/2021 3:45:00 AM 1.02 33.836 0.189 7.87 47.47 13.46
3/12/2021 4:00:00 AM 0.99 33.782 0.188 7.86 44.7 13.48
3/12/2021 4:15:00 AM 0.96 33.728 0.188 7.86 40.55 13.48
3/12/2021 4:30:00 AM 0.92 33.656 0.188 7.86 40.8 13.49
3/12/2021 4:45:00 AM 0.88 33.584 0.188 7.86 191.89 13.5
3/12/2021 5:00:00 AM 0.85 33.53 0.187 7.85 35.94 13.51
3/12/2021 5:15:00 AM 0.82 33.476 0.187 7.84 44.42 13.52
3/12/2021 5:30:00 AM 0.78 33.404 0.187 7.85 41.35 13.52
3/12/2021 5:45:00 AM 0.75 33.35 0.186 7.85 38.68 13.53
3/12/2021 6:00:00 AM 0.71 33.278 0.186 7.85 43.07 13.54
3/12/2021 6:15:00 AM 0.68 33.224 0.185 7.84 39.2 13.55
3/12/2021 6:30:00 AM 0.64 33.152 0.185 7.84 42.49 13.56
3/12/2021 6:45:00 AM 0.61 33.098 0.184 7.84 39.23 13.57
3/12/2021 7:00:00 AM 0.59 33.062 0.184 7.84 38.74 13.57
3/12/2021 7:15:00 AM 0.56 33.008 0.183 7.84 43.28 13.58
3/12/2021 7:30:00 AM 0.55 32.99 0.183 7.83 39.16 13.58
3/12/2021 7:45:00 AM 0.53 32.954 0.182 7.82 37.96 13.59
3/12/2021 8:00:00 AM 0.53 32.954 0.182 7.83 39.6 13.6
3/12/2021 8:15:00 AM 0.54 32.972 0.181 7.82 36.81 13.6
3/12/2021 8:30:00 AM 0.57 33.026 0.181 7.82 46.01 13.6
3/12/2021 8:45:00 AM 0.61 33.098 0.18 7.82 37.27 13.59
3/12/2021 9:00:00 AM 0.66 33.188 0.18 7.81 31.87 13.59
3/12/2021 9:15:00 AM 0.72 33.296 0.179 7.81 30.15 13.57
3/12/2021 9:30:00 AM 0.8 33.44 0.179 7.82 38.08 13.57
3/12/2021 9:45:00 AM 0.89 33.602 0.179 7.81 39.49 13.55
3/12/2021 10:00:00 AM 0.99 33.782 0.179 7.8 35.42 13.53
3/12/2021 10:15:00 AM 1.09 33.962 0.178 7.81 41.74 13.51
3/12/2021 10:30:00 AM 1.17 34.106 0.178 7.81 44.85 13.49
3/12/2021 10:45:00 AM 1.27 34.286 0.178 7.81 34.5 13.46
3/12/2021 11:00:00 AM 1.42 34.556 0.178 7.8 40.16 13.44
3/12/2021 11:15:00 AM 1.57 34.826 0.177 7.81 38.69 13.4
3/12/2021 11:30:00 AM 1.71 35.078 0.177 7.8 41.52 13.37
3/12/2021 11:45:00 AM 1.88 35.384 0.177 7.8 38.41 13.33
3/12/2021 12:00:00 PM 2.04 35.672 0.177 7.79 42.63 13.28
3/12/2021 12:15:00 PM 2.2 35.96 0.177 7.79 39.51 13.24
3/12/2021 12:30:00 PM 2.34 36.212 0.176 7.79 40.58 13.21
3/12/2021 12:45:00 PM 2.49 36.482 0.176 7.79 40.15 13.15
3/12/2021 1:00:00 PM 2.62 36.716 0.176 7.78 38.03 13.12
3/12/2021 1:15:00 PM 2.73 36.914 0.176 7.78 40.34 13.08
3/12/2021 1:30:00 PM 2.83 37.094 0.176 7.79 38.09 13.04
3/12/2021 1:45:00 PM 2.92 37.256 0.176 7.78 40.21 13
3/12/2021 2:00:00 PM 3.02 37.436 0.175 7.78 43.04 12.96
3/12/2021 2:15:00 PM 3.1 37.58 0.175 7.78 44.59 12.92
3/12/2021 2:30:00 PM 3.17 37.706 0.175 7.77 40.85 12.89
3/12/2021 2:45:00 PM 3.22 37.796 0.175 7.77 41.27 12.85
3/12/2021 3:00:00 PM 3.26 37.868 0.174 7.77 43.15 12.82
3/12/2021 3:15:00 PM 3.27 37.886 0.174 7.77 49.08 12.79
3/12/2021 3:30:00 PM 3.27 37.886 0.174 7.77 56.78 12.78
3/12/2021 3:45:00 PM 3.25 37.85 0.173 7.77 41.68 12.77
3/12/2021 4:00:00 PM 3.21 37.778 0.173 7.77 48.26 12.75
3/12/2021 4:15:00 PM 3.16 37.688 0.172 7.76 45.04 12.74
3/12/2021 4:30:00 PM 3.1 37.58 0.171 7.76 35.99 12.73
3/12/2021 4:45:00 PM 3.02 37.436 0.171 7.76 48.49 12.73
3/12/2021 5:00:00 PM 2.92 37.256 0.17 7.76 47.47 12.73
3/12/2021 5:15:00 PM 2.83 37.094 0.169 7.74 67.22 12.74
3/12/2021 5:30:00 PM 2.74 36.932 0.169 7.75 60.15 12.75
3/12/2021 5:45:00 PM 2.66 36.788 0.168 7.76 53.3 12.75
3/12/2021 6:00:00 PM 2.58 36.644 0.167 7.76 53.56 12.77
3/12/2021 6:15:00 PM 2.5 36.5 0.166 7.75 52.73 12.79
3/12/2021 6:30:00 PM 2.41 36.338 0.166 7.75 47.69 12.8
3/12/2021 6:45:00 PM 2.33 36.194 0.165 7.75 49.74 12.82
3/12/2021 7:00:00 PM 2.25 36.05 0.164 7.75 53.96 12.84
3/12/2021 7:15:00 PM 2.17 35.906 0.155 7.74 47.29 12.86
3/12/2021 7:30:00 PM 2.09 35.762 0.163 7.74 50.63 12.88
3/12/2021 7:45:00 PM 2.01 35.618 0.153 7.75 52.68 12.9
3/12/2021 8:00:00 PM 1.94 35.492 0.152 7.74 41.71 12.91
3/12/2021 8:15:00 PM 1.86 35.348 0.152 7.75 47.19 12.94
3/12/2021 8:30:00 PM 1.77 35.186 0.152 7.75 47.25 12.96
3/12/2021 8:45:00 PM 1.69 35.042 0.151 7.73 42.43 12.99
3/12/2021 9:00:00 PM 1.61 34.898 0.152 7.74 57 13.02
3/12/2021 9:15:00 PM 1.52 34.736 0.15 7.73 46.65 13.03
3/12/2021 9:30:00 PM 1.44 34.592 0.15 7.74 46.43 13.06
3/12/2021 9:45:00 PM 1.36 34.448 0.15 7.72 37.03 13.09
3/12/2021 10:00:00 PM 1.28 34.304 0.15 7.73 49.61 13.12
3/12/2021 10:15:00 PM 1.2 34.16 0.15 7.73 40.6 13.14
3/12/2021 10:30:00 PM 1.12 34.016 0.15 7.73 44.48 13.17
3/12/2021 10:45:00 PM 1.03 33.854 0.15 7.72 47.5 13.19
3/12/2021 11:00:00 PM 0.94 33.692 0.149 7.72 41.63 13.22
3/12/2021 11:15:00 PM 0.87 33.566 0.149 7.72 38.24 13.24
3/12/2021 11:30:00 PM 0.79 33.422 0.15 7.72 40 13.27
3/12/2021 11:45:00 PM 0.72 33.296 0.149 7.72 40.76 13.29
3/13/2021 12:00:00 AM 0.64 33.152 0.149 7.72 37.32 13.31
3/13/2021 12:15:00 AM 0.57 33.026 0.149 7.72 35.88 13.33
3/13/2021 12:30:00 AM 0.5 32.9 0.149 7.73 41.58 13.35
3/13/2021 12:45:00 AM 0.44 32.792 0.149 7.71 38.48 13.36
3/13/2021 1:00:00 AM 0.39 32.702 0.149 7.72 43.96 13.39
3/13/2021 1:15:00 AM 0.34 32.612 0.149 7.72 33.38 13.4
3/13/2021 1:30:00 AM 0.29 32.522 0.149 7.71 37.23 13.42
3/13/2021 1:45:00 AM 0.24 32.432 0.15 7.71 36.82 13.43
3/13/2021 2:00:00 AM 0.19 32.342 0.15 7.7 31.65 13.44
3/13/2021 2:15:00 AM 0.14 32.252 0.15 7.72 33.34 13.46
3/13/2021 2:30:00 AM 0.1 32.18 0.15 7.71 33.02 13.46
3/13/2021 2:45:00 AM 0.06 32.108 0.151 7.71 31.98 13.48
3/13/2021 3:00:00 AM 0.02 32.036 0.15 7.72 30.32 13.49
3/13/2021 3:15:00 AM -0.02 31.964 0.15 7.71 36.41 13.5
3/13/2021 3:30:00 AM -0.05 31.91 0.15 7.71 30.64 13.5
3/13/2021 3:45:00 AM -0.08 31.856 0.151 7.71 31.35 13.52
3/13/2021 4:00:00 AM -0.07 31.874 0.149 7.7 33.2 13.53
3/13/2021 4:15:00 AM -0.06 31.892 0.147 7.7 30.34 13.53
3/13/2021 4:30:00 AM -0.06 31.892 0.15 7.7 28.2 13.54
3/13/2021 4:45:00 AM -0.06 31.892 0.149 7.71 28.84 13.55
3/13/2021 5:00:00 AM -0.06 31.892 0.149 7.72 27.42 13.56
3/13/2021 5:15:00 AM -0.06 31.892 0.15 7.7 28.23 13.57
3/13/2021 5:30:00 AM -0.06 31.892 0.149 7.71 26.5 13.56
3/13/2021 5:45:00 AM -0.06 31.892 0.148 7.71 26.18 13.57
3/13/2021 6:00:00 AM -0.06 31.892 0.149 7.71 25.91 13.57
3/13/2021 6:15:00 AM -0.06 31.892 0.152 7.71 24.95 13.57
3/13/2021 6:30:00 AM -0.06 31.892 0.151 7.71 22.6 13.58
3/13/2021 6:45:00 AM -0.06 31.892 0.152 7.72 24.08 13.58
3/13/2021 7:00:00 AM -0.06 31.892 0.153 7.71 23.87 13.58
3/13/2021 7:15:00 AM -0.06 31.892 0.153 7.7 25.07 13.58
3/13/2021 7:30:00 AM -0.06 31.892 0.153 7.72 25.21 13.58
3/13/2021 7:45:00 AM -0.06 31.892 0.154 7.72 28.64 13.58
3/13/2021 8:00:00 AM -0.06 31.892 0.154 7.71 22.79 13.58
3/13/2021 8:15:00 AM -0.05 31.91 0.154 7.72 25.85 13.57
3/13/2021 8:30:00 AM -0.05 31.91 0.154 7.73 27.21 13.58
3/13/2021 8:45:00 AM -0.05 31.91 0.154 7.67 23.32 13.57
3/13/2021 9:00:00 AM -0.05 31.91 0.153 7.66 24.57 13.56
3/13/2021 9:15:00 AM -0.04 31.928 0.154 7.68 23.26 13.55
3/13/2021 9:30:00 AM -0.03 31.946 0.154 7.71 22.21 13.54
3/13/2021 9:45:00 AM -0.01 31.982 0.154 7.72 26.93 13.53
3/13/2021 10:00:00 AM 0 32 0.154 7.7 30.65 13.5
3/13/2021 10:15:00 AM 0.03 32.054 0.154 7.71 32.95 13.49
3/13/2021 10:30:00 AM 0.1 32.18 0.154 7.66 39.68 13.47
3/13/2021 10:45:00 AM 0.23 32.414 0.154 7.68 30.1 13.44
3/13/2021 11:00:00 AM 0.35 32.63 0.154 7.69 46.45 13.42
3/13/2021 11:15:00 AM 0.47 32.846 0.154 7.68 32.77 13.41
3/13/2021 11:30:00 AM 0.57 33.026 0.154 7.68 33.13 13.38
3/13/2021 11:45:00 AM 0.67 33.206 0.154 7.66 32.7 13.36
3/13/2021 12:00:00 PM 0.76 33.368 0.154 7.68 37.67 13.33
3/13/2021 12:15:00 PM 0.86 33.548 0.154 7.68 33.72 13.3
3/13/2021 12:30:00 PM 0.97 33.746 0.154 7.7 31.6 13.27
3/13/2021 12:45:00 PM 1.08 33.944 0.155 7.69 34.09 13.24
3/13/2021 1:00:00 PM 1.2 34.16 0.155 7.68 33.11 13.21
3/13/2021 1:15:00 PM 1.32 34.376 0.165 7.69 31.5 13.18
3/13/2021 1:30:00 PM 1.46 34.628 0.166 7.68 29.57 13.15
3/13/2021 1:45:00 PM 1.6 34.88 0.166 7.7 26.45 13.13
3/13/2021 2:00:00 PM 1.72 35.096 0.166 7.68 26.25 13.11
3/13/2021 2:15:00 PM 1.82 35.276 0.166 7.69 25.12 13.09
3/13/2021 2:30:00 PM 1.9 35.42 0.166 7.69 25.06 13.07
3/13/2021 2:45:00 PM 1.96 35.528 0.165 7.69 26.32 13.05
3/13/2021 3:00:00 PM 2 35.6 0.165 7.7 25.14 13.03
3/13/2021 3:15:00 PM 2.03 35.654 0.166 7.68 17.79 13.02
3/13/2021 3:30:00 PM 2.05 35.69 0.166 7.68 25.56 13
3/13/2021 3:45:00 PM 2.06 35.708 0.166 7.67 26.01 12.99
3/13/2021 4:00:00 PM 2.05 35.69 0.166 7.67 24.06 12.97
3/13/2021 4:15:00 PM 2.01 35.618 0.166 7.69 23.3 12.97
3/13/2021 4:30:00 PM 1.98 35.564 0.166 7.7 23.2 12.96
3/13/2021 4:45:00 PM 1.94 35.492 0.166 7.69 28.7 12.96
3/13/2021 5:00:00 PM 1.86 35.348 0.166 7.69 27.35 12.95
3/13/2021 5:15:00 PM 1.78 35.204 0.166 7.68 24.87 12.96
3/13/2021 5:30:00 PM 1.71 35.078 0.167 7.7 20.19 12.96
3/13/2021 5:45:00 PM 1.63 34.934 0.167 7.7 22.92 12.96
3/13/2021 6:00:00 PM 1.56 34.808 0.167 7.69 21.83 12.96
3/13/2021 6:15:00 PM 1.48 34.664 0.167 7.71 25.75 12.98
3/13/2021 6:30:00 PM 1.41 34.538 0.167 7.7 22.27 12.99
3/13/2021 6:45:00 PM 1.33 34.394 0.158 7.7 23.91 13
3/13/2021 7:00:00 PM 1.26 34.268 0.168 7.7 20.97 13
3/13/2021 7:15:00 PM 1.2 34.16 0.159 7.7 21.22 13.02
3/13/2021 7:30:00 PM 1.14 34.052 0.159 7.69 22.87 13.03
3/13/2021 7:45:00 PM 1.08 33.944 0.159 7.7 20.06 13.03
3/13/2021 8:00:00 PM 1.03 33.854 0.159 7.7 21.66 13.04
3/13/2021 8:15:00 PM 0.98 33.764 0.16 7.69 21.92 13.05
3/13/2021 8:30:00 PM 0.94 33.692 0.16 7.7 20.8 13.06
3/13/2021 8:45:00 PM 0.9 33.62 0.16 7.7 20.62 13.07
3/13/2021 9:00:00 PM 0.86 33.548 0.161 7.7 21.33 13.07
3/13/2021 9:15:00 PM 0.82 33.476 0.161 7.69 18.64 13.08
3/13/2021 9:30:00 PM 0.78 33.404 0.17 7.69 21.85 13.09
3/13/2021 9:45:00 PM 0.75 33.35 0.161 7.68 19.83 13.1
3/13/2021 10:00:00 PM 0.72 33.296 0.161 7.7 19.82 13.11
3/13/2021 10:15:00 PM 0.7 33.26 0.162 7.7 18 13.11
3/13/2021 10:30:00 PM 0.68 33.224 0.172 7.69 19.03 13.11
3/13/2021 10:45:00 PM 0.66 33.188 0.172 7.69 20.37 13.12
3/13/2021 11:00:00 PM 0.65 33.17 0.172 7.69 20 13.12
3/13/2021 11:15:00 PM 0.63 33.134 0.173 7.68 18.01 13.13
3/13/2021 11:30:00 PM 0.62 33.116 0.173 7.69 18.85 13.13
3/13/2021 11:45:00 PM 0.61 33.098 0.173 7.7 17.78 13.13
3/14/2021 12:00:00 AM 0.59 33.062 0.174 7.69 17.5 13.13
3/14/2021 12:15:00 AM 0.58 33.044 0.174 7.69 18.66 13.14
3/14/2021 12:30:00 AM 0.56 33.008 0.174 7.69 27.55 13.14
3/14/2021 12:45:00 AM 0.56 33.008 0.175 7.68 17.67 13.15
3/14/2021 1:00:00 AM 0.56 33.008 0.175 7.69 19.12 13.15
3/14/2021 1:15:00 AM 0.55 32.99 0.175 7.69 18.89 13.15
3/14/2021 1:30:00 AM 0.55 32.99 0.176 7.69 14.46 13.14
3/14/2021 1:45:00 AM 0.55 32.99 0.176 7.69 18.44 13.15
3/14/2021 3:00:00 AM 0.55 32.99 0.178 7.7 18.07 13.14
3/14/2021 3:15:00 AM 0.55 32.99 0.178 7.7 16.38 13.14
3/14/2021 3:30:00 AM 0.55 32.99 0.179 7.7 16.23 13.14
3/14/2021 3:45:00 AM 0.55 32.99 0.179 7.7 17.22 13.14
3/14/2021 4:00:00 AM 0.55 32.99 0.179 7.7 20.87 13.14
3/14/2021 5:15:00 AM 0.55 32.99 0.18 7.7 16.01 13.14
3/14/2021 5:30:00 AM 0.54 32.972 0.18 7.7 17.59 13.14
3/14/2021 5:45:00 AM 0.54 32.972 0.18 7.7 17.79 13.14
3/14/2021 6:00:00 AM 0.53 32.954 0.18 7.71 19.85 13.14
3/14/2021 6:15:00 AM 0.52 32.936 0.181 7.7 18.32 13.14
3/14/2021 6:30:00 AM 0.5 32.9 0.181 7.71 15.98 13.14
3/14/2021 6:45:00 AM 0.49 32.882 0.182 7.71 18.7 13.15
3/14/2021 7:00:00 AM 0.47 32.846 0.182 7.7 15.33 13.14
3/14/2021 7:15:00 AM 0.45 32.81 0.182 7.7 15.04 13.15
3/14/2021 7:30:00 AM 0.44 32.792 0.183 7.7 17.1 13.16
3/14/2021 7:45:00 AM 0.42 32.756 0.183 7.7 14.32 13.15
3/14/2021 8:00:00 AM 0.41 32.738 0.183 7.7 16.49 13.17
3/14/2021 8:15:00 AM 0.42 32.756 0.183 7.71 15.02 13.17
3/14/2021 8:30:00 AM 0.44 32.792 0.184 7.71 14.3 13.18
3/14/2021 8:45:00 AM 0.46 32.828 0.184 7.71 16.03 13.18
3/14/2021 9:00:00 AM 0.44 32.792 0.184 7.71 14.5 13.17
3/14/2021 9:15:00 AM 0.42 32.756 0.185 7.7 14.54 13.17
3/14/2021 9:30:00 AM 0.4 32.72 0.185 7.71 15.06 13.18
3/14/2021 9:45:00 AM 0.43 32.774 0.185 7.7 13.42 13.19
3/14/2021 10:00:00 AM 0.48 32.864 0.186 7.72 14.67 13.19
3/14/2021 10:15:00 AM 0.52 32.936 0.186 7.72 14.64 13.2
3/14/2021 10:30:00 AM 0.56 33.008 0.186 7.72 13.15 13.2
3/14/2021 10:45:00 AM 0.53 32.954 0.186 7.72 14.28 13.19
3/14/2021 11:00:00 AM 0.53 32.954 0.187 7.72 13.65 13.2
3/14/2021 11:15:00 AM 0.56 33.008 0.187 7.73 17.09 13.2
3/14/2021 11:30:00 AM 0.65 33.17 0.187 7.72 13.83 13.2
3/14/2021 11:45:00 AM 0.75 33.35 0.188 7.74 14.08 13.2
3/14/2021 12:00:00 PM 0.79 33.422 0.188 7.74 14.02 13.19
3/14/2021 12:15:00 PM 0.81 33.458 0.188 7.74 14.4 13.19
3/14/2021 12:30:00 PM 0.85 33.53 0.189 7.74 13.78 13.19
3/14/2021 12:45:00 PM 0.93 33.674 0.189 7.74 14.04 13.18
3/14/2021 1:00:00 PM 0.99 33.782 0.189 7.74 13.52 13.18
3/14/2021 1:15:00 PM 1.03 33.854 0.19 7.74 13.86 13.17
3/14/2021 1:30:00 PM 1.03 33.854 0.19 7.74 13.11 13.17
3/14/2021 1:45:00 PM 1.01 33.818 0.19 7.73 14.22 13.16
3/14/2021 2:00:00 PM 1.04 33.872 0.19 7.74 13.42 13.16
3/14/2021 2:15:00 PM 1.12 34.016 0.191 7.74 13.15 13.16
3/14/2021 2:30:00 PM 1.16 34.088 0.191 7.74 13.14 13.15
3/14/2021 2:45:00 PM 1.24 34.232 0.191 7.75 13.02 13.15
3/14/2021 3:00:00 PM 1.29 34.322 0.191 7.74 13.47 13.14
3/14/2021 3:15:00 PM 1.36 34.448 0.192 7.74 13.03 13.13
3/14/2021 3:30:00 PM 1.44 34.592 0.192 7.75 12.96 13.13
3/14/2021 3:45:00 PM 1.47 34.646 0.192 7.75 13.12 13.12
3/14/2021 4:00:00 PM 1.48 34.664 0.192 7.75 13.75 13.11
3/14/2021 4:15:00 PM 1.51 34.718 0.193 7.76 13.49 13.12
3/14/2021 4:30:00 PM 1.51 34.718 0.193 7.75 13.08 13.11
3/14/2021 4:45:00 PM 1.51 34.718 0.193 7.76 12.39 13.11
3/14/2021 5:00:00 PM 1.53 34.754 0.193 7.75 13.05 13.11
3/14/2021 5:15:00 PM 1.54 34.772 0.194 7.76 12.42 13.11
3/14/2021 5:30:00 PM 1.5 34.7 0.194 7.75 13.43 13.11
3/14/2021 5:45:00 PM 1.45 34.61 0.194 7.76 12.8 13.11
3/14/2021 6:00:00 PM 1.35 34.43 0.195 7.77 13.53 13.11
3/14/2021 6:15:00 PM 1.29 34.322 0.195 7.77 13.44 13.12
3/14/2021 6:30:00 PM 1.24 34.232 0.195 7.77 12.89 13.12
3/14/2021 6:45:00 PM 1.19 34.142 0.196 7.77 13.17 13.13
3/14/2021 7:00:00 PM 1.13 34.034 0.196 7.77 12.9 13.13
3/14/2021 7:15:00 PM 1.07 33.926 0.196 7.78 13.54 13.14
3/14/2021 7:30:00 PM 1.01 33.818 0.196 7.78 12.72 13.14
3/14/2021 7:45:00 PM 0.95 33.71 0.197 7.78 12.37 13.15
3/14/2021 8:00:00 PM 0.89 33.602 0.197 7.77 12.79 13.17
3/14/2021 8:15:00 PM 0.84 33.512 0.197 7.78 13 13.18
3/14/2021 8:30:00 PM 0.79 33.422 0.197 7.77 13.08 13.19
3/14/2021 8:45:00 PM 0.75 33.35 0.198 7.78 12.57 13.2
3/14/2021 9:00:00 PM 0.71 33.278 0.198 7.78 12.83 13.22
3/14/2021 9:15:00 PM 0.67 33.206 0.198 7.78 12.69 13.23
3/14/2021 9:30:00 PM 0.63 33.134 0.198 7.78 13 13.23
3/14/2021 9:45:00 PM 0.59 33.062 0.199 7.78 12.91 13.25
3/14/2021 10:00:00 PM 0.55 32.99 0.199 7.78 13 13.26
3/14/2021 10:15:00 PM 0.5 32.9 0.199 7.78 12.89 13.27
3/14/2021 10:30:00 PM 0.46 32.828 0.199 7.77 12.93 13.28
3/14/2021 10:45:00 PM 0.42 32.756 0.199 7.78 12.2 13.3
3/14/2021 11:00:00 PM 0.37 32.666 0.2 7.78 12.46 13.32
3/14/2021 11:15:00 PM 0.32 32.576 0.2 7.79 13.55 13.33
3/14/2021 11:30:00 PM 0.27 32.486 0.2 7.79 12.06 13.35
3/14/2021 11:45:00 PM 0.23 32.414 0.2 7.78 13.27 13.35
3/15/2021 12:00:00 AM 0.18 32.324 0.2 7.79 13.06 13.38
3/15/2021 12:15:00 AM 0.15 32.27 0.201 7.79 12.63 13.4
3/15/2021 12:30:00 AM 0.11 32.198 0.201 7.79 12.62 13.4
3/15/2021 12:45:00 AM 0.08 32.144 0.201 7.79 12.68 13.41
3/15/2021 1:00:00 AM 0.05 32.09 0.202 7.79 12.72 13.43
3/15/2021 1:15:00 AM 0.02 32.036 0.202 7.79 13.69 13.44
3/15/2021 1:30:00 AM -0.02 31.964 0.202 7.79 13.76 13.46
3/15/2021 1:45:00 AM -0.05 31.91 0.203 7.79 12.65 13.47
3/15/2021 2:00:00 AM -0.09 31.838 0.203 7.79 12.44 13.49
3/15/2021 2:15:00 AM -0.07 31.874 0.203 7.8 13.27 13.51
3/15/2021 2:30:00 AM -0.06 31.892 0.203 7.8 13.59 13.53
3/15/2021 2:45:00 AM -0.07 31.874 0.204 7.81 12.03 13.53
3/15/2021 3:00:00 AM -0.06 31.892 0.204 7.81 12.96 13.56
3/15/2021 3:15:00 AM -0.06 31.892 0.205 7.81 12.52 13.58
3/15/2021 3:30:00 AM -0.06 31.892 0.205 7.81 13.03 13.58
3/15/2021 3:45:00 AM -0.06 31.892 0.206 7.82 11.9 13.6
3/15/2021 4:00:00 AM -0.06 31.892 0.206 7.82 11.56 13.61
3/15/2021 4:15:00 AM -0.06 31.892 0.207 7.82 10.59 13.63
3/15/2021 4:30:00 AM -0.06 31.892 0.207 7.82 10.47 13.63
3/15/2021 4:45:00 AM -0.06 31.892 0.208 7.82 10.2 13.63
3/15/2021 5:00:00 AM -0.06 31.892 0.208 7.82 9.28 13.65
3/15/2021 5:15:00 AM -0.06 31.892 0.208 7.82 9.49 13.65
3/15/2021 5:30:00 AM -0.06 31.892 0.209 7.83 9.51 13.65
3/15/2021 5:45:00 AM -0.06 31.892 0.21 7.82 9.29 13.66
3/15/2021 6:00:00 AM -0.06 31.892 0.21 7.82 8.68 13.67
3/15/2021 6:15:00 AM -0.06 31.892 0.21 7.83 8.67 13.67
3/15/2021 6:30:00 AM -0.06 31.892 0.211 7.83 8.91 13.67
3/15/2021 6:45:00 AM -0.06 31.892 0.211 7.83 8.22 13.67
3/15/2021 7:00:00 AM -0.06 31.892 0.211 7.82 8.52 13.67
3/15/2021 7:15:00 AM -0.06 31.892 0.212 7.83 8.1 13.67
3/15/2021 7:30:00 AM -0.06 31.892 0.212 7.83 7.87 13.68
3/15/2021 7:45:00 AM -0.06 31.892 0.213 7.83 7.91 13.69
3/15/2021 8:00:00 AM -0.06 31.892 0.213 7.82 7.63 13.69
3/15/2021 8:15:00 AM -0.06 31.892 0.214 7.83 7.77 13.71
3/15/2021 8:30:00 AM -0.06 31.892 0.214 7.83 7.75 13.73
3/15/2021 8:45:00 AM -0.06 31.892 0.215 7.84 7.59 13.75
3/15/2021 9:00:00 AM -0.06 31.892 0.215 7.84 7.42 13.77
3/15/2021 9:15:00 AM -0.05 31.91 0.215 7.84 7.75 13.82
3/15/2021 9:30:00 AM -0.05 31.91 0.216 7.84 7.43 13.9
3/15/2021 9:45:00 AM -0.05 31.91 0.216 7.84 7.5 13.93
3/15/2021 10:00:00 AM -0.05 31.91 0.217 7.86 7.14 13.92
3/15/2021 10:15:00 AM -0.05 31.91 0.217 7.85 7.5 13.92
3/15/2021 10:30:00 AM -0.05 31.91 0.217 7.85 7.3 13.9
3/15/2021 10:45:00 AM -0.05 31.91 0.218 7.86 7.89 13.87
3/15/2021 11:00:00 AM -0.05 31.91 0.218 7.86 7.91 13.85
3/15/2021 11:15:00 AM -0.05 31.91 0.218 7.86 8.41 13.8
3/15/2021 11:30:00 AM -0.05 31.91 0.218 7.86 9.54 13.79
3/15/2021 11:45:00 AM -0.03 31.946 0.218 7.86 11.62 13.78
3/15/2021 12:00:00 PM -0.03 31.946 0.218 7.86 12.48 13.76
3/15/2021 12:15:00 PM 0 32 0.218 7.85 11.87 13.75
3/15/2021 12:30:00 PM 0.02 32.036 0.218 7.85 12.99 13.74
3/15/2021 12:45:00 PM 0.04 32.072 0.217 7.85 13.39 13.71
3/15/2021 1:00:00 PM 0.05 32.09 0.217 7.84 15.99 13.7
3/15/2021 1:15:00 PM 0.11 32.198 0.217 7.85 16.81 13.68
3/15/2021 1:30:00 PM 0.23 32.414 0.217 7.85 19.92 13.68
3/15/2021 1:45:00 PM 0.37 32.666 0.216 7.84 14.8 13.66
3/15/2021 2:00:00 PM 0.52 32.936 0.216 7.84 26.53 13.63
3/15/2021 2:15:00 PM 0.65 33.17 0.216 7.84 13.5 13.62
3/15/2021 2:30:00 PM 0.77 33.386 0.216 7.84 11.44 13.6
3/15/2021 2:45:00 PM 0.87 33.566 0.215 7.84 13.53 13.58
3/15/2021 3:00:00 PM 0.94 33.692 0.215 7.83 11.61 13.56
3/15/2021 3:15:00 PM 1.02 33.836 0.214 7.83 14 13.55
3/15/2021 3:30:00 PM 1.09 33.962 0.214 7.82 13.66 13.53
3/15/2021 3:45:00 PM 1.15 34.07 0.213 7.84 13.28 13.52
3/15/2021 4:00:00 PM 1.19 34.142 0.213 7.84 12.88 13.5
3/15/2021 4:15:00 PM 1.23 34.214 0.214 7.83 13.16 13.49
3/15/2021 4:30:00 PM 1.25 34.25 0.214 7.84 13.77 13.48
3/15/2021 4:45:00 PM 1.26 34.268 0.214 7.84 13.7 13.47
3/15/2021 5:00:00 PM 1.26 34.268 0.214 7.84 13.48 13.47
3/15/2021 5:15:00 PM 1.26 34.268 0.214 7.84 12.32 13.47
3/15/2021 5:30:00 PM 1.25 34.25 0.214 7.85 12.36 13.46
3/15/2021 5:45:00 PM 1.24 34.232 0.214 7.85 12.59 13.45
3/15/2021 6:00:00 PM 1.23 34.214 0.214 7.85 11.91 13.45
3/15/2021 6:15:00 PM 1.19 34.142 0.214 7.85 11.6 13.44
3/15/2021 6:30:00 PM 1.15 34.07 0.214 7.85 11.02 13.43
3/15/2021 6:45:00 PM 1.11 33.998 0.214 7.85 11.39 13.44
3/15/2021 7:00:00 PM 1.05 33.89 0.214 7.85 11.29 13.44
3/15/2021 7:15:00 PM 1 33.8 0.214 7.85 12.04 13.44
3/15/2021 7:30:00 PM 0.94 33.692 0.214 7.85 11.31 13.45
3/15/2021 7:45:00 PM 0.88 33.584 0.215 7.85 11.4 13.46
3/15/2021 8:00:00 PM 0.82 33.476 0.215 7.85 10.69 13.47
3/15/2021 8:15:00 PM 0.76 33.368 0.215 7.85 11.36 13.48
3/15/2021 8:30:00 PM 0.7 33.26 0.215 7.84 11.28 13.49
3/15/2021 8:45:00 PM 0.64 33.152 0.216 7.85 11.37 13.5
3/15/2021 9:00:00 PM 0.59 33.062 0.216 7.85 10.94 13.52
3/15/2021 9:15:00 PM 0.54 32.972 0.216 7.85 11.42 13.53
3/15/2021 9:30:00 PM 0.49 32.882 0.217 7.85 11.86 13.54
3/15/2021 9:45:00 PM 0.44 32.792 0.217 7.85 12.99 13.56
3/15/2021 10:00:00 PM 0.4 32.72 0.217 7.85 11.34 13.56
3/15/2021 10:15:00 PM 0.36 32.648 0.217 7.85 11.42 13.58
3/15/2021 10:30:00 PM 0.33 32.594 0.218 7.85 11.83 13.57
3/15/2021 10:45:00 PM 0.29 32.522 0.218 7.85 11.52 13.58
3/15/2021 11:00:00 PM 0.27 32.486 0.218 7.85 11.68 13.58
3/15/2021 11:15:00 PM 0.25 32.45 0.218 7.85 11.95 13.6
3/15/2021 11:30:00 PM 0.23 32.414 0.218 7.86 11.62 13.61
3/15/2021 11:45:00 PM 0.21 32.378 0.218 7.85 11.39 13.6
3/16/2021 12:00:00 AM 0.2 32.36 0.218 7.85 10.67 13.61
3/16/2021 12:15:00 AM 0.19 32.342 0.218 7.85 10.5 13.6
3/16/2021 12:30:00 AM 0.18 32.324 0.218 7.86 10.81 13.61
3/16/2021 12:45:00 AM 0.17 32.306 0.218 7.85 10.26 13.6
3/16/2021 1:00:00 AM 0.16 32.288 0.219 7.86 10.72 13.61
3/16/2021 1:15:00 AM 0.15 32.27 0.219 7.86 10.74 13.61
3/16/2021 1:30:00 AM 0.14 32.252 0.219 7.86 10.14 13.62
3/16/2021 1:45:00 AM 0.12 32.216 0.219 7.86 11.2 13.61
3/16/2021 2:00:00 AM 0.11 32.198 0.219 7.86 10.63 13.63
3/16/2021 2:15:00 AM 0.09 32.162 0.219 7.86 10.48 13.62
3/16/2021 2:30:00 AM 0.07 32.126 0.22 7.86 10.77 13.64
3/16/2021 2:45:00 AM 0.05 32.09 0.22 7.85 10.91 13.64
3/16/2021 3:00:00 AM 0.02 32.036 0.22 7.86 10.96 13.66
3/16/2021 3:15:00 AM 0 32 0.22 7.86 10.12 13.67
3/16/2021 3:30:00 AM -0.03 31.946 0.221 7.86 10.37 13.67
3/16/2021 3:45:00 AM -0.06 31.892 0.221 7.86 10.45 13.68
3/16/2021 4:00:00 AM -0.09 31.838 0.221 7.87 10.71 13.69
3/16/2021 4:15:00 AM -0.08 31.856 0.221 7.87 13.31 13.71
3/16/2021 4:30:00 AM -0.07 31.874 0.222 7.87 12.28 13.73
3/16/2021 4:45:00 AM -0.07 31.874 0.222 7.88 10.79 13.74
3/16/2021 5:00:00 AM -0.07 31.874 0.223 7.88 11.29 13.75
3/16/2021 5:15:00 AM -0.07 31.874 0.223 7.89 9.88 13.76
3/16/2021 5:30:00 AM -0.07 31.874 0.223 7.89 10.06 13.77
3/16/2021 5:45:00 AM -0.06 31.892 0.224 7.89 9.66 13.78
3/16/2021 6:00:00 AM -0.06 31.892 0.225 7.88 8.61 13.79
3/16/2021 6:15:00 AM -0.06 31.892 0.225 7.89 8.46 13.81
3/16/2021 6:30:00 AM -0.06 31.892 0.226 7.9 8.23 13.81
3/16/2021 6:45:00 AM -0.06 31.892 0.226 7.9 8.49 13.82
3/16/2021 7:00:00 AM -0.06 31.892 0.227 7.9 8.06 13.83
3/16/2021 7:15:00 AM -0.06 31.892 0.227 7.9 7.6 13.83
3/16/2021 7:30:00 AM -0.06 31.892 0.228 7.9 7.68 13.84
3/16/2021 7:45:00 AM -0.06 31.892 0.228 7.9 7.59 13.84
3/16/2021 8:00:00 AM -0.06 31.892 0.228 7.9 7.5 13.85
3/16/2021 8:15:00 AM -0.06 31.892 0.229 7.91 7.43 13.87
3/16/2021 8:30:00 AM -0.06 31.892 0.229 7.91 7.65 13.88
3/16/2021 8:45:00 AM -0.06 31.892 0.23 7.92 7.42 13.89
3/16/2021 9:00:00 AM -0.06 31.892 0.23 7.92 7.06 13.89
3/16/2021 9:15:00 AM -0.06 31.892 0.23 7.92 6.98 13.89
3/16/2021 9:30:00 AM -0.06 31.892 0.231 7.93 7.13 13.9
3/16/2021 9:45:00 AM -0.06 31.892 0.231 7.93 6.98 13.91
3/16/2021 10:00:00 AM -0.05 31.91 0.231 7.93 7.27 13.92
3/16/2021 10:15:00 AM -0.06 31.892 0.232 7.94 7.29 13.92
3/16/2021 10:30:00 AM -0.05 31.91 0.232 7.94 7.72 13.92
3/16/2021 10:45:00 AM -0.05 31.91 0.235 7.94 8.29 13.93
3/16/2021 11:00:00 AM -0.05 31.91 0.235 7.95 7.98 13.92
3/16/2021 11:15:00 AM -0.04 31.928 0.234 7.95 8.41 13.92
3/16/2021 11:30:00 AM -0.04 31.928 0.234 7.95 8.58 13.92
3/16/2021 11:45:00 AM -0.03 31.946 0.234 7.95 10.3 13.9
3/16/2021 12:00:00 PM -0.02 31.964 0.234 7.95 11.03 13.9
3/16/2021 12:15:00 PM 0 32 0.235 7.95 11.02 13.9
3/16/2021 12:30:00 PM 0.03 32.054 0.235 7.95 13.38 13.89
3/16/2021 12:45:00 PM 0.09 32.162 0.235 7.95 13.11 13.88
3/16/2021 1:00:00 PM 0.15 32.27 0.235 7.96 11.88 13.89
3/16/2021 1:15:00 PM 0.21 32.378 0.235 7.96 12.45 13.87
3/16/2021 1:30:00 PM 0.25 32.45 0.235 7.96 11.27 13.87
3/16/2021 1:45:00 PM 0.29 32.522 0.235 7.96 11.34 13.89
3/16/2021 2:00:00 PM 0.33 32.594 0.235 7.96 11.32 13.87
3/16/2021 2:15:00 PM 0.36 32.648 0.235 7.96 11.09 13.88
3/16/2021 2:30:00 PM 0.4 32.72 0.235 7.96 10.23 13.87
3/16/2021 2:45:00 PM 0.45 32.81 0.235 7.96 10.39 13.87
3/16/2021 3:00:00 PM 0.5 32.9 0.235 7.96 11.08 13.86
3/16/2021 3:15:00 PM 0.55 32.99 0.235 7.96 10.09 13.85
3/16/2021 3:30:00 PM 0.61 33.098 0.235 7.96 10.36 13.84
3/16/2021 3:45:00 PM 0.66 33.188 0.234 7.96 9.42 13.83
3/16/2021 4:00:00 PM 0.71 33.278 0.234 7.96 9.75 13.82
3/16/2021 4:15:00 PM 0.73 33.314 0.234 7.96 9.89 13.8
3/16/2021 4:30:00 PM 0.74 33.332 0.234 7.96 9.36 13.79
3/16/2021 4:45:00 PM 0.75 33.35 0.234 7.96 10.24 13.78
3/16/2021 5:00:00 PM 0.76 33.368 0.234 7.96 9.53 13.77
3/16/2021 5:15:00 PM 0.78 33.404 0.234 7.95 9.21 13.76
3/16/2021 5:30:00 PM 0.78 33.404 0.234 7.96 9.5 13.74
3/16/2021 5:45:00 PM 0.77 33.386 0.233 7.96 9.29 13.73
3/16/2021 6:00:00 PM 0.77 33.386 0.233 7.96 9.52 13.71
3/16/2021 6:15:00 PM 0.78 33.404 0.233 7.95 9.24 13.7
3/16/2021 6:30:00 PM 0.78 33.404 0.233 7.96 9.08 13.68
3/16/2021 6:45:00 PM 0.79 33.422 0.233 7.96 8.83 13.67
3/16/2021 7:00:00 PM 0.79 33.422 0.233 7.95 8.8 13.66
3/16/2021 7:15:00 PM 0.79 33.422 0.233 7.95 8.98 13.64
3/16/2021 7:30:00 PM 0.78 33.404 0.233 7.95 8.84 13.63
3/16/2021 7:45:00 PM 0.77 33.386 0.233 7.95 9.63 13.63
3/16/2021 8:00:00 PM 0.76 33.368 0.233 7.95 9.56 13.62
3/16/2021 8:15:00 PM 0.74 33.332 0.233 7.95 9.26 13.62
3/16/2021 8:30:00 PM 0.73 33.314 0.233 7.95 9.34 13.62
3/16/2021 8:45:00 PM 0.72 33.296 0.233 7.94 9.2 13.62
3/16/2021 9:00:00 PM 0.7 33.26 0.233 7.94 9.24 13.62
3/16/2021 9:15:00 PM 0.69 33.242 0.233 7.94 10 13.62
3/16/2021 9:30:00 PM 0.67 33.206 0.233 7.95 10.65 13.62
3/16/2021 9:45:00 PM 0.65 33.17 0.233 7.94 9.54 13.62
3/16/2021 10:00:00 PM 0.64 33.152 0.233 7.94 10.69 13.62
3/16/2021 10:15:00 PM 0.62 33.116 0.233 7.94 9.7 13.62
3/16/2021 10:30:00 PM 0.6 33.08 0.233 7.94 9.49 13.63
3/16/2021 10:45:00 PM 0.58 33.044 0.234 7.95 9.77 13.64
3/16/2021 11:00:00 PM 0.56 33.008 0.234 7.94 9.46 13.64
3/16/2021 11:15:00 PM 0.55 32.99 0.234 7.94 10.52 13.65
3/16/2021 11:30:00 PM 0.53 32.954 0.234 7.94 9.81 13.65
3/16/2021 11:45:00 PM 0.52 32.936 0.234 7.94 9.93 13.66
3/17/2021 12:00:00 AM 0.51 32.918 0.234 7.94 9.94 13.65
3/17/2021 12:15:00 AM 0.5 32.9 0.234 7.94 10.39 13.66
3/17/2021 12:30:00 AM 0.49 32.882 0.234 7.93 10.86 13.66
3/17/2021 12:45:00 AM 0.49 32.882 0.235 7.95 10.55 13.67
3/17/2021 1:00:00 AM 0.48 32.864 0.235 7.94 9.9 13.67
3/17/2021 1:15:00 AM 0.48 32.864 0.235 7.95 9.39 13.67
3/17/2021 1:30:00 AM 0.48 32.864 0.235 7.95 9.52 13.67
3/17/2021 1:45:00 AM 0.47 32.846 0.235 7.95 10.37 13.66
3/17/2021 2:00:00 AM 0.47 32.846 0.236 7.95 10.05 13.68
3/17/2021 2:15:00 AM 0.47 32.846 0.236 7.95 9.58 13.67
3/17/2021 2:30:00 AM 0.48 32.864 0.236 7.95 9.49 13.67
3/17/2021 2:45:00 AM 0.48 32.864 0.236 7.95 9.63 13.68
3/17/2021 3:00:00 AM 0.48 32.864 0.237 7.95 9.32 13.67
3/17/2021 3:15:00 AM 0.48 32.864 0.237 7.94 8.96 13.68
3/17/2021 3:30:00 AM 0.48 32.864 0.237 7.96 9.26 13.68
3/17/2021 3:45:00 AM 0.48 32.864 0.237 7.96 9.69 13.68
3/17/2021 4:00:00 AM 0.49 32.882 0.238 7.96 9.81 13.69
3/17/2021 4:15:00 AM 0.49 32.882 0.238 7.96 9.67 13.69
3/17/2021 4:30:00 AM 0.49 32.882 0.238 7.96 9.11 13.68
3/17/2021 4:45:00 AM 0.49 32.882 0.239 7.96 9.64 13.69
3/17/2021 5:00:00 AM 0.49 32.882 0.239 7.97 10.61 13.7
3/17/2021 5:15:00 AM 0.49 32.882 0.239 7.96 9.27 13.69
3/17/2021 5:30:00 AM 0.49 32.882 0.24 7.97 9.63 13.69
3/17/2021 5:45:00 AM 0.49 32.882 0.24 7.97 9.79 13.7
3/17/2021 6:00:00 AM 0.49 32.882 0.24 7.97 8.99 13.71
3/17/2021 6:15:00 AM 0.49 32.882 0.24 7.97 10.45 13.71
3/17/2021 6:30:00 AM 0.49 32.882 0.24 7.97 8.75 13.71
3/17/2021 6:45:00 AM 0.48 32.864 0.241 7.98 9.71 13.72
3/17/2021 7:00:00 AM 0.48 32.864 0.241 7.98 10.23 13.71
3/17/2021 7:15:00 AM 0.48 32.864 0.241 7.99 9.46 13.72
3/17/2021 7:30:00 AM 0.49 32.882 0.241 7.98 9.45 13.73
3/17/2021 7:45:00 AM 0.49 32.882 0.241 7.98 9.31 13.73
3/17/2021 8:00:00 AM 0.49 32.882 0.241 7.99 8.93 13.74
3/17/2021 8:15:00 AM 0.5 32.9 0.242 7.99 9.24 13.75
3/17/2021 8:30:00 AM 0.51 32.918 0.242 7.99 9.62 13.76
3/17/2021 8:45:00 AM 0.53 32.954 0.242 8 10.28 13.78
3/17/2021 9:00:00 AM 0.54 32.972 0.242 8 8.67 13.78
3/17/2021 9:15:00 AM 0.57 33.026 0.242 8 8.8 13.8
3/17/2021 9:30:00 AM 0.59 33.062 0.242 8 8.67 13.81
3/17/2021 9:45:00 AM 0.62 33.116 0.242 8.01 8.89 13.82
3/17/2021 10:00:00 AM 0.65 33.17 0.242 8.01 8.63 13.83
3/17/2021 10:15:00 AM 0.69 33.242 0.243 8.01 8.61 13.84
3/17/2021 10:30:00 AM 0.73 33.314 0.243 8.02 9.05 13.84
3/17/2021 10:45:00 AM 0.78 33.404 0.243 8.02 8.6 13.84
3/17/2021 11:00:00 AM 0.85 33.53 0.243 8.02 8.42 13.85
3/17/2021 11:15:00 AM 0.91 33.638 0.243 8.03 8.05 13.84
3/17/2021 11:30:00 AM 0.97 33.746 0.243 8.03 8.96 13.83
3/17/2021 11:45:00 AM 1.03 33.854 0.243 8.04 8.09 13.83
3/17/2021 12:00:00 PM 1.1 33.98 0.243 8.03 8.02 13.82
3/17/2021 12:15:00 PM 1.17 34.106 0.243 8.04 8.44 13.81
3/17/2021 12:30:00 PM 1.24 34.232 0.243 8.04 8.42 13.8
3/17/2021 12:45:00 PM 1.34 34.412 0.243 8.04 7.96 13.79
3/17/2021 1:00:00 PM 1.46 34.628 0.243 8.04 8.07 13.76
3/17/2021 1:15:00 PM 1.6 34.88 0.243 8.04 8.04 13.74
3/17/2021 1:30:00 PM 1.73 35.114 0.243 8.04 7.99 13.72
3/17/2021 1:45:00 PM 1.87 35.366 0.243 8.05 8.32 13.69
3/17/2021 2:00:00 PM 2.06 35.708 0.243 8.05 8.82 13.65
3/17/2021 2:15:00 PM 2.24 36.032 0.243 8.05 9.13 13.62
3/17/2021 2:30:00 PM 2.39 36.302 0.243 8.04 11.07 13.57
3/17/2021 2:45:00 PM 2.53 36.554 0.243 8.05 8.02 13.53
3/17/2021 3:00:00 PM 2.65 36.77 0.243 8.04 8.48 13.48
3/17/2021 3:15:00 PM 2.69 36.842 0.243 8.05 8.26 13.45
3/17/2021 3:30:00 PM 2.79 37.022 0.243 8.05 9.11 13.42
3/17/2021 3:45:00 PM 2.95 37.31 0.243 8.06 8.32 13.38
3/17/2021 4:00:00 PM 3.02 37.436 0.243 8.05 8.29 13.34
3/17/2021 4:15:00 PM 3.14 37.652 0.243 8.06 9.85 13.3
3/17/2021 4:30:00 PM 3.19 37.742 0.243 8.06 9.76 13.27
3/17/2021 4:45:00 PM 3.17 37.706 0.243 8.06 8.74 13.25
3/17/2021 5:00:00 PM 3.2 37.76 0.243 8.06 8.91 13.22
3/17/2021 5:15:00 PM 3.23 37.814 0.243 8.06 9.46 13.2
3/17/2021 5:30:00 PM 3.24 37.832 0.243 8.06 8.59 13.18
3/17/2021 5:45:00 PM 3.23 37.814 0.243 8.06 9.36 13.15
3/17/2021 6:00:00 PM 3.2 37.76 0.243 8.06 13.29 13.13
3/17/2021 6:15:00 PM 3.15 37.67 0.243 8.06 8.84 13.12
3/17/2021 6:30:00 PM 3.11 37.598 0.243 8.05 9.19 13.1
3/17/2021 6:45:00 PM 3.06 37.508 0.243 8.05 8.43 13.09
3/17/2021 7:00:00 PM 3 37.4 0.243 8.04 8.15 13.08
3/17/2021 7:15:00 PM 2.93 37.274 0.243 8.04 8.87 13.07
3/17/2021 7:30:00 PM 2.87 37.166 0.243 8.03 9.12 13.05
3/17/2021 7:45:00 PM 2.81 37.058 0.243 8.03 9.06 13.05
3/17/2021 8:00:00 PM 2.76 36.968 0.242 8.03 9.38 13.04
3/17/2021 8:15:00 PM 2.7 36.86 0.242 8.03 10.06 13.04
3/17/2021 8:30:00 PM 2.64 36.752 0.242 8.03 9.18 13.04
3/17/2021 8:45:00 PM 2.58 36.644 0.242 8.02 9.28 13.05
3/17/2021 9:00:00 PM 2.52 36.536 0.241 8.02 28.83 13.06
3/17/2021 9:15:00 PM 2.45 36.41 0.241 8.02 12.17 13.06
3/17/2021 9:30:00 PM 2.39 36.302 0.241 8.01 9.53 13.08
3/17/2021 9:45:00 PM 2.34 36.212 0.241 8.01 10.17 13.09
3/17/2021 10:00:00 PM 2.29 36.122 0.24 8.01 9.11 13.1
3/17/2021 10:15:00 PM 2.24 36.032 0.24 8.01 9.24 13.11
3/17/2021 10:30:00 PM 2.18 35.924 0.24 8.01 9.39 13.12
3/17/2021 10:45:00 PM 2.13 35.834 0.239 8.01 10.13 13.14
3/17/2021 11:00:00 PM 2.07 35.726 0.239 8.01 9.86 13.15
3/17/2021 11:15:00 PM 2.02 35.636 0.239 8.01 9.49 13.17
3/17/2021 11:30:00 PM 1.97 35.546 0.239 8 9.6 13.18
3/17/2021 11:45:00 PM 1.91 35.438 0.239 8 9.21 13.19
3/18/2021 12:00:00 AM 1.86 35.348 0.239 8 9.34 13.21
3/18/2021 12:15:00 AM 1.81 35.258 0.239 8 9.58 13.22
3/18/2021 12:30:00 AM 1.77 35.186 0.239 8 9.69 13.24
3/18/2021 12:45:00 AM 1.73 35.114 0.239 8 9.47 13.25
3/18/2021 1:00:00 AM 1.7 35.06 0.239 8 9.93 13.26
3/18/2021 1:15:00 AM 1.68 35.024 0.239 8 9.16 13.27
3/18/2021 1:30:00 AM 1.66 34.988 0.239 8 9.31 13.28
3/18/2021 1:45:00 AM 1.64 34.952 0.239 8 9.07 13.29
3/18/2021 2:00:00 AM 1.63 34.934 0.239 8 9.58 13.29
3/18/2021 2:15:00 AM 1.63 34.934 0.239 8 8.88 13.3
3/18/2021 2:30:00 AM 1.63 34.934 0.239 8 9.4 13.3
3/18/2021 2:45:00 AM 1.63 34.934 0.239 8 9.07 13.3
3/18/2021 3:00:00 AM 1.64 34.952 0.239 8 9.51 13.31
3/18/2021 3:15:00 AM 1.64 34.952 0.239 8.01 9.32 13.31
3/18/2021 3:30:00 AM 1.64 34.952 0.239 8.01 9.29 13.31
3/18/2021 3:45:00 AM 1.65 34.97 0.239 8 8.72 13.31
3/18/2021 4:00:00 AM 1.65 34.97 0.239 8.01 8.81 13.31
3/18/2021 4:15:00 AM 1.66 34.988 0.239 8.01 8.7 13.31
3/18/2021 4:30:00 AM 1.66 34.988 0.239 8.01 8.77 13.31
3/18/2021 4:45:00 AM 1.67 35.006 0.239 8.01 8.66 13.3
3/18/2021 5:00:00 AM 1.68 35.024 0.239 8.01 8.9 13.3
3/18/2021 5:15:00 AM 1.69 35.042 0.239 8.01 9.27 13.3
3/18/2021 5:30:00 AM 1.69 35.042 0.238 8.01 9.12 13.3
3/18/2021 5:45:00 AM 1.7 35.06 0.239 8.01 8.78 13.29
3/18/2021 6:00:00 AM 1.71 35.078 0.239 8.01 8.77 13.29
3/18/2021 6:15:00 AM 1.72 35.096 0.239 8.01 8.78 13.29
3/18/2021 6:30:00 AM 1.73 35.114 0.239 8.01 8.43 13.29
3/18/2021 6:45:00 AM 1.74 35.132 0.239 8.01 9.27 13.28
3/18/2021 7:00:00 AM 1.75 35.15 0.238 8.02 8.7 13.28
3/18/2021 7:15:00 AM 1.76 35.168 0.238 8.01 9.62 13.28
3/18/2021 7:30:00 AM 1.77 35.186 0.238 8.01 8.4 13.27
3/18/2021 7:45:00 AM 1.78 35.204 0.238 8.01 8.87 13.27
3/18/2021 8:00:00 AM 1.79 35.222 0.238 8.01 9.07 13.27
3/18/2021 8:15:00 AM 1.81 35.258 0.238 8.01 8.84 13.28
3/18/2021 8:30:00 AM 1.82 35.276 0.238 8.02 8.73 13.28
3/18/2021 8:45:00 AM 1.84 35.312 0.238 8.02 7.76 13.28
3/18/2021 9:00:00 AM 1.86 35.348 0.237 8.02 8.31 13.29
3/18/2021 9:15:00 AM 1.88 35.384 0.237 8.02 7.95 13.3
3/18/2021 9:30:00 AM 1.9 35.42 0.237 8.02 8.04 13.3
3/18/2021 9:45:00 AM 1.92 35.456 0.236 8.02 8.18 13.31
3/18/2021 10:00:00 AM 1.94 35.492 0.236 8.03 7.24 13.32
3/18/2021 10:15:00 AM 1.96 35.528 0.236 8.03 7.11 13.32
3/18/2021 10:30:00 AM 1.98 35.564 0.236 8.03 7.75 13.33
3/18/2021 10:45:00 AM 2 35.6 0.235 8.03 7.42 13.34
3/18/2021 11:00:00 AM 2.02 35.636 0.235 8.03 7.58 13.35
3/18/2021 11:15:00 AM 2.04 35.672 0.235 8.04 7.49 13.35
3/18/2021 11:30:00 AM 2.06 35.708 0.235 8.04 7.28 13.35
3/18/2021 11:45:00 AM 2.08 35.744 0.234 8.04 7.34 13.36
3/18/2021 12:00:00 PM 2.11 35.798 0.234 8.04 7.77 13.36
3/18/2021 12:15:00 PM 2.14 35.852 0.234 8.04 7.88 13.37
3/18/2021 12:30:00 PM 2.16 35.888 0.234 8.04 7.29 13.36
3/18/2021 12:45:00 PM 2.19 35.942 0.234 8.05 7.35 13.36
3/18/2021 1:00:00 PM 2.22 35.996 0.234 8.05 8.52 13.36
3/18/2021 1:15:00 PM 2.25 36.05 0.235 8.05 8.57 13.36
3/18/2021 1:30:00 PM 2.28 36.104 0.237 8.05 7.92 13.35
3/18/2021 1:45:00 PM 2.3 36.14 0.238 8.05 10.02 13.34
3/18/2021 2:00:00 PM 2.32 36.176 0.239 8.05 9.08 13.32
3/18/2021 2:15:00 PM 2.34 36.212 0.239 8.05 9.17 13.31
3/18/2021 2:30:00 PM 2.36 36.248 0.239 8.04 9.98 13.31
3/18/2021 2:45:00 PM 2.39 36.302 0.239 8.05 10.25 13.3
3/18/2021 3:00:00 PM 2.4 36.32 0.239 8.04 10.61 13.29
3/18/2021 3:15:00 PM 2.42 36.356 0.239 8.04 10.45 13.28
3/18/2021 3:30:00 PM 2.43 36.374 0.24 8.04 11.48 13.26
3/18/2021 3:45:00 PM 2.44 36.392 0.239 8.03 10.5 13.25
3/18/2021 4:00:00 PM 2.45 36.41 0.239 8.03 11.24 13.24
3/18/2021 4:15:00 PM 2.44 36.392 0.238 8.03 12.53 13.21
3/18/2021 4:30:00 PM 2.44 36.392 0.237 8.02 12.14 13.2
3/18/2021 4:45:00 PM 2.42 36.356 0.236 8.02 12.41 13.18
3/18/2021 5:00:00 PM 2.41 36.338 0.235 8.02 13.34 13.18
3/18/2021 5:15:00 PM 2.39 36.302 0.234 8.01 12.97 13.16
3/18/2021 5:30:00 PM 2.37 36.266 0.232 8.01 11.94 13.15
3/18/2021 5:45:00 PM 2.36 36.248 0.231 8 12.75 13.15
3/18/2021 6:00:00 PM 2.34 36.212 0.229 7.99 13.61 13.14
3/18/2021 6:15:00 PM 2.32 36.176 0.228 7.99 12.72 13.13
3/18/2021 6:30:00 PM 2.3 36.14 0.227 7.99 13.19 13.13
3/18/2021 6:45:00 PM 2.29 36.122 0.225 7.99 13.82 13.13
3/18/2021 7:00:00 PM 2.27 36.086 0.224 7.98 14.2 13.12
3/18/2021 7:15:00 PM 2.25 36.05 0.223 7.98 14.57 13.12
3/18/2021 7:30:00 PM 2.22 35.996 0.222 7.98 14.75 13.12
3/18/2021 7:45:00 PM 2.2 35.96 0.221 7.97 13.46 13.11
3/18/2021 8:00:00 PM 2.18 35.924 0.22 7.97 16.78 13.12
3/18/2021 8:15:00 PM 2.16 35.888 0.22 7.97 14.2 13.12
3/18/2021 8:30:00 PM 2.13 35.834 0.219 7.96 14.2 13.12
3/18/2021 8:45:00 PM 2.11 35.798 0.219 7.97 14.92 13.12
3/18/2021 9:00:00 PM 2.09 35.762 0.218 7.97 13.82 13.13
3/18/2021 9:15:00 PM 2.06 35.708 0.218 7.96 13.94 13.13
3/18/2021 9:30:00 PM 2.03 35.654 0.218 7.96 14.64 13.14
3/18/2021 9:45:00 PM 2 35.6 0.217 7.95 13.54 13.14
3/18/2021 10:00:00 PM 1.97 35.546 0.217 7.96 13.89 13.15
3/18/2021 10:15:00 PM 1.94 35.492 0.217 7.95 14.67 13.16
3/18/2021 10:30:00 PM 1.9 35.42 0.217 7.96 14.41 13.17
3/18/2021 10:45:00 PM 1.87 35.366 0.217 7.96 13.05 13.18
3/18/2021 11:00:00 PM 1.83 35.294 0.217 7.95 13.32 13.19
3/18/2021 11:15:00 PM 1.8 35.24 0.217 7.95 13.7 13.2
3/18/2021 11:30:00 PM 1.76 35.168 0.217 7.96 14 13.21
3/18/2021 11:45:00 PM 1.72 35.096 0.217 7.96 12.51 13.22
3/19/2021 12:00:00 AM 1.69 35.042 0.217 7.96 13.31 13.23
3/19/2021 12:15:00 AM 1.65 34.97 0.217 7.96 12.64 13.25
3/19/2021 12:30:00 AM 1.6 34.88 0.218 7.96 12.45 13.26
3/19/2021 12:45:00 AM 1.55 34.79 0.218 7.95 12.65 13.27
3/19/2021 1:00:00 AM 1.5 34.7 0.218 7.96 12.56 13.29
3/19/2021 1:15:00 AM 1.44 34.592 0.218 7.96 12.44 13.31
3/19/2021 1:30:00 AM 1.4 34.52 0.219 7.96 12.36 13.32
3/19/2021 1:45:00 AM 1.36 34.448 0.219 7.96 12.13 13.34
3/19/2021 2:00:00 AM 1.31 34.358 0.219 7.97 11.63 13.35
3/19/2021 2:15:00 AM 1.26 34.268 0.219 7.96 12.03 13.37
3/19/2021 2:30:00 AM 1.21 34.178 0.219 7.96 11.91 13.39
3/19/2021 2:45:00 AM 1.17 34.106 0.219 7.96 12.04 13.41
3/19/2021 3:00:00 AM 1.12 34.016 0.22 7.96 11.47 13.42
3/19/2021 3:15:00 AM 1.08 33.944 0.219 7.97 12.09 13.44
3/19/2021 3:30:00 AM 1.03 33.854 0.22 7.97 11.8 13.46
3/19/2021 3:45:00 AM 0.97 33.746 0.219 7.97 11.1 13.48
3/19/2021 4:00:00 AM 0.92 33.656 0.22 7.97 11.28 13.5
3/19/2021 4:15:00 AM 0.87 33.566 0.22 7.97 10.75 13.52
3/19/2021 4:30:00 AM 0.82 33.476 0.219 7.97 11.36 13.53
3/19/2021 4:45:00 AM 0.77 33.386 0.219 7.97 10.66 13.55
3/19/2021 5:00:00 AM 0.72 33.296 0.219 7.97 10.63 13.57
3/19/2021 5:15:00 AM 0.67 33.206 0.219 7.96 10.18 13.58
3/19/2021 5:30:00 AM 0.62 33.116 0.219 7.96 10.1 13.6
3/19/2021 5:45:00 AM 0.57 33.026 0.219 7.97 11.98 13.63
3/19/2021 6:00:00 AM 0.52 32.936 0.219 7.97 10.12 13.65
3/19/2021 6:15:00 AM 0.46 32.828 0.219 7.97 10.29 13.67
3/19/2021 6:30:00 AM 0.42 32.756 0.219 7.97 10.01 13.68
3/19/2021 6:45:00 AM 0.36 32.648 0.219 7.96 10.4 13.69
3/19/2021 7:00:00 AM 0.31 32.558 0.219 7.97 10.3 13.72
3/19/2021 7:15:00 AM 0.27 32.486 0.219 7.97 10.72 13.74
3/19/2021 7:30:00 AM 0.22 32.396 0.22 7.98 10.06 13.75
3/19/2021 7:45:00 AM 0.18 32.324 0.22 7.97 9.81 13.78
3/19/2021 8:00:00 AM 0.14 32.252 0.22 7.97 10.02 13.8
3/19/2021 8:15:00 AM 0.11 32.198 0.22 7.97 9.66 13.81
3/19/2021 8:30:00 AM 0.08 32.144 0.221 7.98 10.49 13.84
3/19/2021 8:45:00 AM 0.06 32.108 0.221 7.98 10.08 13.88
3/19/2021 9:00:00 AM 0.05 32.09 0.221 7.99 9.31 13.89
3/19/2021 9:15:00 AM 0.05 32.09 0.222 7.98 9.72 13.92
3/19/2021 9:30:00 AM 0.06 32.108 0.222 7.99 9.16 13.93
3/19/2021 9:45:00 AM 0.1 32.18 0.222 7.99 9.39 13.94
3/19/2021 10:00:00 AM 0.15 32.27 0.222 7.99 9.34 13.97
3/19/2021 10:15:00 AM 0.21 32.378 0.223 7.99 9.73 13.98
3/19/2021 10:30:00 AM 0.28 32.504 0.223 7.99 9.24 13.98
3/19/2021 10:45:00 AM 0.37 32.666 0.223 8 9.35 13.97
3/19/2021 11:00:00 AM 0.47 32.846 0.223 8 9.29 13.97
3/19/2021 11:15:00 AM 0.59 33.062 0.224 8 9.22 13.97
3/19/2021 11:30:00 AM 0.71 33.278 0.224 8 9.67 13.95
3/19/2021 11:45:00 AM 0.85 33.53 0.224 7.99 9.47 13.93
3/19/2021 12:00:00 PM 1.01 33.818 0.224 8 9.27 13.91
3/19/2021 12:15:00 PM 1.16 34.088 0.224 8 9.35 13.88
3/19/2021 12:30:00 PM 1.33 34.394 0.224 8 10.46 13.85
3/19/2021 12:45:00 PM 1.5 34.7 0.223 8 9.98 13.81
3/19/2021 1:00:00 PM 1.66 34.988 0.223 8 9.91 13.79
3/19/2021 1:15:00 PM 1.81 35.258 0.223 8 9.83 13.75
3/19/2021 1:30:00 PM 1.97 35.546 0.223 8 9.8 13.72
3/19/2021 1:45:00 PM 2.12 35.816 0.223 8 10.3 13.69
3/19/2021 2:00:00 PM 2.26 36.068 0.223 7.99 9.88 13.65
3/19/2021 2:15:00 PM 2.4 36.32 0.224 8 10.16 13.61
3/19/2021 2:30:00 PM 2.53 36.554 0.224 8 10.22 13.57
3/19/2021 2:45:00 PM 2.65 36.77 0.225 8 10.5 13.53
3/19/2021 3:00:00 PM 2.76 36.968 0.225 8 10.36 13.5
3/19/2021 3:15:00 PM 2.86 37.148 0.225 8 10.79 13.46
3/19/2021 3:30:00 PM 2.96 37.328 0.225 8 10.14 13.42
3/19/2021 3:45:00 PM 3.05 37.49 0.224 8 10.53 13.4
3/19/2021 4:00:00 PM 3.11 37.598 0.224 8 10.42 13.36
3/19/2021 4:15:00 PM 3.16 37.688 0.224 8 10.21 13.34
3/19/2021 4:30:00 PM 3.19 37.742 0.224 8.01 10.14 13.31
3/19/2021 4:45:00 PM 3.21 37.778 0.223 8.01 9.84 13.29
3/19/2021 5:00:00 PM 3.19 37.742 0.224 8 10.1 13.27
3/19/2021 5:15:00 PM 3.16 37.688 0.224 8 10.25 13.27
3/19/2021 5:30:00 PM 3.1 37.58 0.224 8 10 13.25
3/19/2021 5:45:00 PM 3.03 37.454 0.224 8 10.49 13.25
3/19/2021 6:00:00 PM 2.94 37.292 0.225 8 9.64 13.24
3/19/2021 6:15:00 PM 2.84 37.112 0.226 7.99 9.74 13.23
3/19/2021 6:30:00 PM 2.74 36.932 0.226 7.99 9.84 13.23
3/19/2021 6:45:00 PM 2.65 36.77 0.227 7.98 9.94 13.23
3/19/2021 7:00:00 PM 2.57 36.626 0.227 7.98 10.1 13.22
3/19/2021 7:15:00 PM 2.49 36.482 0.228 7.98 10.11 13.23
3/19/2021 7:30:00 PM 2.4 36.32 0.229 7.98 9.97 13.23
3/19/2021 7:45:00 PM 2.31 36.158 0.229 7.98 9.6 13.24
3/19/2021 8:00:00 PM 2.22 35.996 0.23 7.98 9.31 13.25
3/19/2021 8:15:00 PM 2.13 35.834 0.23 7.97 9.7 13.27
3/19/2021 8:30:00 PM 2.05 35.69 0.231 7.97 9.71 13.28
3/19/2021 8:45:00 PM 1.97 35.546 0.231 7.97 9.88 13.29
3/19/2021 9:00:00 PM 1.89 35.402 0.231 7.97 9.91 13.31
3/19/2021 9:15:00 PM 1.82 35.276 0.232 7.97 9.95 13.32
3/19/2021 9:30:00 PM 1.75 35.15 0.232 7.97 9.92 13.34
3/19/2021 9:45:00 PM 1.68 35.024 0.233 7.96 10.25 13.35
3/19/2021 10:00:00 PM 1.62 34.916 0.233 7.96 10.77 13.36
3/19/2021 10:15:00 PM 1.57 34.826 0.233 7.96 9.85 13.38
3/19/2021 10:30:00 PM 1.52 34.736 0.234 7.96 10.22 13.39
3/19/2021 10:45:00 PM 1.47 34.646 0.234 7.96 10.36 13.41
3/19/2021 11:00:00 PM 1.42 34.556 0.234 7.95 10.26 13.42
3/19/2021 11:15:00 PM 1.38 34.484 0.235 7.96 9.75 13.43
3/19/2021 11:30:00 PM 1.34 34.412 0.235 7.96 10.35 13.44
3/19/2021 11:45:00 PM 1.3 34.34 0.235 7.95 10.06 13.45
3/20/2021 12:00:00 AM 1.26 34.268 0.235 7.95 10.16 13.46
3/20/2021 12:15:00 AM 1.22 34.196 0.236 7.95 9.58 13.48
3/20/2021 12:30:00 AM 1.19 34.142 0.236 7.95 10.67 13.48
3/20/2021 12:45:00 AM 1.16 34.088 0.236 7.95 10.4 13.49
3/20/2021 1:00:00 AM 1.13 34.034 0.236 7.95 9.79 13.5
3/20/2021 1:15:00 AM 1.1 33.98 0.236 7.95 9.91 13.51
3/20/2021 1:30:00 AM 1.08 33.944 0.236 7.95 9.82 13.51
3/20/2021 1:45:00 AM 1.05 33.89 0.236 7.95 9.75 13.52
3/20/2021 2:00:00 AM 1.02 33.836 0.236 7.95 9.99 13.53
3/20/2021 2:15:00 AM 0.99 33.782 0.236 7.95 9.79 13.54
3/20/2021 2:30:00 AM 0.97 33.746 0.236 7.95 10.32 13.55
3/20/2021 2:45:00 AM 0.94 33.692 0.236 7.95 9.24 13.57
3/20/2021 3:00:00 AM 0.91 33.638 0.236 7.95 9.33 13.57
3/20/2021 3:15:00 AM 0.88 33.584 0.235 7.95 9.26 13.58
3/20/2021 3:30:00 AM 0.86 33.548 0.235 7.95 9.51 13.59
3/20/2021 3:45:00 AM 0.83 33.494 0.235 7.95 10.14 13.6
3/20/2021 4:00:00 AM 0.8 33.44 0.235 7.95 9.92 13.61
3/20/2021 4:15:00 AM 0.77 33.386 0.235 7.95 9.65 13.62
3/20/2021 4:30:00 AM 0.74 33.332 0.235 7.95 9.71 13.63
3/20/2021 4:45:00 AM 0.71 33.278 0.235 7.95 9.58 13.64
3/20/2021 5:00:00 AM 0.68 33.224 0.235 7.96 9.48 13.66
3/20/2021 5:15:00 AM 0.65 33.17 0.235 7.95 10.43 13.67
3/20/2021 5:30:00 AM 0.62 33.116 0.236 7.95 10.07 13.68
3/20/2021 5:45:00 AM 0.58 33.044 0.236 7.95 9.64 13.69
3/20/2021 6:00:00 AM 0.55 32.99 0.236 7.95 9.72 13.71
3/20/2021 6:15:00 AM 0.52 32.936 0.236 7.95 9.49 13.72
3/20/2021 6:30:00 AM 0.48 32.864 0.236 7.95 9.55 13.73
3/20/2021 6:45:00 AM 0.45 32.81 0.236 7.96 9.52 13.75
3/20/2021 7:00:00 AM 0.41 32.738 0.236 7.96 9.51 13.75
3/20/2021 7:15:00 AM 0.38 32.684 0.237 7.96 9.14 13.77
3/20/2021 7:30:00 AM 0.34 32.612 0.237 7.96 9.15 13.8
3/20/2021 7:45:00 AM 0.32 32.576 0.237 7.95 9.25 13.82
3/20/2021 8:00:00 AM 0.29 32.522 0.237 7.96 9.1 13.84
3/20/2021 8:15:00 AM 0.27 32.486 0.237 7.97 9.25 13.87
3/20/2021 8:30:00 AM 0.26 32.468 0.238 7.97 9.26 13.9
3/20/2021 8:45:00 AM 0.26 32.468 0.238 7.97 9.16 13.92
3/20/2021 9:00:00 AM 0.26 32.468 0.238 7.97 9.26 13.94
3/20/2021 9:15:00 AM 0.28 32.504 0.238 7.98 9.4 13.96
3/20/2021 9:30:00 AM 0.32 32.576 0.239 7.98 9.33 13.98
3/20/2021 9:45:00 AM 0.37 32.666 0.239 7.99 9.14 14.01
3/20/2021 10:00:00 AM 0.44 32.792 0.239 7.98 9.32 14.02
3/20/2021 10:15:00 AM 0.53 32.954 0.239 7.99 8.67 14.02
3/20/2021 10:30:00 AM 0.64 33.152 0.239 7.99 8.58 14.03
3/20/2021 10:45:00 AM 0.76 33.368 0.239 7.99 8.12 14.02
3/20/2021 11:00:00 AM 0.9 33.62 0.239 8 8.56 14
3/20/2021 11:15:00 AM 1.06 33.908 0.24 8.01 8.33 13.99
3/20/2021 11:30:00 AM 1.23 34.214 0.24 8.01 8.33 13.96
3/20/2021 11:45:00 AM 1.42 34.556 0.24 8.01 8.27 13.93
3/20/2021 12:00:00 PM 1.62 34.916 0.24 8.01 8.77 13.91
3/20/2021 12:15:00 PM 1.82 35.276 0.24 8.01 8.29 13.86
3/20/2021 12:30:00 PM 2.02 35.636 0.24 8.01 7.9 13.82
3/20/2021 12:45:00 PM 2.23 36.014 0.24 8.01 8.23 13.78
3/20/2021 1:00:00 PM 2.44 36.392 0.24 8.02 8.19 13.74
3/20/2021 1:15:00 PM 2.64 36.752 0.24 8.02 7.77 13.69
3/20/2021 1:30:00 PM 2.84 37.112 0.24 8.02 8.3 13.64
3/20/2021 1:45:00 PM 3.04 37.472 0.24 8.02 7.73 13.6
3/20/2021 2:00:00 PM 3.23 37.814 0.241 8.02 7.58 13.55
3/20/2021 2:15:00 PM 3.41 38.138 0.241 8.03 7.59 13.5
3/20/2021 2:30:00 PM 3.58 38.444 0.241 8.03 7.66 13.45
3/20/2021 2:45:00 PM 3.75 38.75 0.242 8.03 7.72 13.4
3/20/2021 3:00:00 PM 3.89 39.002 0.242 8.03 7.38 13.35
3/20/2021 3:15:00 PM 4.03 39.254 0.242 8.03 7.86 13.3
3/20/2021 3:30:00 PM 4.17 39.506 0.242 8.04 8.87 13.25
3/20/2021 3:45:00 PM 4.29 39.722 0.242 8.04 8.61 13.2
3/20/2021 4:00:00 PM 4.4 39.92 0.242 8.05 7.91 13.16
3/20/2021 4:15:00 PM 4.49 40.082 0.242 8.05 7.23 13.13
3/20/2021 4:30:00 PM 4.56 40.208 0.241 8.05 7.65 13.09
3/20/2021 4:45:00 PM 4.61 40.298 0.241 8.05 7.68 13.06
3/20/2021 5:00:00 PM 4.63 40.334 0.241 8.05 8.22 13.02
3/20/2021 5:15:00 PM 4.63 40.334 0.24 8.05 7.86 12.99
3/20/2021 5:30:00 PM 4.61 40.298 0.24 8.05 8.39 12.97
3/20/2021 5:45:00 PM 4.56 40.208 0.24 8.05 8.12 12.95
3/20/2021 6:00:00 PM 4.49 40.082 0.24 8.05 7.98 12.94
3/20/2021 6:15:00 PM 4.41 39.938 0.24 8.04 7.68 12.92
3/20/2021 6:30:00 PM 4.31 39.758 0.241 8.04 8.29 12.89
3/20/2021 6:45:00 PM 4.22 39.596 0.241 8.04 8.2 12.88
3/20/2021 7:00:00 PM 4.13 39.434 0.241 8.04 8.03 12.87
3/20/2021 7:15:00 PM 4.04 39.272 0.241 8.03 8.4 12.87
3/20/2021 7:30:00 PM 3.95 39.11 0.24 8.03 8.61 12.86
3/20/2021 7:45:00 PM 3.85 38.93 0.24 8.02 8.37 12.87
3/20/2021 8:00:00 PM 3.75 38.75 0.24 8.02 8.39 12.87
3/20/2021 8:15:00 PM 3.65 38.57 0.24 8.01 9.46 12.88
3/20/2021 8:30:00 PM 3.55 38.39 0.24 8.01 10.74 12.89
3/20/2021 8:45:00 PM 3.46 38.228 0.24 8.01 8.44 12.9
3/20/2021 9:00:00 PM 3.37 38.066 0.24 8.01 8.04 12.91
3/20/2021 9:15:00 PM 3.27 37.886 0.24 8 8.52 12.93
3/20/2021 9:30:00 PM 3.18 37.724 0.24 8 8.41 12.95
3/20/2021 9:45:00 PM 3.1 37.58 0.24 8 9.1 12.96
3/20/2021 10:00:00 PM 3.02 37.436 0.24 8 8.96 12.98
3/20/2021 10:15:00 PM 2.94 37.292 0.24 8 8.96 13
3/20/2021 10:30:00 PM 2.86 37.148 0.239 8 8.5 13.02
3/20/2021 10:45:00 PM 2.79 37.022 0.239 8 8.94 13.03
3/20/2021 11:00:00 PM 2.72 36.896 0.239 8 9.14 13.04
3/20/2021 11:15:00 PM 2.65 36.77 0.239 7.99 8.38 13.06
3/20/2021 11:30:00 PM 2.58 36.644 0.239 7.99 8.65 13.09
3/20/2021 11:45:00 PM 2.52 36.536 0.239 8 8.45 13.1
3/21/2021 12:00:00 AM 2.46 36.428 0.239 7.99 8.64 13.12
3/21/2021 12:15:00 AM 2.4 36.32 0.239 7.99 9.54 13.13
3/21/2021 12:30:00 AM 2.34 36.212 0.239 7.99 8.93 13.16
3/21/2021 12:45:00 AM 2.29 36.122 0.238 7.99 10.21 13.17
3/21/2021 1:00:00 AM 2.23 36.014 0.238 7.99 8.92 13.18
3/21/2021 1:15:00 AM 2.18 35.924 0.238 7.98 9.22 13.21
3/21/2021 1:30:00 AM 2.13 35.834 0.238 7.99 8.72 13.22
3/21/2021 1:45:00 AM 2.08 35.744 0.238 7.99 9.78 13.23
3/21/2021 2:00:00 AM 2.03 35.654 0.238 7.99 9.4 13.25
3/21/2021 2:15:00 AM 1.98 35.564 0.238 7.98 8.29 13.27
3/21/2021 2:30:00 AM 1.93 35.474 0.238 7.99 8.88 13.28
3/21/2021 2:45:00 AM 1.89 35.402 0.237 7.99 8.95 13.3
3/21/2021 3:00:00 AM 1.85 35.33 0.237 7.99 9.09 13.32
3/21/2021 3:15:00 AM 1.81 35.258 0.237 7.99 8.92 13.33
3/21/2021 3:30:00 AM 1.76 35.168 0.237 7.99 8.68 13.35
3/21/2021 3:45:00 AM 1.73 35.114 0.237 7.99 9.18 13.36
3/21/2021 4:00:00 AM 1.69 35.042 0.237 7.99 9.01 13.37
3/21/2021 4:15:00 AM 1.66 34.988 0.238 7.99 9.35 13.39
3/21/2021 4:30:00 AM 1.62 34.916 0.238 7.99 8.93 13.4
3/21/2021 4:45:00 AM 1.59 34.862 0.238 7.99 8.56 13.41
3/21/2021 5:00:00 AM 1.56 34.808 0.237 7.99 8.77 13.42
3/21/2021 5:15:00 AM 1.53 34.754 0.238 7.99 8.93 13.43
3/21/2021 5:30:00 AM 1.5 34.7 0.238 7.99 8.49 13.45
3/21/2021 5:45:00 AM 1.47 34.646 0.238 8 8.85 13.46
3/21/2021 6:00:00 AM 1.44 34.592 0.238 7.99 9.19 13.47
3/21/2021 6:15:00 AM 1.42 34.556 0.238 7.99 8.64 13.47
3/21/2021 6:30:00 AM 1.39 34.502 0.238 8 10 13.49
3/21/2021 6:45:00 AM 1.36 34.448 0.238 8 9.74 13.5
3/21/2021 7:00:00 AM 1.34 34.412 0.238 8 9.21 13.51
3/21/2021 7:15:00 AM 1.31 34.358 0.239 8 8.6 13.52
3/21/2021 7:30:00 AM 1.29 34.322 0.239 8 8.76 13.54
3/21/2021 7:45:00 AM 1.27 34.286 0.239 8 8.37 13.56
3/21/2021 8:00:00 AM 1.26 34.268 0.239 8.01 8.59 13.58
3/21/2021 8:15:00 AM 1.26 34.268 0.239 8.01 8.19 13.61
3/21/2021 8:30:00 AM 1.26 34.268 0.24 8.02 8.27 13.64
3/21/2021 8:45:00 AM 1.27 34.286 0.24 8.02 8.06 13.66
3/21/2021 9:00:00 AM 1.29 34.322 0.24 8.02 7.9 13.68
3/21/2021 9:15:00 AM 1.34 34.412 0.24 8.03 8.16 13.7
3/21/2021 9:30:00 AM 1.4 34.52 0.24 8.03 8.29 13.72
3/21/2021 9:45:00 AM 1.47 34.646 0.24 8.04 7.88 13.73
3/21/2021 10:00:00 AM 1.56 34.808 0.24 8.04 7.86 13.74
3/21/2021 10:15:00 AM 1.67 35.006 0.24 8.05 8.04 13.74
3/21/2021 10:30:00 AM 1.79 35.222 0.24 8.05 7.94 13.74
3/21/2021 10:45:00 AM 1.94 35.492 0.239 8.05 7.55 13.73
3/21/2021 11:00:00 AM 2.09 35.762 0.239 8.05 7.77 13.72
3/21/2021 11:15:00 AM 2.27 36.086 0.239 8.06 7.62 13.7
3/21/2021 11:30:00 AM 2.46 36.428 0.238 8.06 7.65 13.68
3/21/2021 11:45:00 AM 2.66 36.788 0.238 8.06 7.52 13.64
3/21/2021 12:00:00 PM 2.88 37.184 0.238 8.07 7.49 13.62
3/21/2021 12:15:00 PM 3.1 37.58 0.238 8.07 7.29 13.57
3/21/2021 12:30:00 PM 3.32 37.976 0.237 8.07 7.65 13.53
3/21/2021 12:45:00 PM 3.55 38.39 0.237 8.07 7.1 13.49
3/21/2021 1:00:00 PM 3.78 38.804 0.237 8.08 7.21 13.43
3/21/2021 1:15:00 PM 4.02 39.236 0.237 8.08 7.51 13.38
3/21/2021 1:30:00 PM 4.25 39.65 0.237 8.08 6.97 13.33
3/21/2021 1:45:00 PM 4.47 40.046 0.237 8.09 6.98 13.28
3/21/2021 2:00:00 PM 4.68 40.424 0.238 8.09 7.63 13.23
3/21/2021 2:15:00 PM 4.88 40.784 0.238 8.09 7.4 13.17
3/21/2021 2:30:00 PM 5.08 41.144 0.238 8.09 7.25 13.12
3/21/2021 2:45:00 PM 5.26 41.468 0.239 8.1 7.23 13.07
3/21/2021 3:00:00 PM 5.43 41.774 0.24 8.1 6.91 13.01
3/21/2021 3:15:00 PM 5.58 42.044 0.24 8.11 7.7 12.96
3/21/2021 3:30:00 PM 5.73 42.314 0.24 8.11 7.57 12.91
3/21/2021 3:45:00 PM 5.85 42.53 0.24 8.11 7.25 12.86
3/21/2021 4:00:00 PM 5.97 42.746 0.24 8.11 7.37 12.82
3/21/2021 4:15:00 PM 6.07 42.926 0.24 8.11 7.15 12.77
3/21/2021 4:30:00 PM 6.15 43.07 0.24 8.12 7.94 12.72
3/21/2021 4:45:00 PM 6.21 43.178 0.24 8.11 7.68 12.68
3/21/2021 5:00:00 PM 6.24 43.232 0.24 8.11 6.97 12.64
3/21/2021 5:15:00 PM 6.25 43.25 0.24 8.12 7.91 12.6
3/21/2021 5:30:00 PM 6.23 43.214 0.24 8.12 8.45 12.56
3/21/2021 5:45:00 PM 6.19 43.142 0.241 8.11 9.59 12.53
3/21/2021 6:00:00 PM 6.12 43.016 0.241 8.11 7.54 12.51
3/21/2021 6:15:00 PM 6.03 42.854 0.241 8.11 8.09 12.48
3/21/2021 6:30:00 PM 5.93 42.674 0.241 8.1 8.23 12.44
3/21/2021 6:45:00 PM 5.83 42.494 0.241 8.08 8.07 12.42
3/21/2021 7:00:00 PM 5.75 42.35 0.241 8.09 8.13 12.41
3/21/2021 7:15:00 PM 5.65 42.17 0.241 8.08 7.97 12.39
3/21/2021 7:30:00 PM 5.55 41.99 0.241 8.07 7.55 12.38
3/21/2021 7:45:00 PM 5.44 41.792 0.241 8.07 7.94 12.38
3/21/2021 8:00:00 PM 5.33 41.594 0.241 8.06 7.62 12.38
3/21/2021 8:15:00 PM 5.22 41.396 0.241 8.06 9.15 12.38
3/21/2021 8:30:00 PM 5.11 41.198 0.241 8.06 9.16 12.39
3/21/2021 8:45:00 PM 5 41 0.241 8.05 8.44 12.4
3/21/2021 9:00:00 PM 4.89 40.802 0.241 8.04 10.62 12.42
3/21/2021 9:15:00 PM 4.78 40.604 0.241 8.04 9.41 12.43
3/21/2021 9:30:00 PM 4.67 40.406 0.241 8.04 8.97 12.45
3/21/2021 9:45:00 PM 4.57 40.226 0.241 8.04 11.09 12.47
3/21/2021 10:00:00 PM 4.47 40.046 0.241 8.03 10.1 12.49
3/21/2021 10:15:00 PM 4.37 39.866 0.24 8.03 9.7 12.51
3/21/2021 10:30:00 PM 4.28 39.704 0.24 8.03 9.81 12.53
3/21/2021 10:45:00 PM 4.18 39.524 0.24 8.03 9.58 12.54
3/21/2021 11:00:00 PM 4.09 39.362 0.24 8.03 9.43 12.57
3/21/2021 11:15:00 PM 4 39.2 0.24 8.02 10.43 12.59
3/21/2021 11:30:00 PM 3.92 39.056 0.24 8.02 13 12.61
3/21/2021 11:45:00 PM 3.83 38.894 0.24 8.02 9.82 12.64
3/22/2021 12:00:00 AM 3.75 38.75 0.24 8.02 10.22 12.66
3/22/2021 12:15:00 AM 3.67 38.606 0.24 8.02 9.55 12.68
3/22/2021 12:30:00 AM 3.59 38.462 0.24 8.02 8.91 12.7
3/22/2021 12:45:00 AM 3.52 38.336 0.24 8.02 9.39 12.72
3/22/2021 1:00:00 AM 3.45 38.21 0.24 8.02 10.07 12.74
3/22/2021 1:15:00 AM 3.38 38.084 0.24 8.01 9.35 12.76
3/22/2021 1:30:00 AM 3.31 37.958 0.24 8.02 9.49 12.79
3/22/2021 1:45:00 AM 3.24 37.832 0.239 8.01 9.03 12.8
3/22/2021 2:00:00 AM 3.18 37.724 0.239 8.01 9.77 12.82
3/22/2021 2:15:00 AM 3.12 37.616 0.239 8.01 9.54 12.84
3/22/2021 2:30:00 AM 3.06 37.508 0.239 8.01 8.99 12.86
3/22/2021 2:45:00 AM 3.01 37.418 0.239 8.01 9.02 12.88
3/22/2021 3:00:00 AM 2.95 37.31 0.239 8.01 9.11 12.9
3/22/2021 3:15:00 AM 2.9 37.22 0.238 8.01 9 12.91
3/22/2021 3:30:00 AM 2.84 37.112 0.238 8.01 8.84 12.94
3/22/2021 3:45:00 AM 2.79 37.022 0.238 8.01 9.84 12.94
3/22/2021 4:00:00 AM 2.75 36.95 0.238 8.01 10.62 12.97
3/22/2021 4:15:00 AM 2.7 36.86 0.238 8.01 9.15 12.98
3/22/2021 4:30:00 AM 2.66 36.788 0.238 8.01 9.01 12.99
3/22/2021 4:45:00 AM 2.62 36.716 0.238 8 9.9 13.01
3/22/2021 5:00:00 AM 2.58 36.644 0.238 8 9.27 13.03
3/22/2021 5:15:00 AM 2.54 36.572 0.238 8 9.42 13.04
3/22/2021 5:30:00 AM 2.5 36.5 0.238 8.01 9.15 13.05
3/22/2021 5:45:00 AM 2.48 36.464 0.238 8.01 9.2 13.05
3/22/2021 6:00:00 AM 2.45 36.41 0.238 8.01 9.57 13.07
3/22/2021 6:15:00 AM 2.42 36.356 0.238 8.01 9.23 13.08
3/22/2021 6:30:00 AM 2.39 36.302 0.238 8.01 10.02 13.09
3/22/2021 6:45:00 AM 2.37 36.266 0.238 8 9.72 13.1
3/22/2021 7:00:00 AM 2.34 36.212 0.238 8.01 9.66 13.11
3/22/2021 7:15:00 AM 2.32 36.176 0.238 8 9.25 13.12
3/22/2021 7:30:00 AM 2.3 36.14 0.238 8.01 8.98 13.14
3/22/2021 7:45:00 AM 2.29 36.122 0.238 8.02 9.76 13.17
3/22/2021 8:00:00 AM 2.28 36.104 0.238 8.02 9.21 13.19
3/22/2021 8:15:00 AM 2.28 36.104 0.238 8.02 8.7 13.22
3/22/2021 8:30:00 AM 2.29 36.122 0.237 8.03 8.36 13.23
3/22/2021 8:45:00 AM 2.31 36.158 0.237 8.03 8.3 13.26
3/22/2021 9:00:00 AM 2.35 36.23 0.237 8.04 8.61 13.28
3/22/2021 9:15:00 AM 2.4 36.32 0.237 8.04 8.46 13.3
3/22/2021 9:30:00 AM 2.47 36.446 0.237 8.04 8.67 13.31
3/22/2021 9:45:00 AM 2.56 36.608 0.237 8.05 8.01 13.33
3/22/2021 10:00:00 AM 2.67 36.806 0.237 8.05 9.66 13.33
3/22/2021 10:15:00 AM 2.79 37.022 0.237 8.06 7.79 13.33
3/22/2021 10:30:00 AM 2.94 37.292 0.236 8.06 8.17 13.33
3/22/2021 10:45:00 AM 3.1 37.58 0.236 8.07 7.84 13.32
3/22/2021 11:00:00 AM 3.28 37.904 0.236 8.07 7.81 13.31
3/22/2021 11:15:00 AM 3.47 38.246 0.236 8.08 8.36 13.28
3/22/2021 11:30:00 AM 3.67 38.606 0.236 8.08 7.5 13.26
3/22/2021 11:45:00 AM 3.89 39.002 0.235 8.09 7.32 13.22
3/22/2021 12:00:00 PM 4.12 39.416 0.235 8.09 7.3 13.19
3/22/2021 12:15:00 PM 4.35 39.83 0.236 8.1 7.51 13.16
3/22/2021 12:30:00 PM 4.58 40.244 0.236 8.1 7.42 13.11
3/22/2021 12:45:00 PM 4.81 40.658 0.235 8.1 8.6 13.07
3/22/2021 1:00:00 PM 5.05 41.09 0.235 8.1 7.31 13.02
3/22/2021 1:15:00 PM 5.28 41.504 0.236 8.11 10.34 12.98
3/22/2021 1:30:00 PM 5.51 41.918 0.236 8.11 7.08 12.93
3/22/2021 1:45:00 PM 5.73 42.314 0.236 8.12 7.42 12.88
3/22/2021 2:00:00 PM 5.93 42.674 0.236 8.12 7.18 12.83
3/22/2021 2:15:00 PM 6.13 43.034 0.237 8.12 7.6 12.78
3/22/2021 2:30:00 PM 6.32 43.376 0.237 8.12 7.41 12.73
3/22/2021 2:45:00 PM 6.5 43.7 0.238 8.12 7.62 12.67
3/22/2021 3:00:00 PM 6.66 43.988 0.238 8.13 7.38 12.63
3/22/2021 3:15:00 PM 6.81 44.258 0.238 8.14 7.28 12.58
3/22/2021 3:30:00 PM 6.95 44.51 0.238 8.14 7.57 12.53
3/22/2021 3:45:00 PM 7.08 44.744 0.238 8.14 7.45 12.48
3/22/2021 4:00:00 PM 7.19 44.942 0.238 8.14 7.66 12.43
3/22/2021 4:15:00 PM 7.29 45.122 0.238 8.15 7.64 12.39
3/22/2021 4:30:00 PM 7.37 45.266 0.238 8.15 8.04 12.34
3/22/2021 4:45:00 PM 7.42 45.356 0.238 8.15 7.84 12.3
3/22/2021 5:00:00 PM 7.45 45.41 0.238 8.15 8.05 12.26
3/22/2021 5:15:00 PM 7.45 45.41 0.238 8.14 8.1 12.22
3/22/2021 5:30:00 PM 7.43 45.374 0.238 8.14 7.95 12.18
3/22/2021 5:45:00 PM 7.39 45.302 0.238 8.14 8.8 12.15
3/22/2021 6:00:00 PM 7.32 45.176 0.238 8.13 8.35 12.11
3/22/2021 6:15:00 PM 7.24 45.032 0.238 8.13 8.7 12.08
3/22/2021 6:30:00 PM 7.14 44.852 0.238 8.12 8.51 12.04
3/22/2021 6:45:00 PM 7.04 44.672 0.237 8.11 8.64 12.01
3/22/2021 7:00:00 PM 6.95 44.51 0.237 8.1 9.13 11.99
3/22/2021 7:15:00 PM 6.85 44.33 0.237 8.09 8.98 11.97
3/22/2021 7:30:00 PM 6.75 44.15 0.237 8.09 10.33 11.95
3/22/2021 7:45:00 PM 6.64 43.952 0.237 8.08 9.52 11.94
3/22/2021 8:00:00 PM 6.53 43.754 0.237 8.07 10.76 11.93
3/22/2021 8:15:00 PM 6.42 43.556 0.237 8.07 10.15 11.94
3/22/2021 8:30:00 PM 6.3 43.34 0.237 8.06 10.23 11.95
3/22/2021 8:45:00 PM 6.18 43.124 0.236 8.06 9.16 11.95
3/22/2021 9:00:00 PM 6.06 42.908 0.236 8.05 10.4 11.97
3/22/2021 9:15:00 PM 5.95 42.71 0.236 8.05 10.13 11.98
3/22/2021 9:30:00 PM 5.83 42.494 0.236 8.04 9.78 12
3/22/2021 9:45:00 PM 5.73 42.314 0.236 8.04 9.09 12.01
3/22/2021 10:00:00 PM 5.62 42.116 0.236 8.03 10.01 12.04
3/22/2021 10:15:00 PM 5.52 41.936 0.236 8.03 9.79 12.05
3/22/2021 10:30:00 PM 5.41 41.738 0.236 8.03 10.41 12.07
3/22/2021 10:45:00 PM 5.31 41.558 0.235 8.02 12.68 12.1
3/22/2021 11:00:00 PM 5.21 41.378 0.235 8.02 10.12 12.12
3/22/2021 11:15:00 PM 5.12 41.216 0.235 8.03 10.46 12.14
3/22/2021 11:30:00 PM 5.03 41.054 0.235 8.02 10.36 12.17
3/22/2021 11:45:00 PM 4.94 40.892 0.235 8.02 11.09 12.19
3/23/2021 12:00:00 AM 4.84 40.712 0.235 8.02 10.76 12.22
3/23/2021 12:15:00 AM 4.76 40.568 0.234 8.02 10.84 12.24
3/23/2021 12:30:00 AM 4.67 40.406 0.234 8.02 10.47 12.26
3/23/2021 12:45:00 AM 4.59 40.262 0.234 8.01 10.04 12.29
3/23/2021 1:00:00 AM 4.5 40.1 0.234 8.01 10.3 12.31
3/23/2021 1:15:00 AM 4.42 39.956 0.234 8.01 10.55 12.34
3/23/2021 1:30:00 AM 4.34 39.812 0.234 8.01 10.19 12.36
3/23/2021 1:45:00 AM 4.27 39.686 0.233 8.01 10.69 12.38
3/23/2021 2:00:00 AM 4.21 39.578 0.233 8.01 9.97 12.4
3/23/2021 2:15:00 AM 4.14 39.452 0.233 8.01 10.67 12.43
3/23/2021 2:30:00 AM 4.09 39.362 0.233 8.01 10.15 12.44
3/23/2021 2:45:00 AM 4.03 39.254 0.233 8 9.99 12.46
3/23/2021 3:00:00 AM 3.98 39.164 0.233 8 11.47 12.48
3/23/2021 3:15:00 AM 3.92 39.056 0.233 8 10.47 12.49
3/23/2021 3:30:00 AM 3.87 38.966 0.233 8 10.13 12.51
3/23/2021 3:45:00 AM 3.83 38.894 0.233 8 15.88 12.54
3/23/2021 4:00:00 AM 3.78 38.804 0.233 8 11.74 12.55
3/23/2021 4:15:00 AM 3.74 38.732 0.233 8 9.72 12.56
3/23/2021 4:30:00 AM 3.7 38.66 0.233 8 10.24 12.58
3/23/2021 4:45:00 AM 3.66 38.588 0.232 8 11.35 12.58
3/23/2021 5:00:00 AM 3.63 38.534 0.233 8 10.11 12.6
3/23/2021 5:15:00 AM 3.6 38.48 0.232 7.99 10.09 12.61
3/23/2021 5:30:00 AM 3.58 38.444 0.232 8 9.73 12.62
3/23/2021 5:45:00 AM 3.56 38.408 0.232 8 11.68 12.63
3/23/2021 6:00:00 AM 3.54 38.372 0.232 8 9.87 12.64
3/23/2021 6:15:00 AM 3.52 38.336 0.232 8 10.21 12.64
3/23/2021 6:30:00 AM 3.49 38.282 0.232 8 10.29 12.65
3/23/2021 6:45:00 AM 3.47 38.246 0.232 8 10.19 12.66
3/23/2021 7:00:00 AM 3.45 38.21 0.232 8 10.35 12.67
3/23/2021 7:15:00 AM 3.43 38.174 0.232 8 9.57 12.68
3/23/2021 7:30:00 AM 3.41 38.138 0.233 8 10.04 12.7
3/23/2021 7:45:00 AM 3.4 38.12 0.233 8 10.05 12.72
3/23/2021 8:00:00 AM 3.4 38.12 0.232 8.01 10.57 12.75
3/23/2021 8:15:00 AM 3.4 38.12 0.232 8.02 9.42 12.78
3/23/2021 8:30:00 AM 3.41 38.138 0.232 8.02 9.27 12.81
3/23/2021 8:45:00 AM 3.43 38.174 0.232 8.02 8.87 12.83
3/23/2021 9:00:00 AM 3.46 38.228 0.232 8.03 8.99 12.85
3/23/2021 9:15:00 AM 3.51 38.318 0.232 8.04 8.87 12.88
3/23/2021 9:30:00 AM 3.58 38.444 0.232 8.04 8.69 12.9
3/23/2021 9:45:00 AM 3.66 38.588 0.232 8.05 8.67 12.92
3/23/2021 10:00:00 AM 3.76 38.768 0.232 8.05 8.8 12.93
3/23/2021 10:15:00 AM 3.88 38.984 0.231 8.06 9.69 12.94
3/23/2021 10:30:00 AM 4.01 39.218 0.231 8.06 8.34 12.94
3/23/2021 10:45:00 AM 4.17 39.506 0.231 8.07 8.5 12.95
3/23/2021 11:00:00 AM 4.34 39.812 0.231 8.08 8 12.94
3/23/2021 11:15:00 AM 4.51 40.118 0.231 8.09 8.54 12.93
3/23/2021 11:30:00 AM 4.7 40.46 0.231 8.09 8.8 12.91
3/23/2021 11:45:00 AM 4.9 40.82 0.23 8.1 8.56 12.89
3/23/2021 12:00:00 PM 5.12 41.216 0.23 8.1 8.84 12.86
3/23/2021 12:15:00 PM 5.34 41.612 0.23 8.11 7.95 12.84
3/23/2021 12:30:00 PM 5.55 41.99 0.23 8.11 7.69 12.81
3/23/2021 12:45:00 PM 5.76 42.368 0.231 8.12 7.71 12.77
3/23/2021 1:00:00 PM 5.95 42.71 0.231 8.12 7.48 12.74
3/23/2021 1:15:00 PM 6.17 43.106 0.23 8.13 7.7 12.7
3/23/2021 1:30:00 PM 6.37 43.466 0.23 8.13 7.67 12.67
3/23/2021 1:45:00 PM 6.59 43.862 0.231 8.14 8.08 12.63
3/23/2021 2:00:00 PM 6.76 44.168 0.23 8.14 8.27 12.59
3/23/2021 2:15:00 PM 6.9 44.42 0.231 8.15 8.26 12.54
3/23/2021 2:30:00 PM 7.03 44.654 0.231 8.15 7.94 12.51
3/23/2021 2:45:00 PM 7.2 44.96 0.231 8.16 9.03 12.48
3/23/2021 3:00:00 PM 7.35 45.23 0.231 8.16 8.24 12.44
3/23/2021 3:15:00 PM 7.49 45.482 0.231 8.17 9.08 12.41
3/23/2021 3:30:00 PM 7.65 45.77 0.231 8.17 7.96 12.36
3/23/2021 3:45:00 PM 7.77 45.986 0.231 8.18 8.44 12.31
3/23/2021 4:00:00 PM 7.87 46.166 0.231 8.18 8.72 12.27
3/23/2021 4:15:00 PM 7.9 46.22 0.231 8.18 8.99 12.22
3/23/2021 4:30:00 PM 7.95 46.31 0.231 8.18 10.06 12.18
3/23/2021 4:45:00 PM 7.93 46.274 0.231 8.18 9.95 12.15
3/23/2021 5:00:00 PM 7.93 46.274 0.231 8.17 8.82 12.11
3/23/2021 5:15:00 PM 7.93 46.274 0.231 8.18 9.1 12.08
3/23/2021 5:30:00 PM 7.91 46.238 0.231 8.18 9.34 12.06
3/23/2021 5:45:00 PM 7.89 46.202 0.231 8.17 9.31 12.03
3/23/2021 6:00:00 PM 7.84 46.112 0.231 8.17 8.67 11.99
3/23/2021 6:15:00 PM 7.78 46.004 0.231 8.16 10.49 11.95
3/23/2021 6:30:00 PM 7.71 45.878 0.231 8.15 10.42 11.92
3/23/2021 6:45:00 PM 7.64 45.752 0.231 8.14 9.45 11.88
3/23/2021 7:00:00 PM 7.56 45.608 0.231 8.13 10.5 11.83
3/23/2021 7:15:00 PM 7.48 45.464 0.231 8.11 10.51 11.81
3/23/2021 7:30:00 PM 7.4 45.32 0.231 8.1 12.13 11.77
3/23/2021 7:45:00 PM 7.31 45.158 0.231 8.09 9.86 11.75
3/23/2021 8:00:00 PM 7.21 44.978 0.231 8.08 10.03 11.74
3/23/2021 8:15:00 PM 7.12 44.816 0.231 8.08 11.68 11.73
3/23/2021 8:30:00 PM 7.03 44.654 0.231 8.07 10.97 11.72
3/23/2021 8:45:00 PM 6.94 44.492 0.23 8.06 11.16 11.72
3/23/2021 9:00:00 PM 6.85 44.33 0.23 8.05 11.12 11.72
3/23/2021 9:15:00 PM 6.76 44.168 0.23 8.05 11.1 11.73
3/23/2021 9:30:00 PM 6.66 43.988 0.23 8.05 13.26 11.73
3/23/2021 9:45:00 PM 6.57 43.826 0.23 8.04 11.64 11.74
3/23/2021 10:00:00 PM 6.48 43.664 0.23 8.04 11.14 11.75
3/23/2021 10:15:00 PM 6.39 43.502 0.23 8.03 13.62 11.76
3/23/2021 10:30:00 PM 6.3 43.34 0.23 8.03 10.81 11.79
3/23/2021 10:45:00 PM 6.22 43.196 0.23 8.03 10.33 11.8
3/23/2021 11:00:00 PM 6.13 43.034 0.23 8.02 10.13 11.81
3/23/2021 11:15:00 PM 6.05 42.89 0.23 8.02 11.71 11.83
3/23/2021 11:30:00 PM 5.97 42.746 0.23 8.02 11.84 11.85
3/23/2021 11:45:00 PM 5.89 42.602 0.23 8.01 11.24 11.87
3/24/2021 12:00:00 AM 5.82 42.476 0.23 8.01 10.49 11.88
3/24/2021 12:15:00 AM 5.74 42.332 0.23 8 31.29 11.9
3/24/2021 12:30:00 AM 5.68 42.224 0.23 8.01 10.41 11.91
3/24/2021 12:45:00 AM 5.62 42.116 0.23 8.01 11.66 11.93
3/24/2021 1:00:00 AM 5.56 42.008 0.229 8 12.06 11.94
3/24/2021 1:15:00 AM 5.51 41.918 0.229 8 11.06 11.95
3/24/2021 1:30:00 AM 5.47 41.846 0.229 8 10.7 11.97
3/24/2021 1:45:00 AM 5.42 41.756 0.229 8 11.69 11.98
3/24/2021 2:00:00 AM 5.38 41.684 0.229 8 11.15 12
3/24/2021 2:15:00 AM 5.35 41.63 0.229 8 11.59 12.01
3/24/2021 2:30:00 AM 5.32 41.576 0.229 8 10.98 12.02
3/24/2021 2:45:00 AM 5.29 41.522 0.229 8 11.99 12.03
3/24/2021 3:00:00 AM 5.28 41.504 0.229 8 11.4 12.04
3/24/2021 3:15:00 AM 5.26 41.468 0.229 8 11.86 12.04
3/24/2021 3:30:00 AM 5.25 41.45 0.229 8 12.3 12.05
3/24/2021 3:45:00 AM 5.25 41.45 0.229 8 11.25 12.05
3/24/2021 4:00:00 AM 5.25 41.45 0.229 8 10.65 12.05
3/24/2021 4:15:00 AM 5.25 41.45 0.229 8 10.79 12.06
3/24/2021 4:30:00 AM 5.26 41.468 0.229 8 10.9 12.06
3/24/2021 4:45:00 AM 5.26 41.468 0.229 8 10.8 12.05
3/24/2021 5:00:00 AM 5.28 41.504 0.228 8 11.05 12.05
3/24/2021 5:15:00 AM 5.3 41.54 0.228 8 10.82 12.05
3/24/2021 5:30:00 AM 5.32 41.576 0.228 8 13.17 12.04
3/24/2021 5:45:00 AM 5.35 41.63 0.228 8 10.99 12.04
3/24/2021 6:00:00 AM 5.37 41.666 0.228 8 12.43 12.03
3/24/2021 6:15:00 AM 5.4 41.72 0.228 8 11.05 12.02
3/24/2021 6:30:00 AM 5.42 41.756 0.228 8 11.32 12.02
3/24/2021 6:45:00 AM 5.45 41.81 0.228 8 11.37 12.01
3/24/2021 7:00:00 AM 5.47 41.846 0.228 8 11.03 12
3/24/2021 7:15:00 AM 5.49 41.882 0.228 8.01 10.61 12
3/24/2021 7:30:00 AM 5.52 41.936 0.228 8.01 10.39 12
3/24/2021 7:45:00 AM 5.55 41.99 0.228 8.01 10.59 12
3/24/2021 8:00:00 AM 5.58 42.044 0.227 8.02 10.56 12.03
3/24/2021 8:15:00 AM 5.63 42.134 0.227 8.02 10.15 12.06
3/24/2021 8:30:00 AM 5.67 42.206 0.227 8.03 10.3 12.08
3/24/2021 8:45:00 AM 5.71 42.278 0.227 8.03 9.76 12.09
3/24/2021 9:00:00 AM 5.75 42.35 0.227 8.04 10.37 12.1
3/24/2021 9:15:00 AM 5.79 42.422 0.227 8.05 10.4 12.12
3/24/2021 9:30:00 AM 5.84 42.512 0.227 8.05 10.31 12.14
3/24/2021 9:45:00 AM 5.88 42.584 0.227 8.06 9.7 12.15
3/24/2021 10:00:00 AM 5.91 42.638 0.227 8.06 9.54 12.16
3/24/2021 10:15:00 AM 5.94 42.692 0.226 8.07 9.26 12.17
3/24/2021 10:30:00 AM 5.98 42.764 0.226 8.07 9.55 12.19
3/24/2021 10:45:00 AM 6.01 42.818 0.226 8.07 9.38 12.2
3/24/2021 11:00:00 AM 6.04 42.872 0.226 8.08 11.25 12.21
3/24/2021 11:15:00 AM 6.08 42.944 0.225 8.09 9.8 12.22
3/24/2021 11:30:00 AM 6.11 42.998 0.225 8.09 9.67 12.24
3/24/2021 11:45:00 AM 6.14 43.052 0.225 8.09 9.97 12.23
3/24/2021 12:00:00 PM 6.17 43.106 0.225 8.09 9.31 12.23
3/24/2021 12:15:00 PM 6.2 43.16 0.225 8.1 10.03 12.23
3/24/2021 12:30:00 PM 6.22 43.196 0.225 8.1 9.75 12.22
3/24/2021 12:45:00 PM 6.24 43.232 0.224 8.09 9.33 12.2
3/24/2021 1:00:00 PM 6.26 43.268 0.224 8.1 10.36 12.2
3/24/2021 1:15:00 PM 6.3 43.34 0.224 8.1 10.04 12.22
3/24/2021 1:30:00 PM 6.34 43.412 0.224 8.1 9.94 12.22
3/24/2021 1:45:00 PM 6.38 43.484 0.224 8.11 9.86 12.23
3/24/2021 2:00:00 PM 6.42 43.556 0.224 8.12 10.47 12.23
3/24/2021 2:15:00 PM 6.49 43.682 0.224 8.12 10.11 12.25
3/24/2021 2:30:00 PM 6.55 43.79 0.224 8.12 10.01 12.24
3/24/2021 2:45:00 PM 6.62 43.916 0.224 8.12 10.24 12.24
3/24/2021 3:00:00 PM 6.68 44.024 0.224 8.13 9.89 12.23
3/24/2021 3:15:00 PM 6.72 44.096 0.224 8.13 10.4 12.21
3/24/2021 3:30:00 PM 6.76 44.168 0.224 8.13 10.39 12.18
3/24/2021 3:45:00 PM 6.79 44.222 0.224 8.13 10.02 12.16
3/24/2021 4:00:00 PM 6.82 44.276 0.224 8.12 10.93 12.12
3/24/2021 4:15:00 PM 6.84 44.312 0.224 8.12 10.5 12.1
3/24/2021 4:30:00 PM 6.86 44.348 0.224 8.12 10 12.07
3/24/2021 4:45:00 PM 6.86 44.348 0.224 8.11 10.27 12.05
3/24/2021 5:00:00 PM 6.86 44.348 0.224 8.11 11.22 12.02
3/24/2021 5:15:00 PM 6.86 44.348 0.224 8.1 10.7 12
3/24/2021 5:30:00 PM 6.85 44.33 0.223 8.1 10.48 11.97
3/24/2021 5:45:00 PM 6.85 44.33 0.223 8.09 11.13 11.94
3/24/2021 6:00:00 PM 6.84 44.312 0.223 8.09 11.26 11.91
3/24/2021 6:15:00 PM 6.83 44.294 0.223 8.08 11.16 11.9
3/24/2021 6:30:00 PM 6.82 44.276 0.222 8.08 11.47 11.88
3/24/2021 6:45:00 PM 6.81 44.258 0.222 8.07 11.06 11.86
3/24/2021 7:00:00 PM 6.79 44.222 0.222 8.07 12.16 11.83
3/24/2021 7:15:00 PM 6.77 44.186 0.222 8.06 11.29 11.81
3/24/2021 7:30:00 PM 6.75 44.15 0.221 8.05 11.14 11.78
3/24/2021 7:45:00 PM 6.72 44.096 0.221 8.04 13.67 11.75
3/24/2021 8:00:00 PM 6.7 44.06 0.221 8.04 11.12 11.73
3/24/2021 8:15:00 PM 6.69 44.042 0.221 8.03 13.69 11.72
3/24/2021 8:30:00 PM 6.68 44.024 0.22 8.03 11.42 11.7
3/24/2021 8:45:00 PM 6.66 43.988 0.22 8.02 11.85 11.69
3/24/2021 9:00:00 PM 6.65 43.97 0.22 8.01 10.89 11.68
3/24/2021 9:15:00 PM 6.64 43.952 0.22 8.02 11.73 11.67
3/24/2021 9:30:00 PM 6.63 43.934 0.22 8 12.5 11.66
3/24/2021 9:45:00 PM 6.61 43.898 0.219 8 11.49 11.66
3/24/2021 10:00:00 PM 6.59 43.862 0.219 8 11.41 11.65
3/24/2021 10:15:00 PM 6.58 43.844 0.219 8 11.41 11.64
3/24/2021 10:30:00 PM 6.57 43.826 0.219 7.99 12.31 11.64
3/24/2021 10:45:00 PM 6.56 43.808 0.219 7.99 9.66 11.64
3/24/2021 11:00:00 PM 6.55 43.79 0.219 7.99 11.51 11.63
3/24/2021 11:15:00 PM 6.55 43.79 0.219 7.99 11.39 11.63
3/24/2021 11:30:00 PM 6.54 43.772 0.219 7.98 11.36 11.63
3/24/2021 11:45:00 PM 6.54 43.772 0.219 7.99 12.11 11.62
3/25/2021 12:00:00 AM 6.54 43.772 0.219 7.99 11.37 11.62
3/25/2021 12:15:00 AM 6.53 43.754 0.219 7.99 13.06 11.62
3/25/2021 12:30:00 AM 6.52 43.736 0.219 7.98 11.76 11.62
3/25/2021 12:45:00 AM 6.52 43.736 0.219 7.98 13.2 11.62
3/25/2021 1:00:00 AM 6.52 43.736 0.219 7.98 11.81 11.62
3/25/2021 1:15:00 AM 6.53 43.754 0.219 7.98 12.9 11.61
3/25/2021 1:30:00 AM 6.53 43.754 0.219 7.98 13.4 11.61
3/25/2021 1:45:00 AM 6.54 43.772 0.219 7.98 11.85 11.61
3/25/2021 2:00:00 AM 6.54 43.772 0.219 7.98 11.86 11.6
3/25/2021 2:15:00 AM 6.55 43.79 0.219 7.98 11.81 11.6
3/25/2021 2:30:00 AM 6.57 43.826 0.219 7.98 11.35 11.6
3/25/2021 2:45:00 AM 6.58 43.844 0.219 7.98 12.89 11.59
3/25/2021 3:00:00 AM 6.59 43.862 0.219 7.97 12.75 11.59
3/25/2021 3:15:00 AM 6.6 43.88 0.219 7.98 11.8 11.59
3/25/2021 3:30:00 AM 6.61 43.898 0.219 7.98 12.48 11.59
3/25/2021 3:45:00 AM 6.62 43.916 0.219 7.97 11.41 11.59
3/25/2021 4:00:00 AM 6.63 43.934 0.219 7.98 11.13 11.58
3/25/2021 4:15:00 AM 6.64 43.952 0.219 7.98 12.95 11.57
3/25/2021 4:30:00 AM 6.66 43.988 0.218 7.98 12.64 11.57
3/25/2021 4:45:00 AM 6.67 44.006 0.218 7.98 12.44 11.56
3/25/2021 5:00:00 AM 6.69 44.042 0.218 7.97 11.74 11.56
3/25/2021 5:15:00 AM 6.71 44.078 0.218 7.98 12.62 11.55
3/25/2021 5:30:00 AM 6.73 44.114 0.218 7.97 11.52 11.55
3/25/2021 5:45:00 AM 6.74 44.132 0.218 7.98 12.76 11.54
3/25/2021 6:00:00 AM 6.76 44.168 0.218 7.98 12.28 11.54
3/25/2021 6:15:00 AM 6.77 44.186 0.218 7.98 13.43 11.54
3/25/2021 6:30:00 AM 6.78 44.204 0.218 7.97 12.85 11.53
3/25/2021 6:45:00 AM 6.78 44.204 0.218 7.97 11.64 11.53
3/25/2021 7:00:00 AM 6.8 44.24 0.218 7.98 11.48 11.53
3/25/2021 7:15:00 AM 6.82 44.276 0.218 7.98 13.85 11.53
3/25/2021 7:30:00 AM 6.83 44.294 0.217 7.98 10.69 11.53
3/25/2021 7:45:00 AM 6.85 44.33 0.217 7.98 11.76 11.55
3/25/2021 8:00:00 AM 6.87 44.366 0.217 7.99 12.99 11.56
3/25/2021 8:15:00 AM 6.89 44.402 0.217 7.99 12.23 11.58
3/25/2021 8:30:00 AM 6.94 44.492 0.217 7.99 12.42 11.6
3/25/2021 8:45:00 AM 6.98 44.564 0.217 8 12.22 11.63
3/25/2021 9:00:00 AM 7.02 44.636 0.217 8 10.78 11.66
3/25/2021 9:15:00 AM 7.09 44.762 0.217 8.02 11.31 11.69
3/25/2021 9:30:00 AM 7.15 44.87 0.217 8.03 11.33 11.72
3/25/2021 9:45:00 AM 7.27 45.086 0.216 8.04 12.9 11.76
3/25/2021 10:00:00 AM 7.34 45.212 0.216 8.05 10.18 11.79
3/25/2021 10:15:00 AM 7.45 45.41 0.216 8.06 11.26 11.8
3/25/2021 10:30:00 AM 7.55 45.59 0.216 8.06 10.71 11.81
3/25/2021 10:45:00 AM 7.68 45.824 0.216 8.07 10.29 11.82
3/25/2021 11:00:00 AM 7.82 46.076 0.216 8.08 11.75 11.82
3/25/2021 11:15:00 AM 7.97 46.346 0.216 8.08 11.36 11.82
3/25/2021 11:30:00 AM 8.15 46.67 0.216 8.08 10.68 11.81
3/25/2021 11:45:00 AM 8.33 46.994 0.216 8.1 11.74 11.81
3/25/2021 12:00:00 PM 8.52 47.336 0.216 8.1 11.36 11.8
3/25/2021 12:15:00 PM 8.71 47.678 0.216 8.11 11.95 11.78
3/25/2021 12:30:00 PM 8.91 48.038 0.216 8.12 12.22 11.76
3/25/2021 12:45:00 PM 9.09 48.362 0.216 8.12 10.47 11.75
3/25/2021 1:00:00 PM 9.28 48.704 0.216 8.13 12.06 11.74
3/25/2021 1:15:00 PM 9.47 49.046 0.215 8.13 11.26 11.71
3/25/2021 1:30:00 PM 9.67 49.406 0.215 8.14 12.02 11.7
3/25/2021 1:45:00 PM 9.87 49.766 0.215 8.15 11.47 11.66
3/25/2021 2:00:00 PM 10 50 0.215 8.15 12.5 11.62
3/25/2021 2:15:00 PM 10.13 50.234 0.215 8.14 11.2 11.57
3/25/2021 2:30:00 PM 10.28 50.504 0.215 8.15 11.38 11.53
3/25/2021 2:45:00 PM 10.47 50.846 0.215 8.15 13.09 11.51
3/25/2021 3:00:00 PM 10.62 51.116 0.215 8.16 11.06 11.48
3/25/2021 3:15:00 PM 10.77 51.386 0.215 8.17 13.16 11.46
3/25/2021 3:30:00 PM 10.89 51.602 0.215 8.16 11.46 11.42
3/25/2021 3:45:00 PM 10.96 51.728 0.215 8.17 13.3 11.39
3/25/2021 4:00:00 PM 11.05 51.89 0.215 8.17 14.82 11.35
3/25/2021 4:15:00 PM 11.13 52.034 0.215 8.17 13.21 11.32
3/25/2021 4:30:00 PM 11.19 52.142 0.215 8.17 13.38 11.27
3/25/2021 4:45:00 PM 11.23 52.214 0.215 8.16 13.18 11.23
3/25/2021 5:00:00 PM 11.23 52.214 0.215 8.16 12.64 11.19
3/25/2021 5:15:00 PM 11.22 52.196 0.215 8.16 13.43 11.14
3/25/2021 5:30:00 PM 11.21 52.178 0.215 8.14 11.34 11.1
3/25/2021 5:45:00 PM 11.19 52.142 0.215 8.13 12.05 11.06
3/25/2021 6:00:00 PM 11.16 52.088 0.215 8.13 12.53 11.01
3/25/2021 6:15:00 PM 11.1 51.98 0.215 8.11 49.75 10.95
3/25/2021 6:30:00 PM 11.05 51.89 0.215 8.1 17.94 10.9
3/25/2021 6:45:00 PM 10.99 51.782 0.215 8.09 10.77 10.84
3/25/2021 7:00:00 PM 10.93 51.674 0.215 8.07 11.93 10.79
3/25/2021 7:15:00 PM 10.87 51.566 0.215 8.05 12.08 10.74
3/25/2021 7:30:00 PM 10.82 51.476 0.215 8.04 12.62 10.69
3/25/2021 7:45:00 PM 10.76 51.368 0.215 8.03 10.88 10.65
3/25/2021 8:00:00 PM 10.7 51.26 0.216 8.02 13.61 10.62
3/25/2021 8:15:00 PM 10.64 51.152 0.216 8.01 10.99 10.59
3/25/2021 8:30:00 PM 10.58 51.044 0.216 8 13.52 10.57
3/25/2021 8:45:00 PM 10.53 50.954 0.216 8 12.78 10.55
3/25/2021 9:00:00 PM 10.48 50.864 0.216 7.99 13.14 10.54
3/25/2021 9:15:00 PM 10.43 50.774 0.216 7.98 13 10.53
3/25/2021 9:30:00 PM 10.38 50.684 0.216 7.97 12.73 10.52
3/25/2021 9:45:00 PM 10.34 50.612 0.216 7.97 13.2 10.51
3/25/2021 10:00:00 PM 10.3 50.54 0.216 7.96 13.15 10.5
3/25/2021 10:15:00 PM 10.26 50.468 0.216 7.96 12.94 10.5
3/25/2021 10:30:00 PM 10.22 50.396 0.216 7.96 13.16 10.49
3/25/2021 10:45:00 PM 10.2 50.36 0.217 7.95 12.57 10.5
3/25/2021 11:00:00 PM 10.18 50.324 0.217 7.95 12.88 10.48
3/25/2021 11:15:00 PM 10.17 50.306 0.217 7.95 12.53 10.48
3/25/2021 11:30:00 PM 10.17 50.306 0.217 7.95 12.21 10.48
3/25/2021 11:45:00 PM 10.16 50.288 0.217 7.95 11.25 10.47
3/26/2021 12:00:00 AM 10.17 50.306 0.217 7.96 14.12 10.46
3/26/2021 12:15:00 AM 10.19 50.342 0.217 7.95 13.31 10.45
3/26/2021 12:30:00 AM 10.21 50.378 0.217 7.95 12.82 10.44
3/26/2021 12:45:00 AM 10.23 50.414 0.217 7.95 10.48 10.43
3/26/2021 1:00:00 AM 10.24 50.432 0.217 7.95 13.1 10.42
3/26/2021 1:15:00 AM 10.27 50.486 0.217 7.95 13.27 10.42
3/26/2021 1:30:00 AM 10.3 50.54 0.217 7.95 14.21 10.41
3/26/2021 1:45:00 AM 10.32 50.576 0.217 7.95 15.71 10.39
3/26/2021 2:00:00 AM 10.35 50.63 0.217 7.95 12.27 10.39
3/26/2021 2:15:00 AM 10.38 50.684 0.217 7.94 13.51 10.38
3/26/2021 2:30:00 AM 10.41 50.738 0.216 7.95 12.69 10.37
3/26/2021 2:45:00 AM 10.44 50.792 0.217 7.95 14.11 10.36
3/26/2021 3:00:00 AM 10.47 50.846 0.216 7.95 10.99 10.35
3/26/2021 3:15:00 AM 10.51 50.918 0.216 7.95 15.23 10.34
3/26/2021 3:30:00 AM 10.55 50.99 0.216 7.95 13.69 10.32
3/26/2021 3:45:00 AM 10.58 51.044 0.216 7.95 11.41 10.31
3/26/2021 4:00:00 AM 10.63 51.134 0.216 7.95 13.07 10.29
3/26/2021 4:15:00 AM 10.66 51.188 0.216 7.95 13.28 10.29
3/26/2021 4:30:00 AM 10.7 51.26 0.216 7.95 14.05 10.27
3/26/2021 4:45:00 AM 10.74 51.332 0.216 7.95 13.04 10.26
3/26/2021 5:00:00 AM 10.77 51.386 0.216 7.95 12.73 10.25
3/26/2021 5:15:00 AM 10.8 51.44 0.216 7.95 13.25 10.23
3/26/2021 5:30:00 AM 10.83 51.494 0.216 7.95 13.88 10.22
3/26/2021 5:45:00 AM 10.85 51.53 0.216 7.95 14 10.21
3/26/2021 6:00:00 AM 10.87 51.566 0.216 7.95 13.71 10.2
3/26/2021 6:15:00 AM 10.89 51.602 0.216 7.95 16.3 10.19
3/26/2021 6:30:00 AM 10.9 51.62 0.216 7.95 13.65 10.18
3/26/2021 6:45:00 AM 10.92 51.656 0.216 7.95 14.03 10.17
3/26/2021 7:00:00 AM 10.92 51.656 0.216 7.94 12.46 10.16
3/26/2021 7:15:00 AM 10.93 51.674 0.216 7.95 14.09 10.16
3/26/2021 7:30:00 AM 10.95 51.71 0.216 7.95 13.91 10.17
3/26/2021 7:45:00 AM 10.97 51.746 0.216 7.95 11.9 10.17
3/26/2021 8:00:00 AM 10.99 51.782 0.216 7.96 13.47 10.19
3/26/2021 8:15:00 AM 11.01 51.818 0.216 7.96 18.78 10.18
3/26/2021 8:30:00 AM 11.01 51.818 0.216 7.96 13.69 10.18
3/26/2021 8:45:00 AM 11.03 51.854 0.216 7.96 13.16 10.21
3/26/2021 9:00:00 AM 11.05 51.89 0.216 7.97 12.48 10.26
3/26/2021 9:15:00 AM 11.08 51.944 0.216 7.98 11.74 10.29
3/26/2021 9:30:00 AM 11.14 52.052 0.216 7.99 16.64 10.35
3/26/2021 9:45:00 AM 11.24 52.232 0.216 8.01 11.83 10.4
3/26/2021 10:00:00 AM 11.31 52.358 0.216 8.02 11.78 10.44
3/26/2021 10:15:00 AM 11.4 52.52 0.216 8.03 11.78 10.48
3/26/2021 10:30:00 AM 11.45 52.61 0.216 8.04 36.64 10.48
3/26/2021 10:45:00 AM 11.51 52.718 0.216 8.05 12.51 10.49
3/26/2021 11:00:00 AM 11.64 52.952 0.216 8.05 11.82 10.53
3/26/2021 11:15:00 AM 11.69 53.042 0.216 8.06 12.59 10.52
3/26/2021 11:30:00 AM 11.69 53.042 0.216 8.05 11.78 10.47
3/26/2021 11:45:00 AM 11.72 53.096 0.216 8.06 12.68 10.46
3/26/2021 12:00:00 PM 11.72 53.096 0.216 8.05 12.37 10.42
3/26/2021 12:15:00 PM 11.7 53.06 0.216 8.05 12.42 10.41
3/26/2021 12:30:00 PM 11.79 53.222 0.216 8.06 10.14 10.47
3/26/2021 12:45:00 PM 11.77 53.186 0.216 8.06 12.17 10.44
3/26/2021 1:00:00 PM 11.75 53.15 0.216 8.06 12.81 10.42
3/26/2021 1:15:00 PM 11.72 53.096 0.216 8.05 12.13 10.4
3/26/2021 1:30:00 PM 11.74 53.132 0.216 8.06 11.36 10.41
3/26/2021 1:45:00 PM 11.76 53.168 0.216 8.05 11.01 10.41
3/26/2021 2:00:00 PM 11.87 53.366 0.216 8.07 12.85 10.48
3/26/2021 2:15:00 PM 11.86 53.348 0.216 8.08 13.51 10.48
3/26/2021 2:30:00 PM 11.83 53.294 0.216 8.08 12.99 10.46
3/26/2021 2:45:00 PM 11.81 53.258 0.216 8.07 12.33 10.45
3/26/2021 3:00:00 PM 11.81 53.258 0.216 8.07 10.95 10.44
3/26/2021 3:15:00 PM 11.77 53.186 0.216 8.07 12.37 10.42
3/26/2021 3:30:00 PM 11.73 53.114 0.216 8.07 12.37 10.4
3/26/2021 3:45:00 PM 11.67 53.006 0.216 8.05 11.88 10.35
3/26/2021 4:00:00 PM 11.62 52.916 0.216 8.05 12.96 10.33
3/26/2021 4:15:00 PM 11.57 52.826 0.216 8.04 14.56 10.32
3/26/2021 4:30:00 PM 11.5 52.7 0.216 8.04 9.23 10.32
3/26/2021 4:45:00 PM 11.44 52.592 0.216 8.04 13.29 10.32
3/26/2021 5:00:00 PM 11.36 52.448 0.216 8.04 11.61 10.31
3/26/2021 5:15:00 PM 11.27 52.286 0.216 8.02 11.43 10.29
3/26/2021 5:30:00 PM 11.19 52.142 0.216 8.02 11.88 10.29
3/26/2021 5:45:00 PM 11.1 51.98 0.216 8.02 11.12 10.28
3/26/2021 6:00:00 PM 11.03 51.854 0.216 8.02 12.01 10.29
3/26/2021 6:15:00 PM 10.95 51.71 0.216 8.01 10.87 10.29
3/26/2021 6:30:00 PM 10.86 51.548 0.216 8 12.92 10.29
3/26/2021 6:45:00 PM 10.78 51.404 0.216 8 10.89 10.28
3/26/2021 7:00:00 PM 10.72 51.296 0.216 7.99 11.09 10.28
3/26/2021 7:15:00 PM 10.64 51.152 0.216 7.99 11.72 10.27
3/26/2021 7:30:00 PM 10.57 51.026 0.216 7.99 11.91 10.28
3/26/2021 7:45:00 PM 10.5 50.9 0.216 7.98 11.94 10.28
3/26/2021 8:00:00 PM 10.42 50.756 0.216 7.98 10.54 10.28
3/26/2021 8:15:00 PM 10.36 50.648 0.217 7.98 13.28 10.29
3/26/2021 8:30:00 PM 10.3 50.54 0.217 7.97 12.52 10.3
3/26/2021 8:45:00 PM 10.24 50.432 0.217 7.98 13.79 10.31
3/26/2021 9:00:00 PM 10.19 50.342 0.217 7.97 13.33 10.32
3/26/2021 9:15:00 PM 10.13 50.234 0.217 7.97 14.84 10.34
3/26/2021 9:30:00 PM 10.09 50.162 0.217 7.97 12.31 10.35
3/26/2021 9:45:00 PM 10.04 50.072 0.217 7.97 12.93 10.36
3/26/2021 10:00:00 PM 9.99 49.982 0.217 7.97 12.26 10.38
3/26/2021 10:15:00 PM 9.94 49.892 0.217 7.97 11.89 10.38
3/26/2021 10:30:00 PM 9.9 49.82 0.217 7.97 12.15 10.39
3/26/2021 10:45:00 PM 9.86 49.748 0.217 7.97 12.98 10.41
3/26/2021 11:00:00 PM 9.82 49.676 0.217 7.96 12.32 10.42
3/26/2021 11:15:00 PM 9.78 49.604 0.217 7.97 12.29 10.43
3/26/2021 11:30:00 PM 9.75 49.55 0.217 7.96 12.18 10.45
3/26/2021 11:45:00 PM 9.72 49.496 0.218 7.96 11.91 10.46
3/27/2021 12:00:00 AM 9.68 49.424 0.218 7.96 11.94 10.47
3/27/2021 12:15:00 AM 9.65 49.37 0.218 7.97 12.99 10.48
3/27/2021 12:30:00 AM 9.61 49.298 0.218 7.97 16.68 10.49
3/27/2021 12:45:00 AM 9.59 49.262 0.218 7.96 12.29 10.51
3/27/2021 1:00:00 AM 9.56 49.208 0.218 7.96 11.49 10.51
3/27/2021 1:15:00 AM 9.52 49.136 0.218 7.97 12.16 10.52
3/27/2021 1:30:00 AM 9.48 49.064 0.218 7.96 11.75 10.53
3/27/2021 1:45:00 AM 9.45 49.01 0.218 7.96 12.46 10.54
3/27/2021 2:00:00 AM 9.41 48.938 0.218 7.96 12.51 10.55
3/27/2021 2:15:00 AM 9.38 48.884 0.218 7.96 12.21 10.56
3/27/2021 2:30:00 AM 9.35 48.83 0.218 7.96 12.54 10.57
3/27/2021 2:45:00 AM 9.32 48.776 0.218 7.97 13.09 10.59
3/27/2021 3:00:00 AM 9.29 48.722 0.218 7.96 12 10.6
3/27/2021 3:15:00 AM 9.26 48.668 0.218 7.97 12.79 10.61
3/27/2021 3:30:00 AM 9.22 48.596 0.218 7.97 12.79 10.62
3/27/2021 3:45:00 AM 9.19 48.542 0.218 7.97 11.59 10.62
3/27/2021 4:00:00 AM 9.16 48.488 0.218 7.97 12.18 10.64
3/27/2021 4:15:00 AM 9.14 48.452 0.219 7.96 11.87 10.64
3/27/2021 4:30:00 AM 9.11 48.398 0.219 7.97 12.83 10.65
3/27/2021 4:45:00 AM 9.08 48.344 0.219 7.97 12.36 10.66
3/27/2021 5:00:00 AM 9.04 48.272 0.219 7.96 12.56 10.67
3/27/2021 5:15:00 AM 9 48.2 0.219 7.96 11.52 10.69
3/27/2021 5:30:00 AM 8.96 48.128 0.219 7.96 11.89 10.7
3/27/2021 5:45:00 AM 8.93 48.074 0.219 7.97 12.92 10.71
3/27/2021 6:00:00 AM 8.89 48.002 0.219 7.96 12.41 10.72
3/27/2021 6:15:00 AM 8.85 47.93 0.219 7.97 11.94 10.74
3/27/2021 6:30:00 AM 8.8 47.84 0.22 7.96 12.23 10.74
3/27/2021 6:45:00 AM 8.75 47.75 0.22 7.97 12.59 10.76
3/27/2021 7:00:00 AM 8.71 47.678 0.22 7.97 13.09 10.78
3/27/2021 7:15:00 AM 8.67 47.606 0.22 7.97 12.61 10.79
3/27/2021 7:30:00 AM 8.62 47.516 0.22 7.97 12.11 10.81
3/27/2021 7:45:00 AM 8.58 47.444 0.22 7.97 13.28 10.84
3/27/2021 8:00:00 AM 8.53 47.354 0.22 7.97 11.97 10.87
3/27/2021 8:15:00 AM 8.49 47.282 0.22 7.98 12.29 10.9
3/27/2021 8:30:00 AM 8.46 47.228 0.22 7.98 11.43 10.94
3/27/2021 8:45:00 AM 8.42 47.156 0.221 7.99 12.76 10.97
3/27/2021 9:00:00 AM 8.39 47.102 0.221 7.99 12.72 11.01
3/27/2021 9:15:00 AM 8.35 47.03 0.221 7.99 11.95 11.05
3/27/2021 9:30:00 AM 8.32 46.976 0.221 8 11.21 11.1
3/27/2021 9:45:00 AM 8.29 46.922 0.221 8.01 10.87 11.14
3/27/2021 10:00:00 AM 8.26 46.868 0.221 8.01 12.02 11.17
3/27/2021 10:15:00 AM 8.23 46.814 0.221 8.01 11.92 11.2
3/27/2021 10:30:00 AM 8.2 46.76 0.221 8.02 11.55 11.24
3/27/2021 10:45:00 AM 8.18 46.724 0.221 8.03 10.78 11.28
3/27/2021 11:00:00 AM 8.17 46.706 0.221 8.04 12.43 11.33
3/27/2021 11:15:00 AM 8.17 46.706 0.221 8.05 11.37 11.38
3/27/2021 11:30:00 AM 8.19 46.742 0.221 8.06 11.15 11.44
3/27/2021 11:45:00 AM 8.2 46.76 0.221 8.07 11.18 11.48
3/27/2021 12:00:00 PM 8.24 46.832 0.221 8.08 10.97 11.54
3/27/2021 12:15:00 PM 8.3 46.94 0.221 8.09 11.79 11.58
3/27/2021 12:30:00 PM 8.38 47.084 0.221 8.1 11.67 11.62
3/27/2021 12:45:00 PM 8.43 47.174 0.222 8.11 10.86 11.64
3/27/2021 1:00:00 PM 8.52 47.336 0.222 8.12 11.61 11.67
3/27/2021 1:15:00 PM 8.62 47.516 0.222 8.13 10.79 11.69
3/27/2021 1:30:00 PM 8.73 47.714 0.222 8.14 11 11.71
3/27/2021 1:45:00 PM 8.75 47.75 0.222 8.14 11.22 11.71
3/27/2021 2:00:00 PM 8.74 47.732 0.222 8.15 10.41 11.69
3/27/2021 2:15:00 PM 8.73 47.714 0.222 8.15 11.42 11.69
3/27/2021 2:30:00 PM 8.73 47.714 0.222 8.14 10.59 11.69
3/27/2021 2:45:00 PM 8.79 47.822 0.222 8.16 12.11 11.7
3/27/2021 3:00:00 PM 8.84 47.912 0.222 8.15 10.58 11.71
3/27/2021 3:15:00 PM 8.91 48.038 0.222 8.16 10.24 11.7
3/27/2021 3:30:00 PM 8.94 48.092 0.223 8.16 11.04 11.7
3/27/2021 3:45:00 PM 8.97 48.146 0.223 8.17 10.67 11.69
3/27/2021 4:00:00 PM 8.98 48.164 0.223 8.17 11.28 11.68
3/27/2021 4:15:00 PM 9.01 48.218 0.223 8.17 10.45 11.67
3/27/2021 4:30:00 PM 9.07 48.326 0.223 8.17 10.93 11.67
3/27/2021 4:45:00 PM 9.12 48.416 0.223 8.17 11.17 11.67
3/27/2021 5:00:00 PM 9.16 48.488 0.223 8.17 10.83 11.67
3/27/2021 5:15:00 PM 9.14 48.452 0.223 8.17 11.46 11.65
3/27/2021 5:30:00 PM 9.12 48.416 0.223 8.17 11.38 11.64
3/27/2021 5:45:00 PM 9.07 48.326 0.224 8.17 11.81 11.61
3/27/2021 6:00:00 PM 9.03 48.254 0.224 8.16 12.01 11.58
3/27/2021 6:15:00 PM 8.99 48.182 0.224 8.15 10.69 11.54
3/27/2021 6:30:00 PM 8.96 48.128 0.224 8.14 10.67 11.5
3/27/2021 6:45:00 PM 8.92 48.056 0.224 8.12 10.45 11.43
3/27/2021 7:00:00 PM 8.87 47.966 0.224 8.11 10.79 11.38
3/27/2021 7:15:00 PM 8.81 47.858 0.224 8.1 11.58 11.33
3/27/2021 7:30:00 PM 8.75 47.75 0.225 8.08 10.2 11.28
3/27/2021 7:45:00 PM 8.7 47.66 0.225 8.07 10.83 11.23
3/27/2021 8:00:00 PM 8.64 47.552 0.225 8.06 10.72 11.2
3/27/2021 8:15:00 PM 8.58 47.444 0.225 8.05 11.53 11.17
3/27/2021 8:30:00 PM 8.52 47.336 0.225 8.04 10.87 11.15
3/27/2021 8:45:00 PM 8.44 47.192 0.225 8.04 12.21 11.13
3/27/2021 9:00:00 PM 8.36 47.048 0.226 8.03 12.34 11.12
3/27/2021 9:15:00 PM 8.28 46.904 0.226 8.02 10.96 11.12
3/27/2021 9:30:00 PM 8.2 46.76 0.226 8.02 11.66 11.12
3/27/2021 9:45:00 PM 8.12 46.616 0.226 8.02 11.4 11.12
3/27/2021 10:00:00 PM 8.04 46.472 0.226 8.01 13.12 11.12
3/27/2021 10:15:00 PM 7.96 46.328 0.226 8.01 11.91 11.13
3/27/2021 10:30:00 PM 7.89 46.202 0.226 8 11.66 11.14
3/27/2021 10:45:00 PM 7.81 46.058 0.226 8 11.6 11.14
3/27/2021 11:00:00 PM 7.73 45.914 0.226 8 10.92 11.16
3/27/2021 11:15:00 PM 7.66 45.788 0.227 7.99 11.49 11.17
3/27/2021 11:30:00 PM 7.6 45.68 0.227 7.99 10.67 11.19
3/27/2021 11:45:00 PM 7.54 45.572 0.227 7.99 11.58 11.19
3/28/2021 12:00:00 AM 7.48 45.464 0.227 7.99 12.02 11.2
3/28/2021 12:15:00 AM 7.41 45.338 0.227 7.98 10.67 11.22
3/28/2021 12:30:00 AM 7.35 45.23 0.227 7.98 10.32 11.22
3/28/2021 12:45:00 AM 7.29 45.122 0.227 7.98 11.13 11.23
3/28/2021 1:00:00 AM 7.24 45.032 0.227 7.98 11 11.24
3/28/2021 1:15:00 AM 7.19 44.942 0.228 7.98 11.18 11.26
3/28/2021 1:30:00 AM 7.14 44.852 0.227 7.98 11.01 11.26
3/28/2021 1:45:00 AM 7.09 44.762 0.228 7.98 10.48 11.28
3/28/2021 2:00:00 AM 7.04 44.672 0.228 7.98 11.04 11.29
3/28/2021 2:15:00 AM 6.99 44.582 0.228 7.98 11.39 11.3
3/28/2021 2:30:00 AM 6.94 44.492 0.228 7.98 11.86 11.31
3/28/2021 2:45:00 AM 6.9 44.42 0.228 7.97 12.09 11.32
3/28/2021 3:00:00 AM 6.86 44.348 0.228 7.98 11.32 11.34
3/28/2021 3:15:00 AM 6.82 44.276 0.228 7.97 10.54 11.35
3/28/2021 3:30:00 AM 6.78 44.204 0.228 7.98 10.38 11.36
3/28/2021 3:45:00 AM 6.74 44.132 0.228 7.98 10.28 11.37
3/28/2021 4:00:00 AM 6.7 44.06 0.228 7.97 11.24 11.38
3/28/2021 4:15:00 AM 6.67 44.006 0.228 7.98 11.08 11.39
3/28/2021 4:30:00 AM 6.64 43.952 0.229 7.98 11.3 11.4
3/28/2021 4:45:00 AM 6.61 43.898 0.229 7.98 11.66 11.41
3/28/2021 5:00:00 AM 6.59 43.862 0.229 7.98 11.18 11.42
3/28/2021 5:15:00 AM 6.57 43.826 0.229 7.98 11.75 11.43
3/28/2021 5:30:00 AM 6.56 43.808 0.229 7.98 11.01 11.43
3/28/2021 5:45:00 AM 6.55 43.79 0.229 7.98 11.48 11.43
3/28/2021 6:00:00 AM 6.54 43.772 0.229 7.99 10.66 11.44
3/28/2021 6:15:00 AM 6.54 43.772 0.229 7.99 10.86 11.44
3/28/2021 6:30:00 AM 6.55 43.79 0.229 7.99 11.51 11.45
3/28/2021 6:45:00 AM 6.57 43.826 0.229 7.98 11.06 11.45
3/28/2021 7:00:00 AM 6.59 43.862 0.229 7.99 10.9 11.45
3/28/2021 7:15:00 AM 6.62 43.916 0.229 8 10.24 11.45
3/28/2021 7:30:00 AM 6.66 43.988 0.229 8 11.05 11.45
3/28/2021 7:45:00 AM 6.7 44.06 0.229 8 11.33 11.45
3/28/2021 8:00:00 AM 6.75 44.15 0.229 8.01 10.21 11.45
3/28/2021 8:15:00 AM 6.81 44.258 0.23 8.01 10.5 11.46
3/28/2021 8:30:00 AM 6.86 44.348 0.23 8.01 10.15 11.46
3/28/2021 8:45:00 AM 6.9 44.42 0.23 8.02 10.1 11.47
3/28/2021 9:00:00 AM 6.94 44.492 0.23 8.02 10.74 11.48
3/28/2021 9:15:00 AM 6.99 44.582 0.23 8.04 10.23 11.5
3/28/2021 9:30:00 AM 7.02 44.636 0.23 8.04 10.14 11.51
3/28/2021 9:45:00 AM 7.06 44.708 0.23 8.04 10.14 11.52
3/28/2021 10:00:00 AM 7.1 44.78 0.23 8.05 9.81 11.53
3/28/2021 10:15:00 AM 7.13 44.834 0.23 8.06 9.66 11.53
3/28/2021 10:30:00 AM 7.17 44.906 0.23 8.06 9.34 11.54
3/28/2021 10:45:00 AM 7.2 44.96 0.23 8.07 9.12 11.56
3/28/2021 11:00:00 AM 7.24 45.032 0.23 8.07 10.13 11.57
3/28/2021 11:15:00 AM 7.27 45.086 0.23 8.08 9.33 11.59
3/28/2021 11:30:00 AM 7.31 45.158 0.23 8.09 9.53 11.61
3/28/2021 11:45:00 AM 7.35 45.23 0.23 8.1 9 11.63
3/28/2021 12:00:00 PM 7.37 45.266 0.23 8.1 9.65 11.62
3/28/2021 12:15:00 PM 7.43 45.374 0.23 8.11 9.62 11.65
3/28/2021 12:30:00 PM 7.46 45.428 0.231 8.11 8.59 11.65
3/28/2021 12:45:00 PM 7.5 45.5 0.231 8.12 9.41 11.67
3/28/2021 1:00:00 PM 7.56 45.608 0.231 8.13 9.32 11.68
3/28/2021 1:15:00 PM 7.59 45.662 0.231 8.13 9.48 11.68
3/28/2021 1:30:00 PM 7.61 45.698 0.231 8.14 9.47 11.65
3/28/2021 1:45:00 PM 7.65 45.77 0.231 8.14 9.12 11.64
3/28/2021 2:00:00 PM 7.68 45.824 0.231 8.14 9.45 11.62
3/28/2021 2:15:00 PM 7.72 45.896 0.232 8.15 9.11 11.62
3/28/2021 2:30:00 PM 7.78 46.004 0.232 8.15 9.59 11.66
3/28/2021 2:45:00 PM 7.83 46.094 0.232 8.16 8.91 11.66
3/28/2021 3:00:00 PM 7.9 46.22 0.232 8.17 9.61 11.69
3/28/2021 3:15:00 PM 7.96 46.328 0.232 8.18 9.44 11.7
3/28/2021 3:30:00 PM 8.03 46.454 0.232 8.19 8.86 11.71
3/28/2021 3:45:00 PM 8.06 46.508 0.232 8.19 8.64 11.68
3/28/2021 4:00:00 PM 8.09 46.562 0.232 8.19 8.61 11.64
3/28/2021 4:15:00 PM 8.11 46.598 0.232 8.18 8.52 11.58
3/28/2021 4:30:00 PM 8.12 46.616 0.232 8.17 8.69 11.53
3/28/2021 4:45:00 PM 8.15 46.67 0.231 8.16 9.55 11.48
3/28/2021 5:00:00 PM 8.15 46.67 0.231 8.16 10.12 11.47
3/28/2021 5:15:00 PM 8.15 46.67 0.231 8.16 10.33 11.44
3/28/2021 5:30:00 PM 8.14 46.652 0.231 8.15 9.76 11.41
3/28/2021 5:45:00 PM 8.11 46.598 0.231 8.14 9.63 11.36
3/28/2021 6:00:00 PM 8.08 46.544 0.231 8.13 9.77 11.32
3/28/2021 6:15:00 PM 8.06 46.508 0.231 8.12 9.8 11.3
3/28/2021 6:30:00 PM 8.03 46.454 0.231 8.12 10.09 11.27
3/28/2021 6:45:00 PM 8 46.4 0.232 8.11 10.73 11.25
3/28/2021 7:00:00 PM 7.96 46.328 0.233 8.1 10.17 11.23
3/28/2021 7:15:00 PM 7.93 46.274 0.234 8.09 10.42 11.22
3/28/2021 7:30:00 PM 7.89 46.202 0.235 8.09 10.29 11.2
3/28/2021 7:45:00 PM 7.85 46.13 0.236 8.08 10.37 11.19
3/28/2021 8:00:00 PM 7.8 46.04 0.237 8.08 11.2 11.17
3/28/2021 8:15:00 PM 7.75 45.95 0.236 8.07 11.25 11.15
3/28/2021 8:30:00 PM 7.7 45.86 0.236 8.06 11.55 11.15
3/28/2021 8:45:00 PM 7.65 45.77 0.236 8.06 11.14 11.15
3/28/2021 9:00:00 PM 7.6 45.68 0.235 8.06 10.97 11.15
3/28/2021 9:15:00 PM 7.55 45.59 0.235 8.05 11.15 11.15
3/28/2021 9:30:00 PM 7.51 45.518 0.235 8.05 12.14 11.15
3/28/2021 9:45:00 PM 7.48 45.464 0.235 8.05 12.43 11.15
3/28/2021 10:00:00 PM 7.43 45.374 0.235 8.05 12.37 11.16
3/28/2021 10:15:00 PM 7.39 45.302 0.234 8.04 11.53 11.16
3/28/2021 10:30:00 PM 7.32 45.176 0.234 8.04 11.57 11.17
3/28/2021 10:45:00 PM 7.26 45.068 0.233 8.04 10.58 11.18
3/28/2021 11:00:00 PM 7.19 44.942 0.233 8.04 11.77 11.19
3/28/2021 11:15:00 PM 7.14 44.852 0.233 8.04 11.96 11.2
3/28/2021 11:30:00 PM 7.09 44.762 0.233 8.03 13.08 11.21
3/28/2021 11:45:00 PM 7.03 44.654 0.233 8.03 12.2 11.22
3/29/2021 12:00:00 AM 6.96 44.528 0.233 8.03 12.57 11.23
3/29/2021 12:15:00 AM 6.89 44.402 0.232 8.03 11.12 11.25
3/29/2021 12:30:00 AM 6.83 44.294 0.232 8.03 12.21 11.27
3/29/2021 12:45:00 AM 6.76 44.168 0.232 8.03 11.34 11.28
3/29/2021 1:00:00 AM 6.7 44.06 0.232 8.03 12.69 11.3
3/29/2021 1:15:00 AM 6.63 43.934 0.232 8.03 11.48 11.32
3/29/2021 1:30:00 AM 6.57 43.826 0.232 8.03 12.23 11.33
3/29/2021 1:45:00 AM 6.51 43.718 0.232 8.02 10.96 11.35
3/29/2021 2:00:00 AM 6.45 43.61 0.232 8.03 11.37 11.36
3/29/2021 2:15:00 AM 6.4 43.52 0.232 8.03 10.68 11.38
3/29/2021 2:30:00 AM 6.35 43.43 0.231 8.03 11.03 11.39
3/29/2021 2:45:00 AM 6.3 43.34 0.231 8.03 11.07 11.42
3/29/2021 3:00:00 AM 6.24 43.232 0.231 8.03 11.58 11.42
3/29/2021 3:15:00 AM 6.16 43.088 0.231 8.03 11.49 11.44
3/29/2021 3:30:00 AM 6.11 42.998 0.231 8.03 12.07 11.46
3/29/2021 3:45:00 AM 6.05 42.89 0.231 8.03 11.64 11.48
3/29/2021 4:00:00 AM 5.99 42.782 0.231 8.03 10.74 11.5
3/29/2021 4:15:00 AM 5.93 42.674 0.231 8.03 10.98 11.52
3/29/2021 4:30:00 AM 5.87 42.566 0.232 8.03 10.93 11.54
3/29/2021 4:45:00 AM 5.81 42.458 0.232 8.03 11.16 11.56
3/29/2021 5:00:00 AM 5.76 42.368 0.232 8.03 11.14 11.58
3/29/2021 5:15:00 AM 5.7 42.26 0.232 8.03 11.32 11.6
3/29/2021 5:30:00 AM 5.64 42.152 0.232 8.03 10.77 11.62
3/29/2021 5:45:00 AM 5.58 42.044 0.232 8.03 11.22 11.63
3/29/2021 6:00:00 AM 5.51 41.918 0.232 8.03 10.43 11.66
3/29/2021 6:15:00 AM 5.45 41.81 0.232 8.04 10.81 11.68
3/29/2021 6:30:00 AM 5.41 41.738 0.232 8.04 10.83 11.71
3/29/2021 6:45:00 AM 5.36 41.648 0.232 8.03 10.33 11.73
3/29/2021 7:00:00 AM 5.31 41.558 0.233 8.04 10.02 11.75
3/29/2021 7:15:00 AM 5.27 41.486 0.233 8.03 10.86 11.78
3/29/2021 7:30:00 AM 5.22 41.396 0.232 8.04 10.06 11.81
3/29/2021 7:45:00 AM 5.19 41.342 0.233 8.04 10.12 11.85
3/29/2021 8:00:00 AM 5.16 41.288 0.233 8.05 9.67 11.88
3/29/2021 8:15:00 AM 5.14 41.252 0.233 8.05 9.76 11.92
3/29/2021 8:30:00 AM 5.1 41.18 0.232 8.05 10.28 11.95
3/29/2021 8:45:00 AM 5.09 41.162 0.232 8.06 11.06 11.99
3/29/2021 9:00:00 AM 5.07 41.126 0.232 8.07 9.54 12.04
3/29/2021 9:15:00 AM 5.05 41.09 0.232 8.07 9.49 12.08
3/29/2021 9:30:00 AM 5.04 41.072 0.232 8.08 9.28 12.13
3/29/2021 9:45:00 AM 5.03 41.054 0.232 8.09 9.38 12.17
3/29/2021 10:00:00 AM 5.02 41.036 0.232 8.1 8.62 12.23
3/29/2021 10:15:00 AM 5.03 41.054 0.232 8.11 9.58 12.29
3/29/2021 10:30:00 AM 5.03 41.054 0.232 8.12 9.02 12.32
3/29/2021 10:45:00 AM 5.02 41.036 0.232 8.12 8.76 12.36
3/29/2021 11:00:00 AM 5.06 41.108 0.232 8.13 8.56 12.4
3/29/2021 11:15:00 AM 5.13 41.234 0.232 8.14 8.19 12.45
3/29/2021 11:30:00 AM 5.24 41.432 0.232 8.15 8.42 12.49
3/29/2021 11:45:00 AM 5.36 41.648 0.232 8.16 8.76 12.53
3/29/2021 12:00:00 PM 5.51 41.918 0.231 8.17 8.37 12.55
3/29/2021 12:15:00 PM 5.64 42.152 0.231 8.18 8.56 12.57
3/29/2021 12:30:00 PM 5.75 42.35 0.231 8.19 8.11 12.58
3/29/2021 12:45:00 PM 5.81 42.458 0.231 8.2 8.32 12.59
3/29/2021 1:00:00 PM 5.86 42.548 0.231 8.2 9.18 12.59
3/29/2021 1:15:00 PM 6.05 42.89 0.231 8.21 8.58 12.6
3/29/2021 1:30:00 PM 6.18 43.124 0.231 8.21 8.12 12.58
3/29/2021 1:45:00 PM 6.29 43.322 0.231 8.22 8.21 12.58
3/29/2021 2:00:00 PM 6.48 43.664 0.231 8.22 9.74 12.57
3/29/2021 2:15:00 PM 6.58 43.844 0.231 8.23 8.61 12.54
3/29/2021 2:30:00 PM 6.77 44.186 0.231 8.23 8.33 12.52
3/29/2021 2:45:00 PM 6.96 44.528 0.231 8.23 8.4 12.5
3/29/2021 3:00:00 PM 7.15 44.87 0.231 8.24 8.4 12.47
3/29/2021 3:15:00 PM 7.3 45.14 0.231 8.24 8.71 12.44
3/29/2021 3:30:00 PM 7.41 45.338 0.232 8.25 8.68 12.42
3/29/2021 3:45:00 PM 7.49 45.482 0.232 8.25 9.68 12.39
3/29/2021 4:00:00 PM 7.56 45.608 0.232 8.25 8.45 12.37
3/29/2021 4:15:00 PM 7.62 45.716 0.232 8.26 8.87 12.34
3/29/2021 4:30:00 PM 7.66 45.788 0.232 8.26 8.74 12.32
3/29/2021 4:45:00 PM 7.68 45.824 0.232 8.26 9.67 12.28
3/29/2021 5:00:00 PM 7.67 45.806 0.233 8.25 9.5 12.27
3/29/2021 5:15:00 PM 7.63 45.734 0.233 8.25 9.26 12.24
3/29/2021 5:30:00 PM 7.57 45.626 0.233 8.24 8.83 12.23
3/29/2021 5:45:00 PM 7.5 45.5 0.233 8.24 8.63 12.19
3/29/2021 6:00:00 PM 7.41 45.338 0.233 8.23 8.74 12.16
3/29/2021 6:15:00 PM 7.31 45.158 0.233 8.22 8.98 12.11
3/29/2021 6:30:00 PM 7.2 44.96 0.233 8.2 9.64 12.06
3/29/2021 6:45:00 PM 7.1 44.78 0.233 8.19 9.15 12
3/29/2021 7:00:00 PM 7.03 44.654 0.234 8.18 8.2 11.96
3/29/2021 7:15:00 PM 6.96 44.528 0.234 8.17 9.95 11.93
3/29/2021 7:30:00 PM 6.89 44.402 0.234 8.15 10.35 11.89
3/29/2021 7:45:00 PM 6.83 44.294 0.234 8.14 9.8 11.86
3/29/2021 8:00:00 PM 6.75 44.15 0.234 8.13 11.04 11.83
3/29/2021 8:15:00 PM 6.68 44.024 0.234 8.12 11.09 11.81
3/29/2021 8:30:00 PM 6.6 43.88 0.234 8.11 9.99 11.79
3/29/2021 8:45:00 PM 6.52 43.736 0.234 8.11 10.61 11.79
3/29/2021 9:00:00 PM 6.43 43.574 0.234 8.1 11.71 11.78
3/29/2021 9:15:00 PM 6.33 43.394 0.234 8.09 11.26 11.8
3/29/2021 9:30:00 PM 6.23 43.214 0.234 8.09 11.87 11.8
3/29/2021 9:45:00 PM 6.12 43.016 0.235 8.08 10.47 11.82
3/29/2021 10:00:00 PM 6 42.8 0.235 8.07 10.59 11.84
3/29/2021 10:15:00 PM 5.89 42.602 0.235 8.07 10.54 11.87
3/29/2021 10:30:00 PM 5.78 42.404 0.235 8.07 11.24 11.89
3/29/2021 10:45:00 PM 5.67 42.206 0.235 8.06 10.45 11.91
3/29/2021 11:00:00 PM 5.57 42.026 0.235 8.06 10.56 11.93
3/29/2021 11:15:00 PM 5.47 41.846 0.236 8.06 9.95 11.96
3/29/2021 11:30:00 PM 5.37 41.666 0.236 8.05 10.29 11.98
3/29/2021 11:45:00 PM 5.28 41.504 0.236 8.06 11.26 12.01
3/30/2021 12:00:00 AM 5.19 41.342 0.236 8.06 10.67 12.03
3/30/2021 12:15:00 AM 5.11 41.198 0.236 8.05 11.5 12.05
3/30/2021 12:30:00 AM 5.03 41.054 0.237 8.05 10.81 12.07
3/30/2021 12:45:00 AM 4.95 40.91 0.237 8.05 9.85 12.1
3/30/2021 1:00:00 AM 4.86 40.748 0.237 8.05 10.28 12.12
3/30/2021 1:15:00 AM 4.79 40.622 0.237 8.05 10.43 12.14
3/30/2021 1:30:00 AM 4.71 40.478 0.238 8.04 10.5 12.16
3/30/2021 1:45:00 AM 4.64 40.352 0.238 8.04 10.22 12.19
3/30/2021 2:00:00 AM 4.58 40.244 0.238 8.04 9.92 12.2
3/30/2021 2:15:00 AM 4.51 40.118 0.238 8.04 10.6 12.22
3/30/2021 2:30:00 AM 4.45 40.01 0.239 8.04 9.89 12.24
3/30/2021 2:45:00 AM 4.4 39.92 0.239 8.04 10.38 12.27
3/30/2021 3:00:00 AM 4.34 39.812 0.239 8.04 9.78 12.28
3/30/2021 3:15:00 AM 4.29 39.722 0.24 8.04 10.18 12.3
3/30/2021 3:30:00 AM 4.24 39.632 0.24 8.04 10.02 12.32
3/30/2021 3:45:00 AM 4.19 39.542 0.24 8.04 9.58 12.34
3/30/2021 4:00:00 AM 4.14 39.452 0.241 8.04 10.06 12.36
3/30/2021 4:15:00 AM 4.09 39.362 0.241 8.04 9.62 12.37
3/30/2021 4:30:00 AM 4.05 39.29 0.241 8.04 9.56 12.39
3/30/2021 4:45:00 AM 4.01 39.218 0.242 8.04 9.88 12.41
3/30/2021 5:00:00 AM 3.96 39.128 0.242 8.04 13.05 12.42
3/30/2021 5:15:00 AM 3.92 39.056 0.242 8.04 8.24 12.43
3/30/2021 5:30:00 AM 3.88 38.984 0.243 8.04 10.25 12.45
3/30/2021 5:45:00 AM 3.84 38.912 0.243 8.04 9.72 12.47
3/30/2021 6:00:00 AM 3.8 38.84 0.243 8.04 9.95 12.47
3/30/2021 6:15:00 AM 3.77 38.786 0.243 8.04 9.57 12.49
3/30/2021 6:30:00 AM 3.73 38.714 0.244 8.04 9.24 12.5
3/30/2021 6:45:00 AM 3.69 38.642 0.244 8.04 10.51 12.52
3/30/2021 7:00:00 AM 3.67 38.606 0.244 8.04 9.97 12.53
3/30/2021 7:15:00 AM 3.64 38.552 0.244 8.04 9.32 12.54
3/30/2021 7:30:00 AM 3.63 38.534 0.244 8.05 9.26 12.58
3/30/2021 7:45:00 AM 3.62 38.516 0.244 8.05 9.34 12.61
3/30/2021 8:00:00 AM 3.62 38.516 0.244 8.06 9.61 12.64
3/30/2021 8:15:00 AM 3.63 38.534 0.244 8.06 8.9 12.68
3/30/2021 8:30:00 AM 3.65 38.57 0.244 8.07 8.58 12.71
3/30/2021 8:45:00 AM 3.68 38.624 0.244 8.07 8.58 12.75
3/30/2021 9:00:00 AM 3.73 38.714 0.244 8.08 8.07 12.78
3/30/2021 9:15:00 AM 3.8 38.84 0.244 8.09 7.99 12.82
3/30/2021 9:30:00 AM 3.89 39.002 0.244 8.1 8.12 12.85
3/30/2021 9:45:00 AM 4 39.2 0.244 8.11 7.72 12.88
3/30/2021 10:00:00 AM 4.12 39.416 0.244 8.13 8.03 12.91
3/30/2021 10:15:00 AM 4.26 39.668 0.244 8.13 8.45 12.92
3/30/2021 10:30:00 AM 4.42 39.956 0.244 8.14 7.63 12.93
3/30/2021 10:45:00 AM 4.59 40.262 0.244 8.15 8.26 12.94
3/30/2021 11:00:00 AM 4.78 40.604 0.244 8.16 7.82 12.94
3/30/2021 11:15:00 AM 4.98 40.964 0.244 8.17 7.77 12.93
3/30/2021 11:30:00 AM 5.2 41.36 0.244 8.18 7.53 12.92
3/30/2021 11:45:00 AM 5.43 41.774 0.244 8.19 8.12 12.91
3/30/2021 12:00:00 PM 5.66 42.188 0.244 8.19 8.14 12.89
3/30/2021 12:15:00 PM 5.9 42.62 0.244 8.2 8.34 12.86
3/30/2021 12:30:00 PM 6.14 43.052 0.244 8.21 7.96 12.84
3/30/2021 12:45:00 PM 6.38 43.484 0.244 8.21 7.95 12.81
3/30/2021 1:00:00 PM 6.63 43.934 0.244 8.22 8.66 12.77
3/30/2021 1:15:00 PM 6.88 44.384 0.244 8.23 8.35 12.74
3/30/2021 1:30:00 PM 7.12 44.816 0.244 8.23 8.11 12.7
3/30/2021 1:45:00 PM 7.35 45.23 0.244 8.24 7.99 12.66
3/30/2021 2:00:00 PM 7.57 45.626 0.244 8.25 8.1 12.61
3/30/2021 2:15:00 PM 7.79 46.022 0.244 8.25 7.66 12.57
3/30/2021 2:30:00 PM 7.99 46.382 0.244 8.26 8.69 12.53
3/30/2021 2:45:00 PM 8.18 46.724 0.244 8.26 8.09 12.48
3/30/2021 3:00:00 PM 8.35 47.03 0.244 8.27 7.78 12.43
3/30/2021 3:15:00 PM 8.5 47.3 0.244 8.27 8.38 12.39
3/30/2021 3:30:00 PM 8.64 47.552 0.244 8.27 7.67 12.35
3/30/2021 3:45:00 PM 8.76 47.768 0.244 8.28 7.95 12.31
3/30/2021 4:00:00 PM 8.87 47.966 0.244 8.28 8.37 12.26
3/30/2021 4:15:00 PM 8.95 48.11 0.244 8.28 8.4 12.21
3/30/2021 4:30:00 PM 9.02 48.236 0.244 8.29 9.06 12.17
3/30/2021 4:45:00 PM 9.06 48.308 0.244 8.28 9.21 12.12
3/30/2021 5:00:00 PM 9.08 48.344 0.244 8.28 11.89 12.08
3/30/2021 5:15:00 PM 9.07 48.326 0.245 8.28 9.32 12.04
3/30/2021 5:30:00 PM 9.04 48.272 0.245 8.28 9.37 12
3/30/2021 5:45:00 PM 8.99 48.182 0.245 8.27 11.02 11.94
3/30/2021 6:00:00 PM 8.94 48.092 0.245 8.26 11.14 11.9
3/30/2021 6:15:00 PM 8.85 47.93 0.245 8.25 10.11 11.84
3/30/2021 6:30:00 PM 8.77 47.786 0.246 8.24 8.31 11.77
3/30/2021 6:45:00 PM 8.68 47.624 0.246 8.22 9.26 11.7
3/30/2021 7:00:00 PM 8.6 47.48 0.246 8.21 11.07 11.64
3/30/2021 7:15:00 PM 8.52 47.336 0.246 8.19 9.39 11.6
3/30/2021 7:30:00 PM 8.44 47.192 0.246 8.18 9.4 11.55
3/30/2021 7:45:00 PM 8.36 47.048 0.247 8.17 10.03 11.51
3/30/2021 8:00:00 PM 8.27 46.886 0.247 8.15 10.31 11.47
3/30/2021 8:15:00 PM 8.18 46.724 0.247 8.14 10.73 11.44
3/30/2021 8:30:00 PM 8.09 46.562 0.247 8.13 11.88 11.42
3/30/2021 8:45:00 PM 8 46.4 0.247 8.12 9.58 11.41
3/30/2021 9:00:00 PM 7.92 46.256 0.247 8.12 10.36 11.4
3/30/2021 9:15:00 PM 7.84 46.112 0.248 8.11 9.91 11.4
3/30/2021 9:30:00 PM 7.77 45.986 0.248 8.11 10.12 11.39
3/30/2021 9:45:00 PM 7.69 45.842 0.248 8.1 10.09 11.39
3/30/2021 10:00:00 PM 7.62 45.716 0.248 8.1 9.89 11.4
3/30/2021 10:15:00 PM 7.55 45.59 0.249 8.09 11.62 11.4
3/30/2021 10:30:00 PM 7.49 45.482 0.249 8.09 10.13 11.41
3/30/2021 10:45:00 PM 7.42 45.356 0.249 8.09 10.34 11.42
3/30/2021 11:00:00 PM 7.36 45.248 0.249 8.09 10.98 11.42
3/30/2021 11:15:00 PM 7.3 45.14 0.249 8.08 11.04 11.43
3/30/2021 11:30:00 PM 7.24 45.032 0.25 8.08 10.07 11.45
3/30/2021 11:45:00 PM 7.19 44.942 0.25 8.08 8.91 11.45
3/31/2021 12:00:00 AM 7.13 44.834 0.25 8.08 9.43 11.46
3/31/2021 12:15:00 AM 7.07 44.726 0.25 8.07 8.95 11.47
3/31/2021 12:30:00 AM 7.02 44.636 0.25 8.08 15.87 11.49
3/31/2021 12:45:00 AM 6.97 44.546 0.25 8.08 9.25 11.5
3/31/2021 1:00:00 AM 6.93 44.474 0.251 8.07 10.37 11.51
3/31/2021 1:15:00 AM 6.88 44.384 0.251 8.07 11.31 11.51
3/31/2021 1:30:00 AM 6.84 44.312 0.251 8.07 8.89 11.52
3/31/2021 1:45:00 AM 6.79 44.222 0.251 8.07 8.9 11.53
3/31/2021 2:00:00 AM 6.76 44.168 0.251 8.07 9.67 11.54
3/31/2021 2:15:00 AM 6.72 44.096 0.251 8.07 8.41 11.55
3/31/2021 2:30:00 AM 6.69 44.042 0.251 8.07 8.3 11.55
3/31/2021 2:45:00 AM 6.66 43.988 0.252 8.06 9.39 11.56
3/31/2021 3:00:00 AM 6.63 43.934 0.252 8.07 8.58 11.57
3/31/2021 3:15:00 AM 6.6 43.88 0.252 8.06 8.74 11.57
3/31/2021 3:30:00 AM 6.59 43.862 0.252 8.07 9.01 11.58
3/31/2021 3:45:00 AM 6.57 43.826 0.253 8.07 12.23 11.58
3/31/2021 4:00:00 AM 6.56 43.808 0.253 8.07 11.76 11.58
3/31/2021 4:15:00 AM 6.55 43.79 0.253 8.07 11.57 11.59
3/31/2021 4:30:00 AM 6.53 43.754 0.253 8.06 8.96 11.59
3/31/2021 4:45:00 AM 6.51 43.718 0.253 8.07 9.23 11.59
3/31/2021 5:00:00 AM 6.49 43.682 0.254 8.07 9.61 11.59
3/31/2021 5:15:00 AM 6.49 43.682 0.254 8.07 8.93 11.59
3/31/2021 5:30:00 AM 6.48 43.664 0.254 8.06 8.62 11.59
3/31/2021 5:45:00 AM 6.49 43.682 0.254 8.07 8.77 11.59
3/31/2021 6:00:00 AM 6.49 43.682 0.254 8.07 9.03 11.6
3/31/2021 6:15:00 AM 6.5 43.7 0.254 8.07 9.2 11.59
3/31/2021 6:30:00 AM 6.51 43.718 0.254 8.07 8.36 11.59
3/31/2021 6:45:00 AM 6.51 43.718 0.255 8.07 8.4 11.59
3/31/2021 7:00:00 AM 6.53 43.754 0.255 8.07 8.69 11.59
3/31/2021 7:15:00 AM 6.55 43.79 0.255 8.07 8.83 11.59
3/31/2021 7:30:00 AM 6.57 43.826 0.255 8.08 8.94 11.6
3/31/2021 7:45:00 AM 6.6 43.88 0.255 8.08 8.57 11.63
3/31/2021 8:00:00 AM 6.65 43.97 0.255 8.09 8.51 11.68
3/31/2021 8:15:00 AM 6.7 44.06 0.255 8.1 8.43 11.73
3/31/2021 8:30:00 AM 6.76 44.168 0.255 8.12 9.04 11.78
3/31/2021 8:45:00 AM 6.82 44.276 0.255 8.13 8.49 11.84
3/31/2021 9:00:00 AM 6.88 44.384 0.255 8.14 7.91 11.88
3/31/2021 9:15:00 AM 6.96 44.528 0.255 8.16 7.95 11.93
3/31/2021 9:30:00 AM 7.04 44.672 0.255 8.17 7.45 11.96
3/31/2021 9:45:00 AM 7.1 44.78 0.255 8.18 7.77 11.99
3/31/2021 10:00:00 AM 7.17 44.906 0.255 8.19 8.12 12.01
3/31/2021 10:15:00 AM 7.25 45.05 0.255 8.2 7.6 12.03
3/31/2021 10:30:00 AM 7.32 45.176 0.255 8.21 7.97 12.05
3/31/2021 10:45:00 AM 7.39 45.302 0.256 8.22 7.41 12.06
3/31/2021 11:00:00 AM 7.46 45.428 0.256 8.23 7.1 12.08
3/31/2021 11:15:00 AM 7.52 45.536 0.256 8.24 7.38 12.07
3/31/2021 11:30:00 AM 7.59 45.662 0.256 8.25 8.22 12.08
3/31/2021 11:45:00 AM 7.66 45.788 0.255 8.25 7.95 12.07